<?xml version="1.0" encoding="UTF-8" standalone="no" ?>
<gpx xmlns="http://www.topografix.com/GPX/1/1" xmlns:xsi="http://www.w3.org/2001/XMLSchema-instance" xsi:schemaLocation="http://www.topografix.com/GPX/1/1 http://www.topografix.com/GPX/1/1/gpx.xsd" version="1.1" creator="VisuGPX - https://www.visugpx.com">
  <metadata>
    <name>Gemsa Ski de Rando 2014-03-14 J6 : Refuge Wallon - Refuge Oulettes de Gaube</name>
    <desc><![CDATA[Refuge Wallon (1865m)
Lacs d\\\'Arratille (2247m)
Col du Chapeau (2552m)
Couloir N, O du Pic de la Badete d\\\'Arratille (2600m)
Col d\\\'Arratille (2528m)
Col des Mulets (2591m)
Refuge des Oulettes de Gaube (2151m)]]></desc>
  </metadata>
  <trk>
    <name><![CDATA[Gemsa Ski de Rando 2014-03-14 J6 : Refuge Wallon - Refuge Oulettes de Gaube_1]]></name>
    <trkseg>
      <trkpt lat="42.81973" lon="-0.19553">
        <ele>1837.0780029297</ele>
        <time>2014-03-14T06:59:27Z</time>
      </trkpt>
      <trkpt lat="42.81974" lon="-0.19552">
        <ele>1840.2659912109</ele>
        <time>2014-03-14T06:59:38Z</time>
      </trkpt>
      <trkpt lat="42.81974" lon="-0.19552">
        <ele>1841.1929931641</ele>
        <time>2014-03-14T06:59:40Z</time>
      </trkpt>
      <trkpt lat="42.81973" lon="-0.19553">
        <ele>1841.9799804688</ele>
        <time>2014-03-14T06:59:44Z</time>
      </trkpt>
      <trkpt lat="42.81964" lon="-0.19565">
        <ele>1844.5870361328</ele>
        <time>2014-03-14T06:59:55Z</time>
      </trkpt>
      <trkpt lat="42.81948" lon="-0.1958">
        <ele>1847.4010009766</ele>
        <time>2014-03-14T07:00:14Z</time>
      </trkpt>
      <trkpt lat="42.81931" lon="-0.19597">
        <ele>1849.4630126953</ele>
        <time>2014-03-14T07:00:33Z</time>
      </trkpt>
      <trkpt lat="42.81915" lon="-0.1961">
        <ele>1851.1140136719</ele>
        <time>2014-03-14T07:00:53Z</time>
      </trkpt>
      <trkpt lat="42.81903" lon="-0.19622">
        <ele>1852.2139892578</ele>
        <time>2014-03-14T07:01:16Z</time>
      </trkpt>
      <trkpt lat="42.81894" lon="-0.1962">
        <ele>1851.1390380859</ele>
        <time>2014-03-14T07:01:36Z</time>
      </trkpt>
      <trkpt lat="42.81887" lon="-0.19615">
        <ele>1849.8869628906</ele>
        <time>2014-03-14T07:01:52Z</time>
      </trkpt>
      <trkpt lat="42.81873" lon="-0.19606">
        <ele>1851.2840576172</ele>
        <time>2014-03-14T07:02:11Z</time>
      </trkpt>
      <trkpt lat="42.8186" lon="-0.1959">
        <ele>1851.9790039062</ele>
        <time>2014-03-14T07:02:28Z</time>
      </trkpt>
      <trkpt lat="42.81843" lon="-0.19571">
        <ele>1853.6070556641</ele>
        <time>2014-03-14T07:02:48Z</time>
      </trkpt>
      <trkpt lat="42.81837" lon="-0.19564">
        <ele>1855.2760009766</ele>
        <time>2014-03-14T07:03:10Z</time>
      </trkpt>
      <trkpt lat="42.81838" lon="-0.1956">
        <ele>1855.8160400391</ele>
        <time>2014-03-14T07:03:55Z</time>
      </trkpt>
      <trkpt lat="42.81837" lon="-0.19522">
        <ele>1853.6639404297</ele>
        <time>2014-03-14T07:04:16Z</time>
      </trkpt>
      <trkpt lat="42.81834" lon="-0.19495">
        <ele>1852.8470458984</ele>
        <time>2014-03-14T07:04:36Z</time>
      </trkpt>
      <trkpt lat="42.81832" lon="-0.19472">
        <ele>1853.4549560547</ele>
        <time>2014-03-14T07:04:58Z</time>
      </trkpt>
      <trkpt lat="42.81826" lon="-0.1944">
        <ele>1852.6810302734</ele>
        <time>2014-03-14T07:05:25Z</time>
      </trkpt>
      <trkpt lat="42.81814" lon="-0.19413">
        <ele>1852.2580566406</ele>
        <time>2014-03-14T07:05:48Z</time>
      </trkpt>
      <trkpt lat="42.81802" lon="-0.19394">
        <ele>1853.3900146484</ele>
        <time>2014-03-14T07:06:13Z</time>
      </trkpt>
      <trkpt lat="42.81791" lon="-0.19376">
        <ele>1855.1719970703</ele>
        <time>2014-03-14T07:06:40Z</time>
      </trkpt>
      <trkpt lat="42.8178" lon="-0.19355">
        <ele>1856.5469970703</ele>
        <time>2014-03-14T07:07:07Z</time>
      </trkpt>
      <trkpt lat="42.81768" lon="-0.19334">
        <ele>1857.0500488281</ele>
        <time>2014-03-14T07:07:33Z</time>
      </trkpt>
      <trkpt lat="42.81756" lon="-0.19319">
        <ele>1859.1159667969</ele>
        <time>2014-03-14T07:07:57Z</time>
      </trkpt>
      <trkpt lat="42.81751" lon="-0.19314">
        <ele>1859.6369628906</ele>
        <time>2014-03-14T07:08:05Z</time>
      </trkpt>
      <trkpt lat="42.81737" lon="-0.19294">
        <ele>1862.0639648438</ele>
        <time>2014-03-14T07:08:28Z</time>
      </trkpt>
      <trkpt lat="42.8173" lon="-0.19279">
        <ele>1863.4300537109</ele>
        <time>2014-03-14T07:08:49Z</time>
      </trkpt>
      <trkpt lat="42.81721" lon="-0.19254">
        <ele>1866.25</ele>
        <time>2014-03-14T07:09:23Z</time>
      </trkpt>
      <trkpt lat="42.81717" lon="-0.19231">
        <ele>1869.5250244141</ele>
        <time>2014-03-14T07:09:56Z</time>
      </trkpt>
      <trkpt lat="42.81715" lon="-0.19212">
        <ele>1872.5920410156</ele>
        <time>2014-03-14T07:10:26Z</time>
      </trkpt>
      <trkpt lat="42.81718" lon="-0.19195">
        <ele>1875.6490478516</ele>
        <time>2014-03-14T07:10:49Z</time>
      </trkpt>
      <trkpt lat="42.81721" lon="-0.19188">
        <ele>1876.8959960938</ele>
        <time>2014-03-14T07:11:04Z</time>
      </trkpt>
      <trkpt lat="42.81725" lon="-0.1918">
        <ele>1877.9809570312</ele>
        <time>2014-03-14T07:11:22Z</time>
      </trkpt>
      <trkpt lat="42.81709" lon="-0.19164">
        <ele>1876.8859863281</ele>
        <time>2014-03-14T07:11:44Z</time>
      </trkpt>
      <trkpt lat="42.81688" lon="-0.1915">
        <ele>1875.5949707031</ele>
        <time>2014-03-14T07:12:11Z</time>
      </trkpt>
      <trkpt lat="42.81676" lon="-0.19152">
        <ele>1873.7729492188</ele>
        <time>2014-03-14T07:12:28Z</time>
      </trkpt>
      <trkpt lat="42.81653" lon="-0.19158">
        <ele>1872.2409667969</ele>
        <time>2014-03-14T07:12:50Z</time>
      </trkpt>
      <trkpt lat="42.81634" lon="-0.1916">
        <ele>1872.9859619141</ele>
        <time>2014-03-14T07:13:13Z</time>
      </trkpt>
      <trkpt lat="42.81617" lon="-0.19169">
        <ele>1874.70703125</ele>
        <time>2014-03-14T07:13:37Z</time>
      </trkpt>
      <trkpt lat="42.81612" lon="-0.19188">
        <ele>1877.0889892578</ele>
        <time>2014-03-14T07:14:02Z</time>
      </trkpt>
      <trkpt lat="42.81608" lon="-0.19196">
        <ele>1880.2810058594</ele>
        <time>2014-03-14T07:14:22Z</time>
      </trkpt>
      <trkpt lat="42.8159" lon="-0.19199">
        <ele>1881.5489501953</ele>
        <time>2014-03-14T07:14:46Z</time>
      </trkpt>
      <trkpt lat="42.81572" lon="-0.19206">
        <ele>1882.0090332031</ele>
        <time>2014-03-14T07:15:13Z</time>
      </trkpt>
      <trkpt lat="42.81563" lon="-0.19204">
        <ele>1881.0610351562</ele>
        <time>2014-03-14T07:15:31Z</time>
      </trkpt>
      <trkpt lat="42.81549" lon="-0.19202">
        <ele>1878.9709472656</ele>
        <time>2014-03-14T07:15:50Z</time>
      </trkpt>
      <trkpt lat="42.81533" lon="-0.19189">
        <ele>1878.7259521484</ele>
        <time>2014-03-14T07:16:15Z</time>
      </trkpt>
      <trkpt lat="42.8152" lon="-0.1919">
        <ele>1875.7359619141</ele>
        <time>2014-03-14T07:16:32Z</time>
      </trkpt>
      <trkpt lat="42.81514" lon="-0.19185">
        <ele>1872.9899902344</ele>
        <time>2014-03-14T07:16:56Z</time>
      </trkpt>
      <trkpt lat="42.815" lon="-0.19177">
        <ele>1870.3719482422</ele>
        <time>2014-03-14T07:17:07Z</time>
      </trkpt>
      <trkpt lat="42.8148" lon="-0.19159">
        <ele>1870.3330078125</ele>
        <time>2014-03-14T07:17:31Z</time>
      </trkpt>
      <trkpt lat="42.8146" lon="-0.19132">
        <ele>1871.6999511719</ele>
        <time>2014-03-14T07:17:59Z</time>
      </trkpt>
      <trkpt lat="42.81449" lon="-0.19114">
        <ele>1872.9449462891</ele>
        <time>2014-03-14T07:18:20Z</time>
      </trkpt>
      <trkpt lat="42.81432" lon="-0.19101">
        <ele>1874.3470458984</ele>
        <time>2014-03-14T07:18:46Z</time>
      </trkpt>
      <trkpt lat="42.81418" lon="-0.19099">
        <ele>1877.1519775391</ele>
        <time>2014-03-14T07:19:07Z</time>
      </trkpt>
      <trkpt lat="42.8141" lon="-0.19089">
        <ele>1878.5500488281</ele>
        <time>2014-03-14T07:19:25Z</time>
      </trkpt>
      <trkpt lat="42.81408" lon="-0.19076">
        <ele>1881.2299804688</ele>
        <time>2014-03-14T07:19:47Z</time>
      </trkpt>
      <trkpt lat="42.81394" lon="-0.19081">
        <ele>1884.1340332031</ele>
        <time>2014-03-14T07:20:07Z</time>
      </trkpt>
      <trkpt lat="42.81387" lon="-0.19079">
        <ele>1885.9429931641</ele>
        <time>2014-03-14T07:20:24Z</time>
      </trkpt>
      <trkpt lat="42.81384" lon="-0.19086">
        <ele>1887.8459472656</ele>
        <time>2014-03-14T07:20:41Z</time>
      </trkpt>
      <trkpt lat="42.81376" lon="-0.19087">
        <ele>1890.498046875</ele>
        <time>2014-03-14T07:21:01Z</time>
      </trkpt>
      <trkpt lat="42.81367" lon="-0.19088">
        <ele>1892.6300048828</ele>
        <time>2014-03-14T07:21:25Z</time>
      </trkpt>
      <trkpt lat="42.81355" lon="-0.19088">
        <ele>1895.1359863281</ele>
        <time>2014-03-14T07:21:43Z</time>
      </trkpt>
      <trkpt lat="42.8134" lon="-0.19097">
        <ele>1897.1309814453</ele>
        <time>2014-03-14T07:22:05Z</time>
      </trkpt>
      <trkpt lat="42.81327" lon="-0.19097">
        <ele>1898.6899414062</ele>
        <time>2014-03-14T07:22:24Z</time>
      </trkpt>
      <trkpt lat="42.81316" lon="-0.19094">
        <ele>1899.5579833984</ele>
        <time>2014-03-14T07:22:39Z</time>
      </trkpt>
      <trkpt lat="42.81317" lon="-0.19092">
        <ele>1899.9720458984</ele>
        <time>2014-03-14T07:23:04Z</time>
      </trkpt>
      <trkpt lat="42.81301" lon="-0.19097">
        <ele>1899.7629394531</ele>
        <time>2014-03-14T07:23:32Z</time>
      </trkpt>
      <trkpt lat="42.81282" lon="-0.191">
        <ele>1900.9809570312</ele>
        <time>2014-03-14T07:23:54Z</time>
      </trkpt>
      <trkpt lat="42.8126" lon="-0.19093">
        <ele>1900.4360351562</ele>
        <time>2014-03-14T07:24:15Z</time>
      </trkpt>
      <trkpt lat="42.81245" lon="-0.19083">
        <ele>1901.251953125</ele>
        <time>2014-03-14T07:24:34Z</time>
      </trkpt>
      <trkpt lat="42.81233" lon="-0.19079">
        <ele>1904.3280029297</ele>
        <time>2014-03-14T07:24:54Z</time>
      </trkpt>
      <trkpt lat="42.81221" lon="-0.19083">
        <ele>1905.6419677734</ele>
        <time>2014-03-14T07:25:14Z</time>
      </trkpt>
      <trkpt lat="42.81218" lon="-0.19064">
        <ele>1907.4969482422</ele>
        <time>2014-03-14T07:25:34Z</time>
      </trkpt>
      <trkpt lat="42.81218" lon="-0.19064">
        <ele>1908.7769775391</ele>
        <time>2014-03-14T07:25:37Z</time>
      </trkpt>
      <trkpt lat="42.81203" lon="-0.19067">
        <ele>1909.5780029297</ele>
        <time>2014-03-14T07:25:56Z</time>
      </trkpt>
      <trkpt lat="42.81195" lon="-0.19052">
        <ele>1912.7209472656</ele>
        <time>2014-03-14T07:26:15Z</time>
      </trkpt>
      <trkpt lat="42.8118" lon="-0.19047">
        <ele>1914.9539794922</ele>
        <time>2014-03-14T07:26:35Z</time>
      </trkpt>
      <trkpt lat="42.81164" lon="-0.19046">
        <ele>1918.3890380859</ele>
        <time>2014-03-14T07:26:57Z</time>
      </trkpt>
      <trkpt lat="42.8114" lon="-0.19042">
        <ele>1918.8430175781</ele>
        <time>2014-03-14T07:27:21Z</time>
      </trkpt>
      <trkpt lat="42.81128" lon="-0.19038">
        <ele>1920.3890380859</ele>
        <time>2014-03-14T07:27:37Z</time>
      </trkpt>
      <trkpt lat="42.81115" lon="-0.19039">
        <ele>1921.2740478516</ele>
        <time>2014-03-14T07:27:58Z</time>
      </trkpt>
      <trkpt lat="42.81099" lon="-0.19031">
        <ele>1921.9429931641</ele>
        <time>2014-03-14T07:28:18Z</time>
      </trkpt>
      <trkpt lat="42.81086" lon="-0.19037">
        <ele>1924.0279541016</ele>
        <time>2014-03-14T07:28:41Z</time>
      </trkpt>
      <trkpt lat="42.81075" lon="-0.19044">
        <ele>1925.6259765625</ele>
        <time>2014-03-14T07:29:01Z</time>
      </trkpt>
      <trkpt lat="42.81071" lon="-0.19053">
        <ele>1927.1719970703</ele>
        <time>2014-03-14T07:29:18Z</time>
      </trkpt>
      <trkpt lat="42.81059" lon="-0.19054">
        <ele>1929.0350341797</ele>
        <time>2014-03-14T07:29:39Z</time>
      </trkpt>
      <trkpt lat="42.81051" lon="-0.19045">
        <ele>1932.2509765625</ele>
        <time>2014-03-14T07:29:59Z</time>
      </trkpt>
      <trkpt lat="42.81044" lon="-0.19029">
        <ele>1935.4930419922</ele>
        <time>2014-03-14T07:30:27Z</time>
      </trkpt>
      <trkpt lat="42.81041" lon="-0.1902">
        <ele>1937.7110595703</ele>
        <time>2014-03-14T07:30:49Z</time>
      </trkpt>
      <trkpt lat="42.81033" lon="-0.19031">
        <ele>1939.4399414062</ele>
        <time>2014-03-14T07:31:06Z</time>
      </trkpt>
      <trkpt lat="42.81027" lon="-0.19045">
        <ele>1942.4720458984</ele>
        <time>2014-03-14T07:31:30Z</time>
      </trkpt>
      <trkpt lat="42.81019" lon="-0.1905">
        <ele>1945.1280517578</ele>
        <time>2014-03-14T07:31:52Z</time>
      </trkpt>
      <trkpt lat="42.81015" lon="-0.19042">
        <ele>1947.5169677734</ele>
        <time>2014-03-14T07:32:11Z</time>
      </trkpt>
      <trkpt lat="42.81005" lon="-0.19029">
        <ele>1950.0369873047</ele>
        <time>2014-03-14T07:32:33Z</time>
      </trkpt>
      <trkpt lat="42.81001" lon="-0.19034">
        <ele>1952.4809570312</ele>
        <time>2014-03-14T07:32:53Z</time>
      </trkpt>
      <trkpt lat="42.80995" lon="-0.19046">
        <ele>1955.4880371094</ele>
        <time>2014-03-14T07:33:18Z</time>
      </trkpt>
      <trkpt lat="42.80996" lon="-0.19049">
        <ele>1955.4780273438</ele>
        <time>2014-03-14T07:34:43Z</time>
      </trkpt>
      <trkpt lat="42.80985" lon="-0.19056">
        <ele>1958.9379882812</ele>
        <time>2014-03-14T07:37:19Z</time>
      </trkpt>
      <trkpt lat="42.80971" lon="-0.19071">
        <ele>1962.6629638672</ele>
        <time>2014-03-14T07:37:40Z</time>
      </trkpt>
      <trkpt lat="42.80959" lon="-0.19069">
        <ele>1965.8940429688</ele>
        <time>2014-03-14T07:37:59Z</time>
      </trkpt>
      <trkpt lat="42.80946" lon="-0.19057">
        <ele>1968.7750244141</ele>
        <time>2014-03-14T07:38:25Z</time>
      </trkpt>
      <trkpt lat="42.80936" lon="-0.19049">
        <ele>1972.2170410156</ele>
        <time>2014-03-14T07:38:40Z</time>
      </trkpt>
      <trkpt lat="42.80923" lon="-0.19042">
        <ele>1975.7960205078</ele>
        <time>2014-03-14T07:39:01Z</time>
      </trkpt>
      <trkpt lat="42.8091" lon="-0.19037">
        <ele>1978.7290039062</ele>
        <time>2014-03-14T07:39:23Z</time>
      </trkpt>
      <trkpt lat="42.809" lon="-0.19037">
        <ele>1981.9539794922</ele>
        <time>2014-03-14T07:39:36Z</time>
      </trkpt>
      <trkpt lat="42.80888" lon="-0.19026">
        <ele>1985.3360595703</ele>
        <time>2014-03-14T07:39:57Z</time>
      </trkpt>
      <trkpt lat="42.80881" lon="-0.19012">
        <ele>1988.3499755859</ele>
        <time>2014-03-14T07:40:15Z</time>
      </trkpt>
      <trkpt lat="42.80881" lon="-0.1901">
        <ele>1988.6080322266</ele>
        <time>2014-03-14T07:40:17Z</time>
      </trkpt>
      <trkpt lat="42.80878" lon="-0.18996">
        <ele>1989.4229736328</ele>
        <time>2014-03-14T07:40:35Z</time>
      </trkpt>
      <trkpt lat="42.80867" lon="-0.18972">
        <ele>1989.9840087891</ele>
        <time>2014-03-14T07:40:54Z</time>
      </trkpt>
      <trkpt lat="42.80859" lon="-0.18959">
        <ele>1991.0090332031</ele>
        <time>2014-03-14T07:41:18Z</time>
      </trkpt>
      <trkpt lat="42.80857" lon="-0.18956">
        <ele>1990.7249755859</ele>
        <time>2014-03-14T07:42:29Z</time>
      </trkpt>
      <trkpt lat="42.80858" lon="-0.18955">
        <ele>1991.1739501953</ele>
        <time>2014-03-14T07:43:23Z</time>
      </trkpt>
      <trkpt lat="42.80853" lon="-0.18932">
        <ele>1993.6920166016</ele>
        <time>2014-03-14T07:46:18Z</time>
      </trkpt>
      <trkpt lat="42.80845" lon="-0.18916">
        <ele>1995.2199707031</ele>
        <time>2014-03-14T07:46:41Z</time>
      </trkpt>
      <trkpt lat="42.80832" lon="-0.18899">
        <ele>1996.7600097656</ele>
        <time>2014-03-14T07:47:05Z</time>
      </trkpt>
      <trkpt lat="42.80818" lon="-0.18882">
        <ele>1998.9029541016</ele>
        <time>2014-03-14T07:47:30Z</time>
      </trkpt>
      <trkpt lat="42.80798" lon="-0.18866">
        <ele>2000.1829833984</ele>
        <time>2014-03-14T07:47:59Z</time>
      </trkpt>
      <trkpt lat="42.80787" lon="-0.18851">
        <ele>2003.2170410156</ele>
        <time>2014-03-14T07:48:22Z</time>
      </trkpt>
      <trkpt lat="42.80771" lon="-0.18835">
        <ele>2006.458984375</ele>
        <time>2014-03-14T07:48:50Z</time>
      </trkpt>
      <trkpt lat="42.80751" lon="-0.18831">
        <ele>2007.5799560547</ele>
        <time>2014-03-14T07:49:14Z</time>
      </trkpt>
      <trkpt lat="42.80738" lon="-0.18818">
        <ele>2009.0720214844</ele>
        <time>2014-03-14T07:49:37Z</time>
      </trkpt>
      <trkpt lat="42.80727" lon="-0.18808">
        <ele>2012.1080322266</ele>
        <time>2014-03-14T07:49:56Z</time>
      </trkpt>
      <trkpt lat="42.80713" lon="-0.18794">
        <ele>2015.1529541016</ele>
        <time>2014-03-14T07:50:18Z</time>
      </trkpt>
      <trkpt lat="42.807" lon="-0.18786">
        <ele>2016.5489501953</ele>
        <time>2014-03-14T07:50:38Z</time>
      </trkpt>
      <trkpt lat="42.80691" lon="-0.18772">
        <ele>2016.5970458984</ele>
        <time>2014-03-14T07:50:53Z</time>
      </trkpt>
      <trkpt lat="42.80684" lon="-0.18741">
        <ele>2015.4000244141</ele>
        <time>2014-03-14T07:51:17Z</time>
      </trkpt>
      <trkpt lat="42.80683" lon="-0.18736">
        <ele>2015.3189697266</ele>
        <time>2014-03-14T07:51:20Z</time>
      </trkpt>
      <trkpt lat="42.80681" lon="-0.18729">
        <ele>2014.2170410156</ele>
        <time>2014-03-14T07:51:24Z</time>
      </trkpt>
      <trkpt lat="42.80681" lon="-0.18725">
        <ele>2013.4389648438</ele>
        <time>2014-03-14T07:51:26Z</time>
      </trkpt>
      <trkpt lat="42.80672" lon="-0.18698">
        <ele>2011.1290283203</ele>
        <time>2014-03-14T07:51:46Z</time>
      </trkpt>
      <trkpt lat="42.80658" lon="-0.18683">
        <ele>2012.3139648438</ele>
        <time>2014-03-14T07:52:07Z</time>
      </trkpt>
      <trkpt lat="42.80653" lon="-0.18679">
        <ele>2013.3020019531</ele>
        <time>2014-03-14T07:52:12Z</time>
      </trkpt>
      <trkpt lat="42.80648" lon="-0.18654">
        <ele>2014.4460449219</ele>
        <time>2014-03-14T07:52:37Z</time>
      </trkpt>
      <trkpt lat="42.80639" lon="-0.18632">
        <ele>2016.6760253906</ele>
        <time>2014-03-14T07:53:03Z</time>
      </trkpt>
      <trkpt lat="42.80631" lon="-0.18613">
        <ele>2019.7239990234</ele>
        <time>2014-03-14T07:53:27Z</time>
      </trkpt>
      <trkpt lat="42.80624" lon="-0.1859">
        <ele>2021.8129882812</ele>
        <time>2014-03-14T07:53:52Z</time>
      </trkpt>
      <trkpt lat="42.80616" lon="-0.18566">
        <ele>2023.2969970703</ele>
        <time>2014-03-14T07:54:22Z</time>
      </trkpt>
      <trkpt lat="42.80613" lon="-0.18536">
        <ele>2026.8699951172</ele>
        <time>2014-03-14T07:54:56Z</time>
      </trkpt>
      <trkpt lat="42.80609" lon="-0.18518">
        <ele>2029.8740234375</ele>
        <time>2014-03-14T07:55:16Z</time>
      </trkpt>
      <trkpt lat="42.80602" lon="-0.18495">
        <ele>2032.2979736328</ele>
        <time>2014-03-14T07:55:43Z</time>
      </trkpt>
      <trkpt lat="42.80597" lon="-0.18483">
        <ele>2035.4050292969</ele>
        <time>2014-03-14T07:56:03Z</time>
      </trkpt>
      <trkpt lat="42.80591" lon="-0.18465">
        <ele>2038.6240234375</ele>
        <time>2014-03-14T07:56:30Z</time>
      </trkpt>
      <trkpt lat="42.80577" lon="-0.18441">
        <ele>2041.8189697266</ele>
        <time>2014-03-14T07:57:03Z</time>
      </trkpt>
      <trkpt lat="42.80566" lon="-0.18422">
        <ele>2043.8850097656</ele>
        <time>2014-03-14T07:57:31Z</time>
      </trkpt>
      <trkpt lat="42.8055" lon="-0.18405">
        <ele>2044.8620605469</ele>
        <time>2014-03-14T07:57:58Z</time>
      </trkpt>
      <trkpt lat="42.80547" lon="-0.18387">
        <ele>2048.1140136719</ele>
        <time>2014-03-14T07:58:22Z</time>
      </trkpt>
      <trkpt lat="42.80552" lon="-0.18369">
        <ele>2051.3000488281</ele>
        <time>2014-03-14T07:58:47Z</time>
      </trkpt>
      <trkpt lat="42.80554" lon="-0.18346">
        <ele>2054.2971191406</ele>
        <time>2014-03-14T07:59:16Z</time>
      </trkpt>
      <trkpt lat="42.80554" lon="-0.18332">
        <ele>2057.1569824219</ele>
        <time>2014-03-14T07:59:37Z</time>
      </trkpt>
      <trkpt lat="42.80555" lon="-0.18319">
        <ele>2058.4809570312</ele>
        <time>2014-03-14T08:01:24Z</time>
      </trkpt>
      <trkpt lat="42.80553" lon="-0.18299">
        <ele>2061.3220214844</ele>
        <time>2014-03-14T08:01:50Z</time>
      </trkpt>
      <trkpt lat="42.8055" lon="-0.18281">
        <ele>2063.3559570312</ele>
        <time>2014-03-14T08:02:08Z</time>
      </trkpt>
      <trkpt lat="42.80543" lon="-0.18268">
        <ele>2066.4580078125</ele>
        <time>2014-03-14T08:02:27Z</time>
      </trkpt>
      <trkpt lat="42.8054" lon="-0.1825">
        <ele>2069.5219726562</ele>
        <time>2014-03-14T08:02:48Z</time>
      </trkpt>
      <trkpt lat="42.80544" lon="-0.18232">
        <ele>2072.1459960938</ele>
        <time>2014-03-14T08:03:10Z</time>
      </trkpt>
      <trkpt lat="42.8054" lon="-0.18213">
        <ele>2075.3249511719</ele>
        <time>2014-03-14T08:03:36Z</time>
      </trkpt>
      <trkpt lat="42.80537" lon="-0.18208">
        <ele>2076.4519042969</ele>
        <time>2014-03-14T08:04:16Z</time>
      </trkpt>
      <trkpt lat="42.80532" lon="-0.1819">
        <ele>2079.6298828125</ele>
        <time>2014-03-14T08:04:37Z</time>
      </trkpt>
      <trkpt lat="42.80521" lon="-0.18168">
        <ele>2082.7770996094</ele>
        <time>2014-03-14T08:05:00Z</time>
      </trkpt>
      <trkpt lat="42.80522" lon="-0.18159">
        <ele>2085.9108886719</ele>
        <time>2014-03-14T08:05:16Z</time>
      </trkpt>
      <trkpt lat="42.80536" lon="-0.1815">
        <ele>2089.1799316406</ele>
        <time>2014-03-14T08:05:39Z</time>
      </trkpt>
      <trkpt lat="42.80545" lon="-0.18137">
        <ele>2090.7319335938</ele>
        <time>2014-03-14T08:06:01Z</time>
      </trkpt>
      <trkpt lat="42.80537" lon="-0.18123">
        <ele>2094.0229492188</ele>
        <time>2014-03-14T08:06:19Z</time>
      </trkpt>
      <trkpt lat="42.80544" lon="-0.18118">
        <ele>2096.1330566406</ele>
        <time>2014-03-14T08:06:40Z</time>
      </trkpt>
      <trkpt lat="42.80552" lon="-0.18117">
        <ele>2099.5070800781</ele>
        <time>2014-03-14T08:06:55Z</time>
      </trkpt>
      <trkpt lat="42.80542" lon="-0.1811">
        <ele>2100.3110351562</ele>
        <time>2014-03-14T08:07:15Z</time>
      </trkpt>
      <trkpt lat="42.80555" lon="-0.18108">
        <ele>2102.6420898438</ele>
        <time>2014-03-14T08:07:35Z</time>
      </trkpt>
      <trkpt lat="42.80549" lon="-0.181">
        <ele>2104.2639160156</ele>
        <time>2014-03-14T08:07:58Z</time>
      </trkpt>
      <trkpt lat="42.80555" lon="-0.181">
        <ele>2105.9089355469</ele>
        <time>2014-03-14T08:08:18Z</time>
      </trkpt>
      <trkpt lat="42.80555" lon="-0.18098">
        <ele>2105.8269042969</ele>
        <time>2014-03-14T08:08:35Z</time>
      </trkpt>
      <trkpt lat="42.8055" lon="-0.18094">
        <ele>2107.8911132812</ele>
        <time>2014-03-14T08:08:46Z</time>
      </trkpt>
      <trkpt lat="42.80557" lon="-0.18091">
        <ele>2109.1540527344</ele>
        <time>2014-03-14T08:09:10Z</time>
      </trkpt>
      <trkpt lat="42.80571" lon="-0.18095">
        <ele>2112.6049804688</ele>
        <time>2014-03-14T08:09:30Z</time>
      </trkpt>
      <trkpt lat="42.80573" lon="-0.18089">
        <ele>2112.7648925781</ele>
        <time>2014-03-14T08:09:49Z</time>
      </trkpt>
      <trkpt lat="42.80565" lon="-0.18078">
        <ele>2115.8569335938</ele>
        <time>2014-03-14T08:10:05Z</time>
      </trkpt>
      <trkpt lat="42.80564" lon="-0.18076">
        <ele>2118.5859375</ele>
        <time>2014-03-14T08:10:30Z</time>
      </trkpt>
      <trkpt lat="42.80573" lon="-0.18072">
        <ele>2120.0139160156</ele>
        <time>2014-03-14T08:10:55Z</time>
      </trkpt>
      <trkpt lat="42.8056" lon="-0.18066">
        <ele>2123.0830078125</ele>
        <time>2014-03-14T08:11:17Z</time>
      </trkpt>
      <trkpt lat="42.80545" lon="-0.18064">
        <ele>2126.419921875</ele>
        <time>2014-03-14T08:11:40Z</time>
      </trkpt>
      <trkpt lat="42.80538" lon="-0.18059">
        <ele>2127.9089355469</ele>
        <time>2014-03-14T08:11:58Z</time>
      </trkpt>
      <trkpt lat="42.80548" lon="-0.18053">
        <ele>2129.5610351562</ele>
        <time>2014-03-14T08:12:16Z</time>
      </trkpt>
      <trkpt lat="42.8054" lon="-0.18044">
        <ele>2131.7380371094</ele>
        <time>2014-03-14T08:12:36Z</time>
      </trkpt>
      <trkpt lat="42.80527" lon="-0.18042">
        <ele>2134.8840332031</ele>
        <time>2014-03-14T08:12:57Z</time>
      </trkpt>
      <trkpt lat="42.80509" lon="-0.18051">
        <ele>2138.5209960938</ele>
        <time>2014-03-14T08:13:20Z</time>
      </trkpt>
      <trkpt lat="42.80502" lon="-0.18043">
        <ele>2140.333984375</ele>
        <time>2014-03-14T08:13:43Z</time>
      </trkpt>
      <trkpt lat="42.80502" lon="-0.18036">
        <ele>2142</ele>
        <time>2014-03-14T08:13:51Z</time>
      </trkpt>
      <trkpt lat="42.80502" lon="-0.18029">
        <ele>2143.041015625</ele>
        <time>2014-03-14T08:14:00Z</time>
      </trkpt>
      <trkpt lat="42.80499" lon="-0.18015">
        <ele>2145.3110351562</ele>
        <time>2014-03-14T08:14:21Z</time>
      </trkpt>
      <trkpt lat="42.80495" lon="-0.18009">
        <ele>2148.4318847656</ele>
        <time>2014-03-14T08:14:41Z</time>
      </trkpt>
      <trkpt lat="42.80484" lon="-0.18021">
        <ele>2151.6240234375</ele>
        <time>2014-03-14T08:15:02Z</time>
      </trkpt>
      <trkpt lat="42.80475" lon="-0.18032">
        <ele>2154.3630371094</ele>
        <time>2014-03-14T08:15:22Z</time>
      </trkpt>
      <trkpt lat="42.80475" lon="-0.18019">
        <ele>2155.1840820312</ele>
        <time>2014-03-14T08:15:46Z</time>
      </trkpt>
      <trkpt lat="42.80477" lon="-0.18006">
        <ele>2158.2041015625</ele>
        <time>2014-03-14T08:16:00Z</time>
      </trkpt>
      <trkpt lat="42.80478" lon="-0.17992">
        <ele>2161.4499511719</ele>
        <time>2014-03-14T08:16:23Z</time>
      </trkpt>
      <trkpt lat="42.80469" lon="-0.18006">
        <ele>2163.2429199219</ele>
        <time>2014-03-14T08:16:41Z</time>
      </trkpt>
      <trkpt lat="42.80455" lon="-0.18018">
        <ele>2166.3190917969</ele>
        <time>2014-03-14T08:17:05Z</time>
      </trkpt>
      <trkpt lat="42.80457" lon="-0.18003">
        <ele>2167.7160644531</ele>
        <time>2014-03-14T08:17:23Z</time>
      </trkpt>
      <trkpt lat="42.80458" lon="-0.17997">
        <ele>2170.5549316406</ele>
        <time>2014-03-14T08:17:43Z</time>
      </trkpt>
      <trkpt lat="42.80454" lon="-0.17992">
        <ele>2172.6530761719</ele>
        <time>2014-03-14T08:18:06Z</time>
      </trkpt>
      <trkpt lat="42.8046" lon="-0.17978">
        <ele>2175.7270507812</ele>
        <time>2014-03-14T08:18:26Z</time>
      </trkpt>
      <trkpt lat="42.80462" lon="-0.17965">
        <ele>2179.3269042969</ele>
        <time>2014-03-14T08:18:47Z</time>
      </trkpt>
      <trkpt lat="42.80462" lon="-0.17966">
        <ele>2179.33203125</ele>
        <time>2014-03-14T08:18:48Z</time>
      </trkpt>
      <trkpt lat="42.8045" lon="-0.17974">
        <ele>2182.2370605469</ele>
        <time>2014-03-14T08:19:05Z</time>
      </trkpt>
      <trkpt lat="42.80447" lon="-0.17967">
        <ele>2182.5109863281</ele>
        <time>2014-03-14T08:19:17Z</time>
      </trkpt>
      <trkpt lat="42.80453" lon="-0.17946">
        <ele>2182.6589355469</ele>
        <time>2014-03-14T08:19:40Z</time>
      </trkpt>
      <trkpt lat="42.80451" lon="-0.1792">
        <ele>2185.1149902344</ele>
        <time>2014-03-14T08:20:09Z</time>
      </trkpt>
      <trkpt lat="42.80447" lon="-0.179">
        <ele>2188.9599609375</ele>
        <time>2014-03-14T08:20:35Z</time>
      </trkpt>
      <trkpt lat="42.8045" lon="-0.17884">
        <ele>2191.712890625</ele>
        <time>2014-03-14T08:21:00Z</time>
      </trkpt>
      <trkpt lat="42.80449" lon="-0.1788">
        <ele>2193.6879882812</ele>
        <time>2014-03-14T08:21:09Z</time>
      </trkpt>
      <trkpt lat="42.80459" lon="-0.17887">
        <ele>2196.5979003906</ele>
        <time>2014-03-14T08:21:25Z</time>
      </trkpt>
      <trkpt lat="42.80459" lon="-0.17886">
        <ele>2194.5048828125</ele>
        <time>2014-03-14T08:21:45Z</time>
      </trkpt>
      <trkpt lat="42.80454" lon="-0.17869">
        <ele>2197.6760253906</ele>
        <time>2014-03-14T08:22:06Z</time>
      </trkpt>
      <trkpt lat="42.80448" lon="-0.17853">
        <ele>2201.0529785156</ele>
        <time>2014-03-14T08:22:26Z</time>
      </trkpt>
      <trkpt lat="42.8045" lon="-0.17844">
        <ele>2202.0549316406</ele>
        <time>2014-03-14T08:22:50Z</time>
      </trkpt>
      <trkpt lat="42.80451" lon="-0.17839">
        <ele>2205.2028808594</ele>
        <time>2014-03-14T08:23:38Z</time>
      </trkpt>
      <trkpt lat="42.80465" lon="-0.17851">
        <ele>2207.8830566406</ele>
        <time>2014-03-14T08:24:03Z</time>
      </trkpt>
      <trkpt lat="42.80471" lon="-0.17851">
        <ele>2210.0690917969</ele>
        <time>2014-03-14T08:24:21Z</time>
      </trkpt>
      <trkpt lat="42.80471" lon="-0.17848">
        <ele>2209.7980957031</ele>
        <time>2014-03-14T08:24:23Z</time>
      </trkpt>
      <trkpt lat="42.80466" lon="-0.17832">
        <ele>2212.5358886719</ele>
        <time>2014-03-14T08:24:45Z</time>
      </trkpt>
      <trkpt lat="42.8047" lon="-0.17829">
        <ele>2215.6650390625</ele>
        <time>2014-03-14T08:25:02Z</time>
      </trkpt>
      <trkpt lat="42.80483" lon="-0.17837">
        <ele>2218.6979980469</ele>
        <time>2014-03-14T08:25:23Z</time>
      </trkpt>
      <trkpt lat="42.80483" lon="-0.17833">
        <ele>2219.1970214844</ele>
        <time>2014-03-14T08:25:39Z</time>
      </trkpt>
      <trkpt lat="42.80482" lon="-0.17816">
        <ele>2221.2780761719</ele>
        <time>2014-03-14T08:25:59Z</time>
      </trkpt>
      <trkpt lat="42.80482" lon="-0.17797">
        <ele>2224.3200683594</ele>
        <time>2014-03-14T08:26:18Z</time>
      </trkpt>
      <trkpt lat="42.80484" lon="-0.17782">
        <ele>2227.5581054688</ele>
        <time>2014-03-14T08:26:36Z</time>
      </trkpt>
      <trkpt lat="42.80486" lon="-0.17769">
        <ele>2230.9150390625</ele>
        <time>2014-03-14T08:26:57Z</time>
      </trkpt>
      <trkpt lat="42.80483" lon="-0.17763">
        <ele>2232.8920898438</ele>
        <time>2014-03-14T08:27:13Z</time>
      </trkpt>
      <trkpt lat="42.80471" lon="-0.17761">
        <ele>2232.5539550781</ele>
        <time>2014-03-14T08:36:28Z</time>
      </trkpt>
      <trkpt lat="42.80461" lon="-0.17757">
        <ele>2235.7399902344</ele>
        <time>2014-03-14T08:36:43Z</time>
      </trkpt>
      <trkpt lat="42.80452" lon="-0.17752">
        <ele>2238.8459472656</ele>
        <time>2014-03-14T08:36:59Z</time>
      </trkpt>
      <trkpt lat="42.8044" lon="-0.17744">
        <ele>2240.6350097656</ele>
        <time>2014-03-14T08:37:23Z</time>
      </trkpt>
      <trkpt lat="42.80431" lon="-0.17734">
        <ele>2242.5810546875</ele>
        <time>2014-03-14T08:37:41Z</time>
      </trkpt>
      <trkpt lat="42.80419" lon="-0.17722">
        <ele>2243.9450683594</ele>
        <time>2014-03-14T08:37:59Z</time>
      </trkpt>
      <trkpt lat="42.80402" lon="-0.17701">
        <ele>2246.3129882812</ele>
        <time>2014-03-14T08:38:27Z</time>
      </trkpt>
      <trkpt lat="42.80401" lon="-0.17701">
        <ele>2246.3129882812</ele>
        <time>2014-03-14T08:38:28Z</time>
      </trkpt>
      <trkpt lat="42.80385" lon="-0.17684">
        <ele>2247.2739257812</ele>
        <time>2014-03-14T08:38:49Z</time>
      </trkpt>
      <trkpt lat="42.80371" lon="-0.17677">
        <ele>2249.2819824219</ele>
        <time>2014-03-14T08:39:09Z</time>
      </trkpt>
      <trkpt lat="42.80363" lon="-0.17672">
        <ele>2249.7839355469</ele>
        <time>2014-03-14T08:39:19Z</time>
      </trkpt>
      <trkpt lat="42.80344" lon="-0.17663">
        <ele>2250.1130371094</ele>
        <time>2014-03-14T08:39:40Z</time>
      </trkpt>
      <trkpt lat="42.80331" lon="-0.17655">
        <ele>2250.7260742188</ele>
        <time>2014-03-14T08:39:54Z</time>
      </trkpt>
      <trkpt lat="42.80325" lon="-0.1765">
        <ele>2251.3020019531</ele>
        <time>2014-03-14T08:40:03Z</time>
      </trkpt>
      <trkpt lat="42.80314" lon="-0.17641">
        <ele>2252.2299804688</ele>
        <time>2014-03-14T08:40:19Z</time>
      </trkpt>
      <trkpt lat="42.80297" lon="-0.17633">
        <ele>2253.9099121094</ele>
        <time>2014-03-14T08:40:39Z</time>
      </trkpt>
      <trkpt lat="42.80272" lon="-0.17622">
        <ele>2256.5949707031</ele>
        <time>2014-03-14T08:41:09Z</time>
      </trkpt>
      <trkpt lat="42.80267" lon="-0.1762">
        <ele>2256.462890625</ele>
        <time>2014-03-14T08:41:15Z</time>
      </trkpt>
      <trkpt lat="42.8026" lon="-0.17621">
        <ele>2256.4250488281</ele>
        <time>2014-03-14T08:41:21Z</time>
      </trkpt>
      <trkpt lat="42.80247" lon="-0.17608">
        <ele>2258.4431152344</ele>
        <time>2014-03-14T08:41:40Z</time>
      </trkpt>
      <trkpt lat="42.80239" lon="-0.17606">
        <ele>2258.2280273438</ele>
        <time>2014-03-14T08:41:47Z</time>
      </trkpt>
      <trkpt lat="42.80231" lon="-0.17602">
        <ele>2258.9460449219</ele>
        <time>2014-03-14T08:41:55Z</time>
      </trkpt>
      <trkpt lat="42.80228" lon="-0.17599">
        <ele>2258.8049316406</ele>
        <time>2014-03-14T08:41:59Z</time>
      </trkpt>
      <trkpt lat="42.8021" lon="-0.17587">
        <ele>2259.7629394531</ele>
        <time>2014-03-14T08:42:18Z</time>
      </trkpt>
      <trkpt lat="42.80207" lon="-0.17587">
        <ele>2259.9609375</ele>
        <time>2014-03-14T08:42:21Z</time>
      </trkpt>
      <trkpt lat="42.80202" lon="-0.17585">
        <ele>2260.1840820312</ele>
        <time>2014-03-14T08:42:26Z</time>
      </trkpt>
      <trkpt lat="42.80191" lon="-0.17581">
        <ele>2260.1330566406</ele>
        <time>2014-03-14T08:42:39Z</time>
      </trkpt>
      <trkpt lat="42.80164" lon="-0.17561">
        <ele>2259.0109863281</ele>
        <time>2014-03-14T08:43:05Z</time>
      </trkpt>
      <trkpt lat="42.80141" lon="-0.1755">
        <ele>2257.4418945312</ele>
        <time>2014-03-14T08:43:25Z</time>
      </trkpt>
      <trkpt lat="42.80115" lon="-0.17548">
        <ele>2256.7209472656</ele>
        <time>2014-03-14T08:43:44Z</time>
      </trkpt>
      <trkpt lat="42.80098" lon="-0.17547">
        <ele>2256.7180175781</ele>
        <time>2014-03-14T08:43:58Z</time>
      </trkpt>
      <trkpt lat="42.80078" lon="-0.17546">
        <ele>2256.6159667969</ele>
        <time>2014-03-14T08:44:15Z</time>
      </trkpt>
      <trkpt lat="42.80058" lon="-0.17538">
        <ele>2255.9650878906</ele>
        <time>2014-03-14T08:44:33Z</time>
      </trkpt>
      <trkpt lat="42.80048" lon="-0.17535">
        <ele>2256.2180175781</ele>
        <time>2014-03-14T08:44:43Z</time>
      </trkpt>
      <trkpt lat="42.80027" lon="-0.17525">
        <ele>2256.2548828125</ele>
        <time>2014-03-14T08:45:04Z</time>
      </trkpt>
      <trkpt lat="42.80013" lon="-0.17517">
        <ele>2256.4951171875</ele>
        <time>2014-03-14T08:45:19Z</time>
      </trkpt>
      <trkpt lat="42.79995" lon="-0.1752">
        <ele>2256.205078125</ele>
        <time>2014-03-14T08:45:36Z</time>
      </trkpt>
      <trkpt lat="42.79981" lon="-0.17512">
        <ele>2257.8369140625</ele>
        <time>2014-03-14T08:45:53Z</time>
      </trkpt>
      <trkpt lat="42.7997" lon="-0.17497">
        <ele>2259.8129882812</ele>
        <time>2014-03-14T08:46:13Z</time>
      </trkpt>
      <trkpt lat="42.79966" lon="-0.17495">
        <ele>2259.4221191406</ele>
        <time>2014-03-14T08:46:17Z</time>
      </trkpt>
      <trkpt lat="42.79965" lon="-0.17492">
        <ele>2259.75</ele>
        <time>2014-03-14T08:46:20Z</time>
      </trkpt>
      <trkpt lat="42.79948" lon="-0.17483">
        <ele>2261.0659179688</ele>
        <time>2014-03-14T08:46:40Z</time>
      </trkpt>
      <trkpt lat="42.79945" lon="-0.17472">
        <ele>2263.0729980469</ele>
        <time>2014-03-14T08:46:56Z</time>
      </trkpt>
      <trkpt lat="42.79941" lon="-0.17458">
        <ele>2266.1689453125</ele>
        <time>2014-03-14T08:47:17Z</time>
      </trkpt>
      <trkpt lat="42.79934" lon="-0.17457">
        <ele>2267.9670410156</ele>
        <time>2014-03-14T08:47:29Z</time>
      </trkpt>
      <trkpt lat="42.79918" lon="-0.17459">
        <ele>2270.7919921875</ele>
        <time>2014-03-14T08:47:49Z</time>
      </trkpt>
      <trkpt lat="42.79894" lon="-0.17473">
        <ele>2273.9670410156</ele>
        <time>2014-03-14T08:48:20Z</time>
      </trkpt>
      <trkpt lat="42.79891" lon="-0.17477">
        <ele>2274.0209960938</ele>
        <time>2014-03-14T08:48:24Z</time>
      </trkpt>
      <trkpt lat="42.79871" lon="-0.17487">
        <ele>2274.8798828125</ele>
        <time>2014-03-14T08:48:47Z</time>
      </trkpt>
      <trkpt lat="42.79847" lon="-0.17503">
        <ele>2275.8369140625</ele>
        <time>2014-03-14T08:49:17Z</time>
      </trkpt>
      <trkpt lat="42.79829" lon="-0.17515">
        <ele>2276.8068847656</ele>
        <time>2014-03-14T08:49:40Z</time>
      </trkpt>
      <trkpt lat="42.79807" lon="-0.17527">
        <ele>2278.4299316406</ele>
        <time>2014-03-14T08:50:04Z</time>
      </trkpt>
      <trkpt lat="42.79802" lon="-0.17531">
        <ele>2278.8369140625</ele>
        <time>2014-03-14T08:50:14Z</time>
      </trkpt>
      <trkpt lat="42.79794" lon="-0.1755">
        <ele>2281.58203125</ele>
        <time>2014-03-14T08:50:34Z</time>
      </trkpt>
      <trkpt lat="42.79791" lon="-0.17546">
        <ele>2281.9360351562</ele>
        <time>2014-03-14T08:50:45Z</time>
      </trkpt>
      <trkpt lat="42.79789" lon="-0.17539">
        <ele>2283.1220703125</ele>
        <time>2014-03-14T08:50:53Z</time>
      </trkpt>
      <trkpt lat="42.79783" lon="-0.17529">
        <ele>2285.0690917969</ele>
        <time>2014-03-14T08:51:08Z</time>
      </trkpt>
      <trkpt lat="42.79777" lon="-0.17521">
        <ele>2287.1149902344</ele>
        <time>2014-03-14T08:51:26Z</time>
      </trkpt>
      <trkpt lat="42.79762" lon="-0.17519">
        <ele>2290.1059570312</ele>
        <time>2014-03-14T08:51:45Z</time>
      </trkpt>
      <trkpt lat="42.79754" lon="-0.17528">
        <ele>2292.0170898438</ele>
        <time>2014-03-14T08:52:06Z</time>
      </trkpt>
      <trkpt lat="42.79754" lon="-0.17527">
        <ele>2292.287109375</ele>
        <time>2014-03-14T08:52:37Z</time>
      </trkpt>
      <trkpt lat="42.79657" lon="-0.17724">
        <ele>2295.8100585938</ele>
        <time>2014-03-14T09:25:19Z</time>
      </trkpt>
      <trkpt lat="42.79658" lon="-0.1773">
        <ele>2291.2109375</ele>
        <time>2014-03-14T09:25:23Z</time>
      </trkpt>
      <trkpt lat="42.79656" lon="-0.17732">
        <ele>2295.1369628906</ele>
        <time>2014-03-14T09:25:24Z</time>
      </trkpt>
      <trkpt lat="42.79663" lon="-0.17743">
        <ele>2296.3850097656</ele>
        <time>2014-03-14T09:25:39Z</time>
      </trkpt>
      <trkpt lat="42.79669" lon="-0.17759">
        <ele>2294.2709960938</ele>
        <time>2014-03-14T09:25:58Z</time>
      </trkpt>
      <trkpt lat="42.79675" lon="-0.17771">
        <ele>2296.3740234375</ele>
        <time>2014-03-14T09:26:13Z</time>
      </trkpt>
      <trkpt lat="42.79676" lon="-0.17776">
        <ele>2297.5949707031</ele>
        <time>2014-03-14T09:26:32Z</time>
      </trkpt>
      <trkpt lat="42.79677" lon="-0.17784">
        <ele>2298.958984375</ele>
        <time>2014-03-14T09:27:13Z</time>
      </trkpt>
      <trkpt lat="42.79676" lon="-0.1779">
        <ele>2298.7919921875</ele>
        <time>2014-03-14T09:27:34Z</time>
      </trkpt>
      <trkpt lat="42.79676" lon="-0.17793">
        <ele>2300.1889648438</ele>
        <time>2014-03-14T09:27:36Z</time>
      </trkpt>
      <trkpt lat="42.79674" lon="-0.17817">
        <ele>2301.9399414062</ele>
        <time>2014-03-14T09:27:58Z</time>
      </trkpt>
      <trkpt lat="42.7967" lon="-0.17835">
        <ele>2301.0700683594</ele>
        <time>2014-03-14T09:28:13Z</time>
      </trkpt>
      <trkpt lat="42.79671" lon="-0.17852">
        <ele>2303.7839355469</ele>
        <time>2014-03-14T09:28:31Z</time>
      </trkpt>
      <trkpt lat="42.79665" lon="-0.17867">
        <ele>2306.7338867188</ele>
        <time>2014-03-14T09:28:51Z</time>
      </trkpt>
      <trkpt lat="42.79674" lon="-0.17886">
        <ele>2309.8620605469</ele>
        <time>2014-03-14T09:29:12Z</time>
      </trkpt>
      <trkpt lat="42.79686" lon="-0.17894">
        <ele>2313.3039550781</ele>
        <time>2014-03-14T09:29:29Z</time>
      </trkpt>
      <trkpt lat="42.79697" lon="-0.17901">
        <ele>2316.0439453125</ele>
        <time>2014-03-14T09:29:44Z</time>
      </trkpt>
      <trkpt lat="42.79697" lon="-0.17909">
        <ele>2318.0009765625</ele>
        <time>2014-03-14T09:30:01Z</time>
      </trkpt>
      <trkpt lat="42.7969" lon="-0.1792">
        <ele>2321.4699707031</ele>
        <time>2014-03-14T09:30:22Z</time>
      </trkpt>
      <trkpt lat="42.79702" lon="-0.1793">
        <ele>2324.8540039062</ele>
        <time>2014-03-14T09:30:42Z</time>
      </trkpt>
      <trkpt lat="42.79709" lon="-0.17946">
        <ele>2328.0720214844</ele>
        <time>2014-03-14T09:31:03Z</time>
      </trkpt>
      <trkpt lat="42.7971" lon="-0.17947">
        <ele>2328.3369140625</ele>
        <time>2014-03-14T09:31:04Z</time>
      </trkpt>
      <trkpt lat="42.79714" lon="-0.17963">
        <ele>2331.4890136719</ele>
        <time>2014-03-14T09:31:24Z</time>
      </trkpt>
      <trkpt lat="42.7972" lon="-0.17982">
        <ele>2335.1560058594</ele>
        <time>2014-03-14T09:31:47Z</time>
      </trkpt>
      <trkpt lat="42.79726" lon="-0.17995">
        <ele>2338.2119140625</ele>
        <time>2014-03-14T09:32:06Z</time>
      </trkpt>
      <trkpt lat="42.79715" lon="-0.18005">
        <ele>2341.2299804688</ele>
        <time>2014-03-14T09:32:24Z</time>
      </trkpt>
      <trkpt lat="42.79715" lon="-0.18023">
        <ele>2344.4221191406</ele>
        <time>2014-03-14T09:32:43Z</time>
      </trkpt>
      <trkpt lat="42.79715" lon="-0.18041">
        <ele>2347.537109375</ele>
        <time>2014-03-14T09:33:01Z</time>
      </trkpt>
      <trkpt lat="42.79712" lon="-0.18053">
        <ele>2349.712890625</ele>
        <time>2014-03-14T09:33:13Z</time>
      </trkpt>
      <trkpt lat="42.79707" lon="-0.18067">
        <ele>2351.0568847656</ele>
        <time>2014-03-14T09:33:31Z</time>
      </trkpt>
      <trkpt lat="42.79698" lon="-0.18098">
        <ele>2350.8391113281</ele>
        <time>2014-03-14T09:33:52Z</time>
      </trkpt>
      <trkpt lat="42.79691" lon="-0.18118">
        <ele>2352.3850097656</ele>
        <time>2014-03-14T09:34:10Z</time>
      </trkpt>
      <trkpt lat="42.79681" lon="-0.18142">
        <ele>2353.9970703125</ele>
        <time>2014-03-14T09:34:31Z</time>
      </trkpt>
      <trkpt lat="42.79667" lon="-0.1816">
        <ele>2357.0830078125</ele>
        <time>2014-03-14T09:34:51Z</time>
      </trkpt>
      <trkpt lat="42.79655" lon="-0.18174">
        <ele>2359.0739746094</ele>
        <time>2014-03-14T09:35:09Z</time>
      </trkpt>
      <trkpt lat="42.7965" lon="-0.18189">
        <ele>2361.2580566406</ele>
        <time>2014-03-14T09:35:23Z</time>
      </trkpt>
      <trkpt lat="42.7965" lon="-0.18192">
        <ele>2361.6120605469</ele>
        <time>2014-03-14T09:35:26Z</time>
      </trkpt>
      <trkpt lat="42.79646" lon="-0.18216">
        <ele>2361.4750976562</ele>
        <time>2014-03-14T09:35:41Z</time>
      </trkpt>
      <trkpt lat="42.79645" lon="-0.18226">
        <ele>2360.2780761719</ele>
        <time>2014-03-14T09:35:45Z</time>
      </trkpt>
      <trkpt lat="42.79644" lon="-0.1824">
        <ele>2359.8278808594</ele>
        <time>2014-03-14T09:35:58Z</time>
      </trkpt>
      <trkpt lat="42.79642" lon="-0.18251">
        <ele>2360.1960449219</ele>
        <time>2014-03-14T09:36:22Z</time>
      </trkpt>
      <trkpt lat="42.79641" lon="-0.18253">
        <ele>2360.7590332031</ele>
        <time>2014-03-14T09:36:24Z</time>
      </trkpt>
      <trkpt lat="42.7964" lon="-0.18261">
        <ele>2362.0869140625</ele>
        <time>2014-03-14T09:36:40Z</time>
      </trkpt>
      <trkpt lat="42.79639" lon="-0.18268">
        <ele>2364.2819824219</ele>
        <time>2014-03-14T09:36:58Z</time>
      </trkpt>
      <trkpt lat="42.79647" lon="-0.18265">
        <ele>2367.4389648438</ele>
        <time>2014-03-14T09:37:14Z</time>
      </trkpt>
      <trkpt lat="42.79641" lon="-0.18275">
        <ele>2368.1550292969</ele>
        <time>2014-03-14T09:37:31Z</time>
      </trkpt>
      <trkpt lat="42.79629" lon="-0.18286">
        <ele>2369.9970703125</ele>
        <time>2014-03-14T09:37:48Z</time>
      </trkpt>
      <trkpt lat="42.79616" lon="-0.18319">
        <ele>2372.6149902344</ele>
        <time>2014-03-14T09:38:22Z</time>
      </trkpt>
      <trkpt lat="42.79604" lon="-0.18343">
        <ele>2375.1608886719</ele>
        <time>2014-03-14T09:38:48Z</time>
      </trkpt>
      <trkpt lat="42.79596" lon="-0.18363">
        <ele>2378.1840820312</ele>
        <time>2014-03-14T09:39:08Z</time>
      </trkpt>
      <trkpt lat="42.7959" lon="-0.18383">
        <ele>2381.0009765625</ele>
        <time>2014-03-14T09:39:30Z</time>
      </trkpt>
      <trkpt lat="42.79585" lon="-0.18405">
        <ele>2384.1110839844</ele>
        <time>2014-03-14T09:39:52Z</time>
      </trkpt>
      <trkpt lat="42.79576" lon="-0.18423">
        <ele>2385.9609375</ele>
        <time>2014-03-14T09:40:11Z</time>
      </trkpt>
      <trkpt lat="42.79567" lon="-0.18442">
        <ele>2389.2219238281</ele>
        <time>2014-03-14T09:40:31Z</time>
      </trkpt>
      <trkpt lat="42.79564" lon="-0.1846">
        <ele>2391.1970214844</ele>
        <time>2014-03-14T09:40:50Z</time>
      </trkpt>
      <trkpt lat="42.79559" lon="-0.18473">
        <ele>2393.4509277344</ele>
        <time>2014-03-14T09:41:05Z</time>
      </trkpt>
      <trkpt lat="42.79557" lon="-0.18475">
        <ele>2394.6169433594</ele>
        <time>2014-03-14T09:41:30Z</time>
      </trkpt>
      <trkpt lat="42.79565" lon="-0.18465">
        <ele>2396.5659179688</ele>
        <time>2014-03-14T09:41:53Z</time>
      </trkpt>
      <trkpt lat="42.79556" lon="-0.18479">
        <ele>2397.9809570312</ele>
        <time>2014-03-14T09:42:09Z</time>
      </trkpt>
      <trkpt lat="42.79549" lon="-0.18486">
        <ele>2399.6999511719</ele>
        <time>2014-03-14T09:42:28Z</time>
      </trkpt>
      <trkpt lat="42.79554" lon="-0.1849">
        <ele>2401.0510253906</ele>
        <time>2014-03-14T09:42:48Z</time>
      </trkpt>
      <trkpt lat="42.79562" lon="-0.18488">
        <ele>2402.5229492188</ele>
        <time>2014-03-14T09:43:07Z</time>
      </trkpt>
      <trkpt lat="42.79568" lon="-0.18495">
        <ele>2405.0029296875</ele>
        <time>2014-03-14T09:43:30Z</time>
      </trkpt>
      <trkpt lat="42.79554" lon="-0.18503">
        <ele>2407.2570800781</ele>
        <time>2014-03-14T09:43:51Z</time>
      </trkpt>
      <trkpt lat="42.79562" lon="-0.18507">
        <ele>2409.70703125</ele>
        <time>2014-03-14T09:44:28Z</time>
      </trkpt>
      <trkpt lat="42.79571" lon="-0.18503">
        <ele>2412.1540527344</ele>
        <time>2014-03-14T09:44:47Z</time>
      </trkpt>
      <trkpt lat="42.79563" lon="-0.18513">
        <ele>2413.8291015625</ele>
        <time>2014-03-14T09:45:02Z</time>
      </trkpt>
      <trkpt lat="42.79549" lon="-0.18519">
        <ele>2416.1179199219</ele>
        <time>2014-03-14T09:45:24Z</time>
      </trkpt>
      <trkpt lat="42.79558" lon="-0.18521">
        <ele>2417.4270019531</ele>
        <time>2014-03-14T09:45:35Z</time>
      </trkpt>
      <trkpt lat="42.79573" lon="-0.18517">
        <ele>2420.4409179688</ele>
        <time>2014-03-14T09:45:55Z</time>
      </trkpt>
      <trkpt lat="42.79568" lon="-0.18525">
        <ele>2420.3898925781</ele>
        <time>2014-03-14T09:46:09Z</time>
      </trkpt>
      <trkpt lat="42.79558" lon="-0.1854">
        <ele>2423.7971191406</ele>
        <time>2014-03-14T09:46:27Z</time>
      </trkpt>
      <trkpt lat="42.79545" lon="-0.18544">
        <ele>2425.4299316406</ele>
        <time>2014-03-14T09:46:45Z</time>
      </trkpt>
      <trkpt lat="42.7955" lon="-0.18554">
        <ele>2428.3620605469</ele>
        <time>2014-03-14T09:46:59Z</time>
      </trkpt>
      <trkpt lat="42.79564" lon="-0.18556">
        <ele>2430.626953125</ele>
        <time>2014-03-14T09:47:19Z</time>
      </trkpt>
      <trkpt lat="42.79551" lon="-0.18569">
        <ele>2433.3679199219</ele>
        <time>2014-03-14T09:47:39Z</time>
      </trkpt>
      <trkpt lat="42.79549" lon="-0.18574">
        <ele>2435.29296875</ele>
        <time>2014-03-14T09:47:53Z</time>
      </trkpt>
      <trkpt lat="42.79567" lon="-0.18578">
        <ele>2438.1430664062</ele>
        <time>2014-03-14T09:48:15Z</time>
      </trkpt>
      <trkpt lat="42.79577" lon="-0.18578">
        <ele>2441.3129882812</ele>
        <time>2014-03-14T09:48:30Z</time>
      </trkpt>
      <trkpt lat="42.79586" lon="-0.18574">
        <ele>2444.337890625</ele>
        <time>2014-03-14T09:48:49Z</time>
      </trkpt>
      <trkpt lat="42.79582" lon="-0.18588">
        <ele>2445.6589355469</ele>
        <time>2014-03-14T09:49:03Z</time>
      </trkpt>
      <trkpt lat="42.79571" lon="-0.18602">
        <ele>2448.7419433594</ele>
        <time>2014-03-14T09:49:21Z</time>
      </trkpt>
      <trkpt lat="42.79582" lon="-0.18603">
        <ele>2450.3740234375</ele>
        <time>2014-03-14T09:49:39Z</time>
      </trkpt>
      <trkpt lat="42.79598" lon="-0.18607">
        <ele>2452.9890136719</ele>
        <time>2014-03-14T09:49:58Z</time>
      </trkpt>
      <trkpt lat="42.79605" lon="-0.18608">
        <ele>2455.2529296875</ele>
        <time>2014-03-14T09:50:16Z</time>
      </trkpt>
      <trkpt lat="42.79604" lon="-0.1862">
        <ele>2458.8720703125</ele>
        <time>2014-03-14T09:50:31Z</time>
      </trkpt>
      <trkpt lat="42.79593" lon="-0.18634">
        <ele>2462.4479980469</ele>
        <time>2014-03-14T09:50:52Z</time>
      </trkpt>
      <trkpt lat="42.79585" lon="-0.18645">
        <ele>2465.8029785156</ele>
        <time>2014-03-14T09:51:10Z</time>
      </trkpt>
      <trkpt lat="42.79576" lon="-0.18654">
        <ele>2469.0590820312</ele>
        <time>2014-03-14T09:51:26Z</time>
      </trkpt>
      <trkpt lat="42.79562" lon="-0.18657">
        <ele>2471.4140625</ele>
        <time>2014-03-14T09:51:47Z</time>
      </trkpt>
      <trkpt lat="42.79561" lon="-0.18658">
        <ele>2471.416015625</ele>
        <time>2014-03-14T09:51:48Z</time>
      </trkpt>
      <trkpt lat="42.79546" lon="-0.1867">
        <ele>2474.6889648438</ele>
        <time>2014-03-14T09:52:10Z</time>
      </trkpt>
      <trkpt lat="42.7954" lon="-0.18692">
        <ele>2475.705078125</ele>
        <time>2014-03-14T09:52:27Z</time>
      </trkpt>
      <trkpt lat="42.79531" lon="-0.18711">
        <ele>2477.2060546875</ele>
        <time>2014-03-14T09:52:46Z</time>
      </trkpt>
      <trkpt lat="42.79524" lon="-0.18733">
        <ele>2478.8688964844</ele>
        <time>2014-03-14T09:53:06Z</time>
      </trkpt>
      <trkpt lat="42.79517" lon="-0.18757">
        <ele>2481.8869628906</ele>
        <time>2014-03-14T09:53:27Z</time>
      </trkpt>
      <trkpt lat="42.79507" lon="-0.18779">
        <ele>2482.6640625</ele>
        <time>2014-03-14T09:53:44Z</time>
      </trkpt>
      <trkpt lat="42.79504" lon="-0.18804">
        <ele>2484.1359863281</ele>
        <time>2014-03-14T09:54:02Z</time>
      </trkpt>
      <trkpt lat="42.79504" lon="-0.18835">
        <ele>2487.4541015625</ele>
        <time>2014-03-14T09:54:29Z</time>
      </trkpt>
      <trkpt lat="42.79504" lon="-0.18858">
        <ele>2490.8798828125</ele>
        <time>2014-03-14T09:54:50Z</time>
      </trkpt>
      <trkpt lat="42.79502" lon="-0.18879">
        <ele>2492.2700195312</ele>
        <time>2014-03-14T09:55:09Z</time>
      </trkpt>
      <trkpt lat="42.79498" lon="-0.18894">
        <ele>2494.205078125</ele>
        <time>2014-03-14T09:55:36Z</time>
      </trkpt>
      <trkpt lat="42.7949" lon="-0.1891">
        <ele>2496.9221191406</ele>
        <time>2014-03-14T09:55:54Z</time>
      </trkpt>
      <trkpt lat="42.79479" lon="-0.18924">
        <ele>2500.0979003906</ele>
        <time>2014-03-14T09:56:16Z</time>
      </trkpt>
      <trkpt lat="42.79466" lon="-0.18935">
        <ele>2503.2189941406</ele>
        <time>2014-03-14T09:56:37Z</time>
      </trkpt>
      <trkpt lat="42.7945" lon="-0.18945">
        <ele>2506.1159667969</ele>
        <time>2014-03-14T09:57:01Z</time>
      </trkpt>
      <trkpt lat="42.7945" lon="-0.18953">
        <ele>2508.5710449219</ele>
        <time>2014-03-14T09:57:16Z</time>
      </trkpt>
      <trkpt lat="42.79459" lon="-0.18962">
        <ele>2510.6799316406</ele>
        <time>2014-03-14T09:57:32Z</time>
      </trkpt>
      <trkpt lat="42.79468" lon="-0.18972">
        <ele>2513.0009765625</ele>
        <time>2014-03-14T09:57:49Z</time>
      </trkpt>
      <trkpt lat="42.79477" lon="-0.18975">
        <ele>2515.1669921875</ele>
        <time>2014-03-14T09:58:05Z</time>
      </trkpt>
      <trkpt lat="42.79486" lon="-0.18974">
        <ele>2517.6140136719</ele>
        <time>2014-03-14T09:58:24Z</time>
      </trkpt>
      <trkpt lat="42.79483" lon="-0.18981">
        <ele>2518.7719726562</ele>
        <time>2014-03-14T09:58:36Z</time>
      </trkpt>
      <trkpt lat="42.79478" lon="-0.18996">
        <ele>2521.0810546875</ele>
        <time>2014-03-14T09:58:54Z</time>
      </trkpt>
      <trkpt lat="42.7947" lon="-0.19008">
        <ele>2523.6870117188</ele>
        <time>2014-03-14T09:59:11Z</time>
      </trkpt>
      <trkpt lat="42.7946" lon="-0.19019">
        <ele>2526.4519042969</ele>
        <time>2014-03-14T09:59:34Z</time>
      </trkpt>
      <trkpt lat="42.79471" lon="-0.19024">
        <ele>2529.0539550781</ele>
        <time>2014-03-14T09:59:50Z</time>
      </trkpt>
      <trkpt lat="42.79478" lon="-0.19034">
        <ele>2532.1489257812</ele>
        <time>2014-03-14T10:00:07Z</time>
      </trkpt>
      <trkpt lat="42.7948" lon="-0.19051">
        <ele>2534.1459960938</ele>
        <time>2014-03-14T10:00:26Z</time>
      </trkpt>
      <trkpt lat="42.79472" lon="-0.19064">
        <ele>2536.3059082031</ele>
        <time>2014-03-14T10:00:44Z</time>
      </trkpt>
      <trkpt lat="42.79462" lon="-0.19071">
        <ele>2538.5229492188</ele>
        <time>2014-03-14T10:01:06Z</time>
      </trkpt>
      <trkpt lat="42.79457" lon="-0.19065">
        <ele>2541.0258789062</ele>
        <time>2014-03-14T10:01:17Z</time>
      </trkpt>
      <trkpt lat="42.79445" lon="-0.19068">
        <ele>2543.4230957031</ele>
        <time>2014-03-14T10:01:37Z</time>
      </trkpt>
      <trkpt lat="42.79445" lon="-0.19069">
        <ele>2543.8559570312</ele>
        <time>2014-03-14T10:02:01Z</time>
      </trkpt>
      <trkpt lat="42.79424" lon="-0.19066">
        <ele>2551.0170898438</ele>
        <time>2014-03-14T10:10:43Z</time>
      </trkpt>
      <trkpt lat="42.7942" lon="-0.19068">
        <ele>2549.7229003906</ele>
        <time>2014-03-14T10:10:48Z</time>
      </trkpt>
      <trkpt lat="42.7942" lon="-0.1907">
        <ele>2552.5200195312</ele>
        <time>2014-03-14T10:10:50Z</time>
      </trkpt>
      <trkpt lat="42.79409" lon="-0.19072">
        <ele>2554.8579101562</ele>
        <time>2014-03-14T10:11:04Z</time>
      </trkpt>
      <trkpt lat="42.794" lon="-0.19072">
        <ele>2558.0629882812</ele>
        <time>2014-03-14T10:11:19Z</time>
      </trkpt>
      <trkpt lat="42.79385" lon="-0.19069">
        <ele>2560.5280761719</ele>
        <time>2014-03-14T10:11:43Z</time>
      </trkpt>
      <trkpt lat="42.79371" lon="-0.19075">
        <ele>2562.7529296875</ele>
        <time>2014-03-14T10:12:04Z</time>
      </trkpt>
      <trkpt lat="42.79357" lon="-0.19087">
        <ele>2564.3181152344</ele>
        <time>2014-03-14T10:12:27Z</time>
      </trkpt>
      <trkpt lat="42.79345" lon="-0.191">
        <ele>2567.3410644531</ele>
        <time>2014-03-14T10:12:51Z</time>
      </trkpt>
      <trkpt lat="42.79333" lon="-0.19102">
        <ele>2569.537109375</ele>
        <time>2014-03-14T10:13:12Z</time>
      </trkpt>
      <trkpt lat="42.79323" lon="-0.19119">
        <ele>2572.333984375</ele>
        <time>2014-03-14T10:13:32Z</time>
      </trkpt>
      <trkpt lat="42.79314" lon="-0.19135">
        <ele>2573.8029785156</ele>
        <time>2014-03-14T10:13:53Z</time>
      </trkpt>
      <trkpt lat="42.79308" lon="-0.19144">
        <ele>2574.7670898438</ele>
        <time>2014-03-14T10:14:13Z</time>
      </trkpt>
      <trkpt lat="42.79302" lon="-0.19149">
        <ele>2575.4689941406</ele>
        <time>2014-03-14T10:14:37Z</time>
      </trkpt>
      <trkpt lat="42.79295" lon="-0.19165">
        <ele>2578.708984375</ele>
        <time>2014-03-14T10:14:56Z</time>
      </trkpt>
      <trkpt lat="42.79293" lon="-0.19177">
        <ele>2582.123046875</ele>
        <time>2014-03-14T10:15:13Z</time>
      </trkpt>
      <trkpt lat="42.79286" lon="-0.19188">
        <ele>2585.1020507812</ele>
        <time>2014-03-14T10:15:32Z</time>
      </trkpt>
      <trkpt lat="42.79284" lon="-0.19195">
        <ele>2587</ele>
        <time>2014-03-14T10:15:49Z</time>
      </trkpt>
      <trkpt lat="42.79279" lon="-0.19213">
        <ele>2590.3491210938</ele>
        <time>2014-03-14T10:16:08Z</time>
      </trkpt>
      <trkpt lat="42.79275" lon="-0.19234">
        <ele>2593.2629394531</ele>
        <time>2014-03-14T10:16:31Z</time>
      </trkpt>
      <trkpt lat="42.79269" lon="-0.1925">
        <ele>2596.3911132812</ele>
        <time>2014-03-14T10:16:52Z</time>
      </trkpt>
      <trkpt lat="42.79264" lon="-0.19241">
        <ele>2598.4099121094</ele>
        <time>2014-03-14T10:17:11Z</time>
      </trkpt>
      <trkpt lat="42.79263" lon="-0.19225">
        <ele>2600.9750976562</ele>
        <time>2014-03-14T10:17:31Z</time>
      </trkpt>
      <trkpt lat="42.7926" lon="-0.19219">
        <ele>2602.4641113281</ele>
        <time>2014-03-14T10:17:51Z</time>
      </trkpt>
      <trkpt lat="42.79259" lon="-0.19225">
        <ele>2604.3459472656</ele>
        <time>2014-03-14T10:18:05Z</time>
      </trkpt>
      <trkpt lat="42.79257" lon="-0.19239">
        <ele>2606.6359863281</ele>
        <time>2014-03-14T10:18:23Z</time>
      </trkpt>
      <trkpt lat="42.79254" lon="-0.19241">
        <ele>2607.4909667969</ele>
        <time>2014-03-14T10:18:54Z</time>
      </trkpt>
      <trkpt lat="42.79252" lon="-0.1924">
        <ele>2606.6979980469</ele>
        <time>2014-03-14T10:19:22Z</time>
      </trkpt>
      <trkpt lat="42.79255" lon="-0.19241">
        <ele>2607.6030273438</ele>
        <time>2014-03-14T10:21:06Z</time>
      </trkpt>
      <trkpt lat="42.79255" lon="-0.19244">
        <ele>2607.1259765625</ele>
        <time>2014-03-14T10:21:46Z</time>
      </trkpt>
      <trkpt lat="42.79249" lon="-0.19259">
        <ele>2610.7309570312</ele>
        <time>2014-03-14T10:22:10Z</time>
      </trkpt>
      <trkpt lat="42.79246" lon="-0.19256">
        <ele>2611.8869628906</ele>
        <time>2014-03-14T10:22:27Z</time>
      </trkpt>
      <trkpt lat="42.79242" lon="-0.19247">
        <ele>2613.7390136719</ele>
        <time>2014-03-14T10:22:43Z</time>
      </trkpt>
      <trkpt lat="42.79241" lon="-0.19234">
        <ele>2616.95703125</ele>
        <time>2014-03-14T10:23:01Z</time>
      </trkpt>
      <trkpt lat="42.79239" lon="-0.19252">
        <ele>2618.9729003906</ele>
        <time>2014-03-14T10:23:27Z</time>
      </trkpt>
      <trkpt lat="42.79235" lon="-0.19254">
        <ele>2622.2980957031</ele>
        <time>2014-03-14T10:23:49Z</time>
      </trkpt>
      <trkpt lat="42.79232" lon="-0.19238">
        <ele>2625.3859863281</ele>
        <time>2014-03-14T10:24:06Z</time>
      </trkpt>
      <trkpt lat="42.79228" lon="-0.19252">
        <ele>2627.3989257812</ele>
        <time>2014-03-14T10:24:28Z</time>
      </trkpt>
      <trkpt lat="42.79224" lon="-0.19258">
        <ele>2630.4189453125</ele>
        <time>2014-03-14T10:24:50Z</time>
      </trkpt>
      <trkpt lat="42.79223" lon="-0.19241">
        <ele>2633.0869140625</ele>
        <time>2014-03-14T10:25:09Z</time>
      </trkpt>
      <trkpt lat="42.79221" lon="-0.19244">
        <ele>2634.4260253906</ele>
        <time>2014-03-14T10:25:25Z</time>
      </trkpt>
      <trkpt lat="42.79216" lon="-0.19258">
        <ele>2637.8510742188</ele>
        <time>2014-03-14T10:25:43Z</time>
      </trkpt>
      <trkpt lat="42.79211" lon="-0.19259">
        <ele>2640.3889160156</ele>
        <time>2014-03-14T10:26:06Z</time>
      </trkpt>
      <trkpt lat="42.79209" lon="-0.19243">
        <ele>2642.8659667969</ele>
        <time>2014-03-14T10:26:23Z</time>
      </trkpt>
      <trkpt lat="42.79209" lon="-0.1924">
        <ele>2645.3420410156</ele>
        <time>2014-03-14T10:26:44Z</time>
      </trkpt>
      <trkpt lat="42.79205" lon="-0.19252">
        <ele>2647.6489257812</ele>
        <time>2014-03-14T10:27:02Z</time>
      </trkpt>
      <trkpt lat="42.792" lon="-0.19266">
        <ele>2650.1840820312</ele>
        <time>2014-03-14T10:27:25Z</time>
      </trkpt>
      <trkpt lat="42.79197" lon="-0.19259">
        <ele>2650.9560546875</ele>
        <time>2014-03-14T10:27:43Z</time>
      </trkpt>
      <trkpt lat="42.79197" lon="-0.19244">
        <ele>2652.9880371094</ele>
        <time>2014-03-14T10:27:58Z</time>
      </trkpt>
      <trkpt lat="42.79195" lon="-0.19248">
        <ele>2654.419921875</ele>
        <time>2014-03-14T10:28:13Z</time>
      </trkpt>
      <trkpt lat="42.79192" lon="-0.19256">
        <ele>2655.9289550781</ele>
        <time>2014-03-14T10:28:39Z</time>
      </trkpt>
      <trkpt lat="42.7919" lon="-0.1925">
        <ele>2657.3999023438</ele>
        <time>2014-03-14T10:29:03Z</time>
      </trkpt>
      <trkpt lat="42.79187" lon="-0.19255">
        <ele>2659.66796875</ele>
        <time>2014-03-14T10:29:36Z</time>
      </trkpt>
      <trkpt lat="42.79184" lon="-0.19269">
        <ele>2662.8129882812</ele>
        <time>2014-03-14T10:29:53Z</time>
      </trkpt>
      <trkpt lat="42.79184" lon="-0.19266">
        <ele>2663.6789550781</ele>
        <time>2014-03-14T10:30:11Z</time>
      </trkpt>
      <trkpt lat="42.79182" lon="-0.19251">
        <ele>2666.6259765625</ele>
        <time>2014-03-14T10:30:28Z</time>
      </trkpt>
      <trkpt lat="42.79181" lon="-0.19256">
        <ele>2668.455078125</ele>
        <time>2014-03-14T10:30:50Z</time>
      </trkpt>
      <trkpt lat="42.79178" lon="-0.19278">
        <ele>2671.5161132812</ele>
        <time>2014-03-14T10:31:16Z</time>
      </trkpt>
      <trkpt lat="42.79175" lon="-0.19286">
        <ele>2673.0610351562</ele>
        <time>2014-03-14T10:31:35Z</time>
      </trkpt>
      <trkpt lat="42.79169" lon="-0.19271">
        <ele>2675.9509277344</ele>
        <time>2014-03-14T10:31:55Z</time>
      </trkpt>
      <trkpt lat="42.79168" lon="-0.19275">
        <ele>2677.0129394531</ele>
        <time>2014-03-14T10:32:12Z</time>
      </trkpt>
      <trkpt lat="42.79166" lon="-0.19279">
        <ele>2678.4499511719</ele>
        <time>2014-03-14T10:32:27Z</time>
      </trkpt>
      <trkpt lat="42.79163" lon="-0.19268">
        <ele>2681.6809082031</ele>
        <time>2014-03-14T10:32:53Z</time>
      </trkpt>
      <trkpt lat="42.79161" lon="-0.19273">
        <ele>2681.5668945312</ele>
        <time>2014-03-14T10:33:44Z</time>
      </trkpt>
      <trkpt lat="42.79156" lon="-0.1928">
        <ele>2683.541015625</ele>
        <time>2014-03-14T10:34:56Z</time>
      </trkpt>
      <trkpt lat="42.79156" lon="-0.19284">
        <ele>2684.3649902344</ele>
        <time>2014-03-14T10:35:18Z</time>
      </trkpt>
      <trkpt lat="42.79153" lon="-0.19286">
        <ele>2687.4509277344</ele>
        <time>2014-03-14T10:35:40Z</time>
      </trkpt>
      <trkpt lat="42.7915" lon="-0.19286">
        <ele>2689.9279785156</ele>
        <time>2014-03-14T10:36:03Z</time>
      </trkpt>
      <trkpt lat="42.79147" lon="-0.19288">
        <ele>2692.3579101562</ele>
        <time>2014-03-14T10:36:20Z</time>
      </trkpt>
      <trkpt lat="42.79145" lon="-0.1929">
        <ele>2694.6188964844</ele>
        <time>2014-03-14T10:36:44Z</time>
      </trkpt>
      <trkpt lat="42.79145" lon="-0.19291">
        <ele>2697.6560058594</ele>
        <time>2014-03-14T10:37:20Z</time>
      </trkpt>
      <trkpt lat="42.79144" lon="-0.19289">
        <ele>2700.6789550781</ele>
        <time>2014-03-14T10:38:01Z</time>
      </trkpt>
      <trkpt lat="42.79141" lon="-0.19289">
        <ele>2702.087890625</ele>
        <time>2014-03-14T10:38:17Z</time>
      </trkpt>
      <trkpt lat="42.79139" lon="-0.19292">
        <ele>2704.6459960938</ele>
        <time>2014-03-14T10:38:54Z</time>
      </trkpt>
      <trkpt lat="42.79136" lon="-0.19297">
        <ele>2707.2648925781</ele>
        <time>2014-03-14T10:39:26Z</time>
      </trkpt>
      <trkpt lat="42.79132" lon="-0.19298">
        <ele>2709.501953125</ele>
        <time>2014-03-14T10:39:45Z</time>
      </trkpt>
      <trkpt lat="42.79128" lon="-0.19299">
        <ele>2712.5749511719</ele>
        <time>2014-03-14T10:40:00Z</time>
      </trkpt>
      <trkpt lat="42.79125" lon="-0.19302">
        <ele>2714.6530761719</ele>
        <time>2014-03-14T10:40:15Z</time>
      </trkpt>
      <trkpt lat="42.79124" lon="-0.19301">
        <ele>2715.8588867188</ele>
        <time>2014-03-14T10:40:33Z</time>
      </trkpt>
      <trkpt lat="42.79123" lon="-0.19301">
        <ele>2716.0749511719</ele>
        <time>2014-03-14T10:40:46Z</time>
      </trkpt>
      <trkpt lat="42.79126" lon="-0.19298">
        <ele>2716.7351074219</ele>
        <time>2014-03-14T10:54:55Z</time>
      </trkpt>
      <trkpt lat="42.79127" lon="-0.19298">
        <ele>2716.9079589844</ele>
        <time>2014-03-14T10:56:03Z</time>
      </trkpt>
      <trkpt lat="42.79129" lon="-0.19298">
        <ele>2716.0200195312</ele>
        <time>2014-03-14T10:56:24Z</time>
      </trkpt>
      <trkpt lat="42.7913" lon="-0.19299">
        <ele>2715.2700195312</ele>
        <time>2014-03-14T10:56:40Z</time>
      </trkpt>
      <trkpt lat="42.79134" lon="-0.19295">
        <ele>2712.1101074219</ele>
        <time>2014-03-14T10:57:05Z</time>
      </trkpt>
      <trkpt lat="42.79139" lon="-0.19291">
        <ele>2709.0119628906</ele>
        <time>2014-03-14T10:57:26Z</time>
      </trkpt>
      <trkpt lat="42.79139" lon="-0.19286">
        <ele>2707.8400878906</ele>
        <time>2014-03-14T10:57:52Z</time>
      </trkpt>
      <trkpt lat="42.79141" lon="-0.19288">
        <ele>2704.5590820312</ele>
        <time>2014-03-14T10:58:49Z</time>
      </trkpt>
      <trkpt lat="42.79141" lon="-0.19288">
        <ele>2701.4899902344</ele>
        <time>2014-03-14T10:59:24Z</time>
      </trkpt>
      <trkpt lat="42.79142" lon="-0.19287">
        <ele>2698.4829101562</ele>
        <time>2014-03-14T11:00:04Z</time>
      </trkpt>
      <trkpt lat="42.79147" lon="-0.19283">
        <ele>2696.9060058594</ele>
        <time>2014-03-14T11:00:20Z</time>
      </trkpt>
      <trkpt lat="42.7915" lon="-0.19276">
        <ele>2694.7209472656</ele>
        <time>2014-03-14T11:00:39Z</time>
      </trkpt>
      <trkpt lat="42.79153" lon="-0.19272">
        <ele>2692.3129882812</ele>
        <time>2014-03-14T11:01:05Z</time>
      </trkpt>
      <trkpt lat="42.79156" lon="-0.19269">
        <ele>2688.6149902344</ele>
        <time>2014-03-14T11:01:29Z</time>
      </trkpt>
      <trkpt lat="42.79158" lon="-0.19266">
        <ele>2687.0830078125</ele>
        <time>2014-03-14T11:01:46Z</time>
      </trkpt>
      <trkpt lat="42.7916" lon="-0.19265">
        <ele>2685.4279785156</ele>
        <time>2014-03-14T11:01:52Z</time>
      </trkpt>
      <trkpt lat="42.79163" lon="-0.19262">
        <ele>2683.3649902344</ele>
        <time>2014-03-14T11:02:09Z</time>
      </trkpt>
      <trkpt lat="42.79164" lon="-0.19263">
        <ele>2683.3649902344</ele>
        <time>2014-03-14T11:02:10Z</time>
      </trkpt>
      <trkpt lat="42.79167" lon="-0.19268">
        <ele>2680.8049316406</ele>
        <time>2014-03-14T11:02:12Z</time>
      </trkpt>
      <trkpt lat="42.79168" lon="-0.19271">
        <ele>2678.8420410156</ele>
        <time>2014-03-14T11:02:14Z</time>
      </trkpt>
      <trkpt lat="42.79171" lon="-0.19275">
        <ele>2678.8291015625</ele>
        <time>2014-03-14T11:02:31Z</time>
      </trkpt>
      <trkpt lat="42.79172" lon="-0.1927">
        <ele>2675.6999511719</ele>
        <time>2014-03-14T11:02:35Z</time>
      </trkpt>
      <trkpt lat="42.79173" lon="-0.19268">
        <ele>2675.6608886719</ele>
        <time>2014-03-14T11:02:37Z</time>
      </trkpt>
      <trkpt lat="42.79176" lon="-0.19272">
        <ele>2672.9089355469</ele>
        <time>2014-03-14T11:02:40Z</time>
      </trkpt>
      <trkpt lat="42.79178" lon="-0.19273">
        <ele>2672.1030273438</ele>
        <time>2014-03-14T11:02:41Z</time>
      </trkpt>
      <trkpt lat="42.79181" lon="-0.19267">
        <ele>2669.7119140625</ele>
        <time>2014-03-14T11:02:44Z</time>
      </trkpt>
      <trkpt lat="42.7918" lon="-0.19261">
        <ele>2669.0859375</ele>
        <time>2014-03-14T11:02:53Z</time>
      </trkpt>
      <trkpt lat="42.79184" lon="-0.19264">
        <ele>2667.625</ele>
        <time>2014-03-14T11:02:56Z</time>
      </trkpt>
      <trkpt lat="42.79185" lon="-0.19266">
        <ele>2666.2629394531</ele>
        <time>2014-03-14T11:02:57Z</time>
      </trkpt>
      <trkpt lat="42.79188" lon="-0.19264">
        <ele>2664.455078125</ele>
        <time>2014-03-14T11:02:59Z</time>
      </trkpt>
      <trkpt lat="42.7919" lon="-0.19261">
        <ele>2661.4008789062</ele>
        <time>2014-03-14T11:03:02Z</time>
      </trkpt>
      <trkpt lat="42.79192" lon="-0.1926">
        <ele>2661.3540039062</ele>
        <time>2014-03-14T11:03:20Z</time>
      </trkpt>
      <trkpt lat="42.79195" lon="-0.19261">
        <ele>2658.8278808594</ele>
        <time>2014-03-14T11:03:23Z</time>
      </trkpt>
      <trkpt lat="42.792" lon="-0.19266">
        <ele>2657.1740722656</ele>
        <time>2014-03-14T11:03:27Z</time>
      </trkpt>
      <trkpt lat="42.79206" lon="-0.19268">
        <ele>2652.91796875</ele>
        <time>2014-03-14T11:03:30Z</time>
      </trkpt>
      <trkpt lat="42.79207" lon="-0.1927">
        <ele>2652.9208984375</ele>
        <time>2014-03-14T11:03:31Z</time>
      </trkpt>
      <trkpt lat="42.79209" lon="-0.1927">
        <ele>2652.2561035156</ele>
        <time>2014-03-14T11:03:33Z</time>
      </trkpt>
      <trkpt lat="42.79213" lon="-0.19267">
        <ele>2649.1359863281</ele>
        <time>2014-03-14T11:03:35Z</time>
      </trkpt>
      <trkpt lat="42.79214" lon="-0.19269">
        <ele>2644.6110839844</ele>
        <time>2014-03-14T11:03:37Z</time>
      </trkpt>
      <trkpt lat="42.79215" lon="-0.19271">
        <ele>2644.6140136719</ele>
        <time>2014-03-14T11:03:38Z</time>
      </trkpt>
      <trkpt lat="42.79219" lon="-0.19277">
        <ele>2643.9499511719</ele>
        <time>2014-03-14T11:03:53Z</time>
      </trkpt>
      <trkpt lat="42.79219" lon="-0.19277">
        <ele>2643.7229003906</ele>
        <time>2014-03-14T11:04:05Z</time>
      </trkpt>
      <trkpt lat="42.79223" lon="-0.19276">
        <ele>2640.7900390625</ele>
        <time>2014-03-14T11:04:07Z</time>
      </trkpt>
      <trkpt lat="42.79226" lon="-0.19279">
        <ele>2638.458984375</ele>
        <time>2014-03-14T11:04:09Z</time>
      </trkpt>
      <trkpt lat="42.7923" lon="-0.19274">
        <ele>2636.376953125</ele>
        <time>2014-03-14T11:04:12Z</time>
      </trkpt>
      <trkpt lat="42.79235" lon="-0.19276">
        <ele>2631.5200195312</ele>
        <time>2014-03-14T11:04:14Z</time>
      </trkpt>
      <trkpt lat="42.79235" lon="-0.19277">
        <ele>2631.5229492188</ele>
        <time>2014-03-14T11:04:15Z</time>
      </trkpt>
      <trkpt lat="42.79239" lon="-0.19288">
        <ele>2628.1079101562</ele>
        <time>2014-03-14T11:04:20Z</time>
      </trkpt>
      <trkpt lat="42.7924" lon="-0.19293">
        <ele>2626.4250488281</ele>
        <time>2014-03-14T11:04:22Z</time>
      </trkpt>
      <trkpt lat="42.7924" lon="-0.19294">
        <ele>2625.7399902344</ele>
        <time>2014-03-14T11:04:25Z</time>
      </trkpt>
      <trkpt lat="42.7925" lon="-0.19288">
        <ele>2620.6909179688</ele>
        <time>2014-03-14T11:04:29Z</time>
      </trkpt>
      <trkpt lat="42.79258" lon="-0.19268">
        <ele>2616.5310058594</ele>
        <time>2014-03-14T11:04:33Z</time>
      </trkpt>
      <trkpt lat="42.79259" lon="-0.19261">
        <ele>2615.2150878906</ele>
        <time>2014-03-14T11:04:35Z</time>
      </trkpt>
      <trkpt lat="42.79258" lon="-0.19261">
        <ele>2614.8940429688</ele>
        <time>2014-03-14T11:04:54Z</time>
      </trkpt>
      <trkpt lat="42.79258" lon="-0.19259">
        <ele>2614.9450683594</ele>
        <time>2014-03-14T11:06:50Z</time>
      </trkpt>
      <trkpt lat="42.79261" lon="-0.19251">
        <ele>2613.2199707031</ele>
        <time>2014-03-14T11:06:54Z</time>
      </trkpt>
      <trkpt lat="42.79261" lon="-0.19248">
        <ele>2611.4760742188</ele>
        <time>2014-03-14T11:06:56Z</time>
      </trkpt>
      <trkpt lat="42.79266" lon="-0.19251">
        <ele>2607.7810058594</ele>
        <time>2014-03-14T11:07:00Z</time>
      </trkpt>
      <trkpt lat="42.7927" lon="-0.19254">
        <ele>2607.7829589844</ele>
        <time>2014-03-14T11:07:01Z</time>
      </trkpt>
      <trkpt lat="42.79275" lon="-0.19252">
        <ele>2603.4069824219</ele>
        <time>2014-03-14T11:07:03Z</time>
      </trkpt>
      <trkpt lat="42.79277" lon="-0.19252">
        <ele>2603.4099121094</ele>
        <time>2014-03-14T11:07:04Z</time>
      </trkpt>
      <trkpt lat="42.79278" lon="-0.19255">
        <ele>2600.5380859375</ele>
        <time>2014-03-14T11:07:05Z</time>
      </trkpt>
      <trkpt lat="42.79285" lon="-0.19252">
        <ele>2597.751953125</ele>
        <time>2014-03-14T11:07:08Z</time>
      </trkpt>
      <trkpt lat="42.79288" lon="-0.19243">
        <ele>2592.9709472656</ele>
        <time>2014-03-14T11:07:10Z</time>
      </trkpt>
      <trkpt lat="42.79292" lon="-0.19228">
        <ele>2590.8740234375</ele>
        <time>2014-03-14T11:07:13Z</time>
      </trkpt>
      <trkpt lat="42.79293" lon="-0.1922">
        <ele>2588.9370117188</ele>
        <time>2014-03-14T11:07:15Z</time>
      </trkpt>
      <trkpt lat="42.79297" lon="-0.19204">
        <ele>2586.2189941406</ele>
        <time>2014-03-14T11:07:20Z</time>
      </trkpt>
      <trkpt lat="42.79303" lon="-0.19189">
        <ele>2582.9970703125</ele>
        <time>2014-03-14T11:07:27Z</time>
      </trkpt>
      <trkpt lat="42.79305" lon="-0.19181">
        <ele>2581.6450195312</ele>
        <time>2014-03-14T11:07:29Z</time>
      </trkpt>
      <trkpt lat="42.79306" lon="-0.19177">
        <ele>2580.5920410156</ele>
        <time>2014-03-14T11:07:30Z</time>
      </trkpt>
      <trkpt lat="42.79315" lon="-0.19161">
        <ele>2575.4790039062</ele>
        <time>2014-03-14T11:07:33Z</time>
      </trkpt>
      <trkpt lat="42.79317" lon="-0.19155">
        <ele>2575.4829101562</ele>
        <time>2014-03-14T11:07:34Z</time>
      </trkpt>
      <trkpt lat="42.79322" lon="-0.19144">
        <ele>2574.5720214844</ele>
        <time>2014-03-14T11:07:37Z</time>
      </trkpt>
      <trkpt lat="42.79332" lon="-0.19116">
        <ele>2571.9331054688</ele>
        <time>2014-03-14T11:07:51Z</time>
      </trkpt>
      <trkpt lat="42.79336" lon="-0.191">
        <ele>2570.2409667969</ele>
        <time>2014-03-14T11:08:07Z</time>
      </trkpt>
      <trkpt lat="42.79342" lon="-0.19089">
        <ele>2568.4409179688</ele>
        <time>2014-03-14T11:08:18Z</time>
      </trkpt>
      <trkpt lat="42.79353" lon="-0.19077">
        <ele>2566.041015625</ele>
        <time>2014-03-14T11:08:22Z</time>
      </trkpt>
      <trkpt lat="42.79369" lon="-0.19067">
        <ele>2562.8479003906</ele>
        <time>2014-03-14T11:08:28Z</time>
      </trkpt>
      <trkpt lat="42.79385" lon="-0.19065">
        <ele>2560.8491210938</ele>
        <time>2014-03-14T11:08:34Z</time>
      </trkpt>
      <trkpt lat="42.79397" lon="-0.19066">
        <ele>2559.0139160156</ele>
        <time>2014-03-14T11:08:38Z</time>
      </trkpt>
      <trkpt lat="42.79417" lon="-0.19064">
        <ele>2554.4240722656</ele>
        <time>2014-03-14T11:08:45Z</time>
      </trkpt>
      <trkpt lat="42.7942" lon="-0.19062">
        <ele>2554.4189453125</ele>
        <time>2014-03-14T11:08:46Z</time>
      </trkpt>
      <trkpt lat="42.79422" lon="-0.19059">
        <ele>2553.3420410156</ele>
        <time>2014-03-14T11:08:57Z</time>
      </trkpt>
      <trkpt lat="42.79423" lon="-0.19059">
        <ele>2552.7790527344</ele>
        <time>2014-03-14T11:08:58Z</time>
      </trkpt>
      <trkpt lat="42.79425" lon="-0.19058">
        <ele>2551.2490234375</ele>
        <time>2014-03-14T11:09:01Z</time>
      </trkpt>
      <trkpt lat="42.79435" lon="-0.19063">
        <ele>2549.4260253906</ele>
        <time>2014-03-14T11:09:04Z</time>
      </trkpt>
      <trkpt lat="42.79438" lon="-0.19062">
        <ele>2546.791015625</ele>
        <time>2014-03-14T11:09:06Z</time>
      </trkpt>
      <trkpt lat="42.7944" lon="-0.1906">
        <ele>2545.2700195312</ele>
        <time>2014-03-14T11:09:20Z</time>
      </trkpt>
      <trkpt lat="42.79442" lon="-0.19062">
        <ele>2544.4350585938</ele>
        <time>2014-03-14T11:09:34Z</time>
      </trkpt>
      <trkpt lat="42.79441" lon="-0.19059">
        <ele>2544.3168945312</ele>
        <time>2014-03-14T11:10:23Z</time>
      </trkpt>
      <trkpt lat="42.79442" lon="-0.19059">
        <ele>2543.837890625</ele>
        <time>2014-03-14T11:11:32Z</time>
      </trkpt>
      <trkpt lat="42.79446" lon="-0.1906">
        <ele>2543.5109863281</ele>
        <time>2014-03-14T11:12:16Z</time>
      </trkpt>
      <trkpt lat="42.79456" lon="-0.19063">
        <ele>2541.08203125</ele>
        <time>2014-03-14T11:12:20Z</time>
      </trkpt>
      <trkpt lat="42.79467" lon="-0.19067">
        <ele>2539.2109375</ele>
        <time>2014-03-14T11:12:23Z</time>
      </trkpt>
      <trkpt lat="42.79473" lon="-0.19062">
        <ele>2535.5639648438</ele>
        <time>2014-03-14T11:12:26Z</time>
      </trkpt>
      <trkpt lat="42.79469" lon="-0.19037">
        <ele>2532.9221191406</ele>
        <time>2014-03-14T11:12:32Z</time>
      </trkpt>
      <trkpt lat="42.79466" lon="-0.19035">
        <ele>2531.9130859375</ele>
        <time>2014-03-14T11:12:33Z</time>
      </trkpt>
      <trkpt lat="42.7946" lon="-0.1903">
        <ele>2530.9938964844</ele>
        <time>2014-03-14T11:12:35Z</time>
      </trkpt>
      <trkpt lat="42.79458" lon="-0.19016">
        <ele>2527.3000488281</ele>
        <time>2014-03-14T11:12:38Z</time>
      </trkpt>
      <trkpt lat="42.79455" lon="-0.19004">
        <ele>2524.1989746094</ele>
        <time>2014-03-14T11:12:40Z</time>
      </trkpt>
      <trkpt lat="42.79458" lon="-0.18991">
        <ele>2520.4299316406</ele>
        <time>2014-03-14T11:12:42Z</time>
      </trkpt>
      <trkpt lat="42.79463" lon="-0.18984">
        <ele>2517.0490722656</ele>
        <time>2014-03-14T11:12:43Z</time>
      </trkpt>
      <trkpt lat="42.79468" lon="-0.18976">
        <ele>2517.0471191406</ele>
        <time>2014-03-14T11:12:44Z</time>
      </trkpt>
      <trkpt lat="42.79473" lon="-0.18968">
        <ele>2513.3059082031</ele>
        <time>2014-03-14T11:12:45Z</time>
      </trkpt>
      <trkpt lat="42.7948" lon="-0.1896">
        <ele>2513.3039550781</ele>
        <time>2014-03-14T11:12:46Z</time>
      </trkpt>
      <trkpt lat="42.79486" lon="-0.18952">
        <ele>2509.1540527344</ele>
        <time>2014-03-14T11:12:47Z</time>
      </trkpt>
      <trkpt lat="42.79496" lon="-0.18937">
        <ele>2507.8029785156</ele>
        <time>2014-03-14T11:12:49Z</time>
      </trkpt>
      <trkpt lat="42.79514" lon="-0.18911">
        <ele>2505.6040039062</ele>
        <time>2014-03-14T11:12:53Z</time>
      </trkpt>
      <trkpt lat="42.79522" lon="-0.18898">
        <ele>2501.9360351562</ele>
        <time>2014-03-14T11:12:55Z</time>
      </trkpt>
      <trkpt lat="42.79526" lon="-0.18892">
        <ele>2501.9360351562</ele>
        <time>2014-03-14T11:12:56Z</time>
      </trkpt>
      <trkpt lat="42.79535" lon="-0.18881">
        <ele>2500.1608886719</ele>
        <time>2014-03-14T11:12:58Z</time>
      </trkpt>
      <trkpt lat="42.79555" lon="-0.18848">
        <ele>2498.8059082031</ele>
        <time>2014-03-14T11:13:07Z</time>
      </trkpt>
      <trkpt lat="42.79556" lon="-0.18847">
        <ele>2498.3898925781</ele>
        <time>2014-03-14T11:13:18Z</time>
      </trkpt>
      <trkpt lat="42.79549" lon="-0.18844">
        <ele>2495.6560058594</ele>
        <time>2014-03-14T11:13:21Z</time>
      </trkpt>
      <trkpt lat="42.79545" lon="-0.18838">
        <ele>2493.3979492188</ele>
        <time>2014-03-14T11:13:23Z</time>
      </trkpt>
      <trkpt lat="42.79536" lon="-0.18824">
        <ele>2486.7390136719</ele>
        <time>2014-03-14T11:13:26Z</time>
      </trkpt>
      <trkpt lat="42.79536" lon="-0.18817">
        <ele>2483.4108886719</ele>
        <time>2014-03-14T11:13:27Z</time>
      </trkpt>
      <trkpt lat="42.79535" lon="-0.18809">
        <ele>2483.4169921875</ele>
        <time>2014-03-14T11:13:28Z</time>
      </trkpt>
      <trkpt lat="42.79534" lon="-0.18789">
        <ele>2480.9289550781</ele>
        <time>2014-03-14T11:13:30Z</time>
      </trkpt>
      <trkpt lat="42.79533" lon="-0.18771">
        <ele>2477.6079101562</ele>
        <time>2014-03-14T11:13:32Z</time>
      </trkpt>
      <trkpt lat="42.79532" lon="-0.18762">
        <ele>2477.6169433594</ele>
        <time>2014-03-14T11:13:33Z</time>
      </trkpt>
      <trkpt lat="42.79533" lon="-0.18748">
        <ele>2478.87890625</ele>
        <time>2014-03-14T11:13:35Z</time>
      </trkpt>
      <trkpt lat="42.79543" lon="-0.18711">
        <ele>2476.2690429688</ele>
        <time>2014-03-14T11:13:41Z</time>
      </trkpt>
      <trkpt lat="42.79551" lon="-0.18691">
        <ele>2474.8100585938</ele>
        <time>2014-03-14T11:13:44Z</time>
      </trkpt>
      <trkpt lat="42.79563" lon="-0.18674">
        <ele>2474.2390136719</ele>
        <time>2014-03-14T11:13:48Z</time>
      </trkpt>
      <trkpt lat="42.79588" lon="-0.18668">
        <ele>2471.5900878906</ele>
        <time>2014-03-14T11:13:55Z</time>
      </trkpt>
      <trkpt lat="42.79603" lon="-0.18665">
        <ele>2469.4260253906</ele>
        <time>2014-03-14T11:13:59Z</time>
      </trkpt>
      <trkpt lat="42.79613" lon="-0.18664">
        <ele>2468.0849609375</ele>
        <time>2014-03-14T11:14:02Z</time>
      </trkpt>
      <trkpt lat="42.79614" lon="-0.18664">
        <ele>2468.6520996094</ele>
        <time>2014-03-14T11:14:15Z</time>
      </trkpt>
      <trkpt lat="42.79611" lon="-0.18654">
        <ele>2465.1079101562</ele>
        <time>2014-03-14T11:14:19Z</time>
      </trkpt>
      <trkpt lat="42.79606" lon="-0.1864">
        <ele>2457.0778808594</ele>
        <time>2014-03-14T11:14:22Z</time>
      </trkpt>
      <trkpt lat="42.79604" lon="-0.18633">
        <ele>2453.919921875</ele>
        <time>2014-03-14T11:14:23Z</time>
      </trkpt>
      <trkpt lat="42.79601" lon="-0.18628">
        <ele>2453.9250488281</ele>
        <time>2014-03-14T11:14:24Z</time>
      </trkpt>
      <trkpt lat="42.79598" lon="-0.18623">
        <ele>2450.7009277344</ele>
        <time>2014-03-14T11:14:25Z</time>
      </trkpt>
      <trkpt lat="42.79596" lon="-0.18617">
        <ele>2450.7060546875</ele>
        <time>2014-03-14T11:14:26Z</time>
      </trkpt>
      <trkpt lat="42.79586" lon="-0.1861">
        <ele>2446.6149902344</ele>
        <time>2014-03-14T11:14:28Z</time>
      </trkpt>
      <trkpt lat="42.79575" lon="-0.18606">
        <ele>2442.2329101562</ele>
        <time>2014-03-14T11:14:30Z</time>
      </trkpt>
      <trkpt lat="42.79567" lon="-0.18588">
        <ele>2436.6369628906</ele>
        <time>2014-03-14T11:14:34Z</time>
      </trkpt>
      <trkpt lat="42.79565" lon="-0.18581">
        <ele>2436.6411132812</ele>
        <time>2014-03-14T11:14:35Z</time>
      </trkpt>
      <trkpt lat="42.79563" lon="-0.18571">
        <ele>2431.6049804688</ele>
        <time>2014-03-14T11:14:36Z</time>
      </trkpt>
      <trkpt lat="42.79563" lon="-0.18564">
        <ele>2431.6110839844</ele>
        <time>2014-03-14T11:14:37Z</time>
      </trkpt>
      <trkpt lat="42.79567" lon="-0.18558">
        <ele>2428.0969238281</ele>
        <time>2014-03-14T11:14:38Z</time>
      </trkpt>
      <trkpt lat="42.79573" lon="-0.18543">
        <ele>2424.787109375</ele>
        <time>2014-03-14T11:14:40Z</time>
      </trkpt>
      <trkpt lat="42.79577" lon="-0.18535">
        <ele>2421.0810546875</ele>
        <time>2014-03-14T11:14:41Z</time>
      </trkpt>
      <trkpt lat="42.79581" lon="-0.18526">
        <ele>2421.0869140625</ele>
        <time>2014-03-14T11:14:42Z</time>
      </trkpt>
      <trkpt lat="42.79586" lon="-0.18507">
        <ele>2418.4880371094</ele>
        <time>2014-03-14T11:14:44Z</time>
      </trkpt>
      <trkpt lat="42.7959" lon="-0.18494">
        <ele>2418.9460449219</ele>
        <time>2014-03-14T11:14:50Z</time>
      </trkpt>
      <trkpt lat="42.7959" lon="-0.18493">
        <ele>2418.5568847656</ele>
        <time>2014-03-14T11:14:55Z</time>
      </trkpt>
      <trkpt lat="42.79584" lon="-0.18496">
        <ele>2415.7919921875</ele>
        <time>2014-03-14T11:14:58Z</time>
      </trkpt>
      <trkpt lat="42.79578" lon="-0.18492">
        <ele>2408.2849121094</ele>
        <time>2014-03-14T11:15:00Z</time>
      </trkpt>
      <trkpt lat="42.79577" lon="-0.18488">
        <ele>2408.291015625</ele>
        <time>2014-03-14T11:15:01Z</time>
      </trkpt>
      <trkpt lat="42.79578" lon="-0.18482">
        <ele>2405.2060546875</ele>
        <time>2014-03-14T11:15:02Z</time>
      </trkpt>
      <trkpt lat="42.79588" lon="-0.18451">
        <ele>2399.8249511719</ele>
        <time>2014-03-14T11:15:07Z</time>
      </trkpt>
      <trkpt lat="42.7959" lon="-0.18443">
        <ele>2399.8330078125</ele>
        <time>2014-03-14T11:15:08Z</time>
      </trkpt>
      <trkpt lat="42.79595" lon="-0.18429">
        <ele>2397.7380371094</ele>
        <time>2014-03-14T11:15:10Z</time>
      </trkpt>
      <trkpt lat="42.79601" lon="-0.18418">
        <ele>2397.49609375</ele>
        <time>2014-03-14T11:15:16Z</time>
      </trkpt>
      <trkpt lat="42.79601" lon="-0.18418">
        <ele>2397.6520996094</ele>
        <time>2014-03-14T11:15:25Z</time>
      </trkpt>
      <trkpt lat="42.79594" lon="-0.18419">
        <ele>2395.9108886719</ele>
        <time>2014-03-14T11:15:28Z</time>
      </trkpt>
      <trkpt lat="42.79591" lon="-0.18414">
        <ele>2390.08203125</ele>
        <time>2014-03-14T11:15:30Z</time>
      </trkpt>
      <trkpt lat="42.79588" lon="-0.18411">
        <ele>2390.087890625</ele>
        <time>2014-03-14T11:15:31Z</time>
      </trkpt>
      <trkpt lat="42.79588" lon="-0.18407">
        <ele>2386.0419921875</ele>
        <time>2014-03-14T11:15:32Z</time>
      </trkpt>
      <trkpt lat="42.79589" lon="-0.184">
        <ele>2386.0500488281</ele>
        <time>2014-03-14T11:15:33Z</time>
      </trkpt>
      <trkpt lat="42.79591" lon="-0.18394">
        <ele>2382.5358886719</ele>
        <time>2014-03-14T11:15:34Z</time>
      </trkpt>
      <trkpt lat="42.79594" lon="-0.18388">
        <ele>2382.54296875</ele>
        <time>2014-03-14T11:15:35Z</time>
      </trkpt>
      <trkpt lat="42.79596" lon="-0.18383">
        <ele>2379.9729003906</ele>
        <time>2014-03-14T11:15:36Z</time>
      </trkpt>
      <trkpt lat="42.79601" lon="-0.18371">
        <ele>2378.5739746094</ele>
        <time>2014-03-14T11:15:38Z</time>
      </trkpt>
      <trkpt lat="42.7961" lon="-0.1835">
        <ele>2376.6489257812</ele>
        <time>2014-03-14T11:15:42Z</time>
      </trkpt>
      <trkpt lat="42.79619" lon="-0.18333">
        <ele>2374.169921875</ele>
        <time>2014-03-14T11:15:45Z</time>
      </trkpt>
      <trkpt lat="42.79633" lon="-0.18299">
        <ele>2371.5090332031</ele>
        <time>2014-03-14T11:15:52Z</time>
      </trkpt>
      <trkpt lat="42.79647" lon="-0.18273">
        <ele>2369.9089355469</ele>
        <time>2014-03-14T11:16:01Z</time>
      </trkpt>
      <trkpt lat="42.79675" lon="-0.18231">
        <ele>2366.4609375</ele>
        <time>2014-03-14T11:16:14Z</time>
      </trkpt>
      <trkpt lat="42.79689" lon="-0.18204">
        <ele>2364.8569335938</ele>
        <time>2014-03-14T11:16:22Z</time>
      </trkpt>
      <trkpt lat="42.79696" lon="-0.18157">
        <ele>2360.6889648438</ele>
        <time>2014-03-14T11:16:32Z</time>
      </trkpt>
      <trkpt lat="42.79697" lon="-0.18151">
        <ele>2360.6918945312</ele>
        <time>2014-03-14T11:16:33Z</time>
      </trkpt>
      <trkpt lat="42.79698" lon="-0.18145">
        <ele>2360.8391113281</ele>
        <time>2014-03-14T11:16:34Z</time>
      </trkpt>
      <trkpt lat="42.79702" lon="-0.18132">
        <ele>2359.4140625</ele>
        <time>2014-03-14T11:16:36Z</time>
      </trkpt>
      <trkpt lat="42.7971" lon="-0.18116">
        <ele>2357.5959472656</ele>
        <time>2014-03-14T11:16:39Z</time>
      </trkpt>
      <trkpt lat="42.79713" lon="-0.181">
        <ele>2357.2839355469</ele>
        <time>2014-03-14T11:16:42Z</time>
      </trkpt>
      <trkpt lat="42.79714" lon="-0.18081">
        <ele>2355.6120605469</ele>
        <time>2014-03-14T11:16:45Z</time>
      </trkpt>
      <trkpt lat="42.79717" lon="-0.18072">
        <ele>2355.4819335938</ele>
        <time>2014-03-14T11:16:54Z</time>
      </trkpt>
      <trkpt lat="42.79717" lon="-0.18071">
        <ele>2354.9680175781</ele>
        <time>2014-03-14T11:17:49Z</time>
      </trkpt>
      <trkpt lat="42.79713" lon="-0.18063">
        <ele>2354.458984375</ele>
        <time>2014-03-14T11:17:52Z</time>
      </trkpt>
      <trkpt lat="42.7971" lon="-0.1805">
        <ele>2352.66796875</ele>
        <time>2014-03-14T11:17:54Z</time>
      </trkpt>
      <trkpt lat="42.79708" lon="-0.18043">
        <ele>2350.87109375</ele>
        <time>2014-03-14T11:17:55Z</time>
      </trkpt>
      <trkpt lat="42.79701" lon="-0.18032">
        <ele>2348.6369628906</ele>
        <time>2014-03-14T11:17:57Z</time>
      </trkpt>
      <trkpt lat="42.79706" lon="-0.18016">
        <ele>2346.4780273438</ele>
        <time>2014-03-14T11:18:03Z</time>
      </trkpt>
      <trkpt lat="42.79712" lon="-0.18015">
        <ele>2346.4799804688</ele>
        <time>2014-03-14T11:18:04Z</time>
      </trkpt>
      <trkpt lat="42.79719" lon="-0.18014">
        <ele>2344.6479492188</ele>
        <time>2014-03-14T11:18:06Z</time>
      </trkpt>
      <trkpt lat="42.79724" lon="-0.18008">
        <ele>2345.4008789062</ele>
        <time>2014-03-14T11:18:08Z</time>
      </trkpt>
      <trkpt lat="42.79732" lon="-0.17993">
        <ele>2343.5930175781</ele>
        <time>2014-03-14T11:18:12Z</time>
      </trkpt>
      <trkpt lat="42.79726" lon="-0.17985">
        <ele>2341.205078125</ele>
        <time>2014-03-14T11:18:15Z</time>
      </trkpt>
      <trkpt lat="42.7972" lon="-0.17982">
        <ele>2337.4309082031</ele>
        <time>2014-03-14T11:18:16Z</time>
      </trkpt>
      <trkpt lat="42.79715" lon="-0.17977">
        <ele>2337.4309082031</ele>
        <time>2014-03-14T11:18:17Z</time>
      </trkpt>
      <trkpt lat="42.7971" lon="-0.1797">
        <ele>2334.4169921875</ele>
        <time>2014-03-14T11:18:18Z</time>
      </trkpt>
      <trkpt lat="42.79706" lon="-0.17963">
        <ele>2331.9938964844</ele>
        <time>2014-03-14T11:18:19Z</time>
      </trkpt>
      <trkpt lat="42.79694" lon="-0.17946">
        <ele>2330.416015625</ele>
        <time>2014-03-14T11:18:22Z</time>
      </trkpt>
      <trkpt lat="42.79669" lon="-0.17928">
        <ele>2328.4140625</ele>
        <time>2014-03-14T11:18:30Z</time>
      </trkpt>
      <trkpt lat="42.79662" lon="-0.17924">
        <ele>2328.1730957031</ele>
        <time>2014-03-14T11:18:34Z</time>
      </trkpt>
      <trkpt lat="42.79668" lon="-0.17917">
        <ele>2323.5769042969</ele>
        <time>2014-03-14T11:18:37Z</time>
      </trkpt>
      <trkpt lat="42.79674" lon="-0.17914">
        <ele>2323.5791015625</ele>
        <time>2014-03-14T11:18:38Z</time>
      </trkpt>
      <trkpt lat="42.79681" lon="-0.17911">
        <ele>2320.0339355469</ele>
        <time>2014-03-14T11:18:39Z</time>
      </trkpt>
      <trkpt lat="42.79689" lon="-0.17902">
        <ele>2318.5778808594</ele>
        <time>2014-03-14T11:18:41Z</time>
      </trkpt>
      <trkpt lat="42.79682" lon="-0.1789">
        <ele>2315.9030761719</ele>
        <time>2014-03-14T11:18:43Z</time>
      </trkpt>
      <trkpt lat="42.79672" lon="-0.1788">
        <ele>2312.248046875</ele>
        <time>2014-03-14T11:18:45Z</time>
      </trkpt>
      <trkpt lat="42.79662" lon="-0.17864">
        <ele>2305.8278808594</ele>
        <time>2014-03-14T11:18:47Z</time>
      </trkpt>
      <trkpt lat="42.7966" lon="-0.17854">
        <ele>2305.8349609375</ele>
        <time>2014-03-14T11:18:48Z</time>
      </trkpt>
      <trkpt lat="42.7966" lon="-0.17836">
        <ele>2306.1831054688</ele>
        <time>2014-03-14T11:18:50Z</time>
      </trkpt>
      <trkpt lat="42.79658" lon="-0.1781">
        <ele>2305.7319335938</ele>
        <time>2014-03-14T11:18:54Z</time>
      </trkpt>
      <trkpt lat="42.79653" lon="-0.178">
        <ele>2304.3779296875</ele>
        <time>2014-03-14T11:18:56Z</time>
      </trkpt>
      <trkpt lat="42.79661" lon="-0.17777">
        <ele>2300.9069824219</ele>
        <time>2014-03-14T11:19:00Z</time>
      </trkpt>
      <trkpt lat="42.79667" lon="-0.17746">
        <ele>2295.3491210938</ele>
        <time>2014-03-14T11:19:04Z</time>
      </trkpt>
      <trkpt lat="42.79664" lon="-0.17738">
        <ele>2293.7338867188</ele>
        <time>2014-03-14T11:19:05Z</time>
      </trkpt>
      <trkpt lat="42.79654" lon="-0.17731">
        <ele>2293.6140136719</ele>
        <time>2014-03-14T11:19:09Z</time>
      </trkpt>
      <trkpt lat="42.79646" lon="-0.17733">
        <ele>2291.9060058594</ele>
        <time>2014-03-14T11:19:11Z</time>
      </trkpt>
      <trkpt lat="42.79641" lon="-0.17725">
        <ele>2292.4050292969</ele>
        <time>2014-03-14T11:19:17Z</time>
      </trkpt>
      <trkpt lat="42.79642" lon="-0.17727">
        <ele>2292.4399414062</ele>
        <time>2014-03-14T11:19:38Z</time>
      </trkpt>
      <trkpt lat="42.79644" lon="-0.17724">
        <ele>2291.2370605469</ele>
        <time>2014-03-14T11:44:49Z</time>
      </trkpt>
      <trkpt lat="42.79641" lon="-0.17729">
        <ele>2291.9990234375</ele>
        <time>2014-03-14T11:45:26Z</time>
      </trkpt>
      <trkpt lat="42.79637" lon="-0.17733">
        <ele>2291.7099609375</ele>
        <time>2014-03-14T11:45:30Z</time>
      </trkpt>
      <trkpt lat="42.79616" lon="-0.17751">
        <ele>2291.1259765625</ele>
        <time>2014-03-14T11:45:51Z</time>
      </trkpt>
      <trkpt lat="42.79608" lon="-0.17747">
        <ele>2290.9470214844</ele>
        <time>2014-03-14T11:46:02Z</time>
      </trkpt>
      <trkpt lat="42.79593" lon="-0.17738">
        <ele>2291.1188964844</ele>
        <time>2014-03-14T11:46:20Z</time>
      </trkpt>
      <trkpt lat="42.79581" lon="-0.17728">
        <ele>2292.3869628906</ele>
        <time>2014-03-14T11:46:33Z</time>
      </trkpt>
      <trkpt lat="42.79581" lon="-0.17726">
        <ele>2292.1960449219</ele>
        <time>2014-03-14T11:46:35Z</time>
      </trkpt>
      <trkpt lat="42.79577" lon="-0.17721">
        <ele>2292.3479003906</ele>
        <time>2014-03-14T11:46:39Z</time>
      </trkpt>
      <trkpt lat="42.79575" lon="-0.17701">
        <ele>2293.5200195312</ele>
        <time>2014-03-14T11:46:54Z</time>
      </trkpt>
      <trkpt lat="42.79575" lon="-0.17688">
        <ele>2294.9890136719</ele>
        <time>2014-03-14T11:47:08Z</time>
      </trkpt>
      <trkpt lat="42.79576" lon="-0.17673">
        <ele>2296.33203125</ele>
        <time>2014-03-14T11:47:21Z</time>
      </trkpt>
      <trkpt lat="42.79577" lon="-0.17658">
        <ele>2298.2709960938</ele>
        <time>2014-03-14T11:47:38Z</time>
      </trkpt>
      <trkpt lat="42.79573" lon="-0.17647">
        <ele>2299.8200683594</ele>
        <time>2014-03-14T11:47:54Z</time>
      </trkpt>
      <trkpt lat="42.79563" lon="-0.17638">
        <ele>2301.5590820312</ele>
        <time>2014-03-14T11:48:12Z</time>
      </trkpt>
      <trkpt lat="42.79551" lon="-0.17626">
        <ele>2304.2849121094</ele>
        <time>2014-03-14T11:48:32Z</time>
      </trkpt>
      <trkpt lat="42.79541" lon="-0.17615">
        <ele>2306.7490234375</ele>
        <time>2014-03-14T11:48:50Z</time>
      </trkpt>
      <trkpt lat="42.79532" lon="-0.17603">
        <ele>2308.8820800781</ele>
        <time>2014-03-14T11:49:10Z</time>
      </trkpt>
      <trkpt lat="42.79526" lon="-0.17586">
        <ele>2311.4289550781</ele>
        <time>2014-03-14T11:49:30Z</time>
      </trkpt>
      <trkpt lat="42.79525" lon="-0.17568">
        <ele>2314.5759277344</ele>
        <time>2014-03-14T11:49:52Z</time>
      </trkpt>
      <trkpt lat="42.79528" lon="-0.17551">
        <ele>2317.5610351562</ele>
        <time>2014-03-14T11:50:13Z</time>
      </trkpt>
      <trkpt lat="42.79525" lon="-0.17539">
        <ele>2319.3049316406</ele>
        <time>2014-03-14T11:50:28Z</time>
      </trkpt>
      <trkpt lat="42.79522" lon="-0.17523">
        <ele>2320.6809082031</ele>
        <time>2014-03-14T11:50:44Z</time>
      </trkpt>
      <trkpt lat="42.79521" lon="-0.17516">
        <ele>2321.3659667969</ele>
        <time>2014-03-14T11:50:51Z</time>
      </trkpt>
      <trkpt lat="42.79516" lon="-0.17495">
        <ele>2322.375</ele>
        <time>2014-03-14T11:51:06Z</time>
      </trkpt>
      <trkpt lat="42.79512" lon="-0.17484">
        <ele>2322.7160644531</ele>
        <time>2014-03-14T11:51:17Z</time>
      </trkpt>
      <trkpt lat="42.79502" lon="-0.17479">
        <ele>2323.0270996094</ele>
        <time>2014-03-14T11:51:30Z</time>
      </trkpt>
      <trkpt lat="42.79488" lon="-0.17469">
        <ele>2324.8479003906</ele>
        <time>2014-03-14T11:51:49Z</time>
      </trkpt>
      <trkpt lat="42.7948" lon="-0.17461">
        <ele>2326.4470214844</ele>
        <time>2014-03-14T11:52:07Z</time>
      </trkpt>
      <trkpt lat="42.79482" lon="-0.17449">
        <ele>2328.3630371094</ele>
        <time>2014-03-14T11:52:23Z</time>
      </trkpt>
      <trkpt lat="42.79483" lon="-0.17424">
        <ele>2331.7780761719</ele>
        <time>2014-03-14T11:52:51Z</time>
      </trkpt>
      <trkpt lat="42.79476" lon="-0.17426">
        <ele>2333.7229003906</ele>
        <time>2014-03-14T11:53:10Z</time>
      </trkpt>
      <trkpt lat="42.79467" lon="-0.17425">
        <ele>2336.8950195312</ele>
        <time>2014-03-14T11:53:32Z</time>
      </trkpt>
      <trkpt lat="42.79464" lon="-0.17407">
        <ele>2339.0300292969</ele>
        <time>2014-03-14T11:53:52Z</time>
      </trkpt>
      <trkpt lat="42.79469" lon="-0.17379">
        <ele>2342.3020019531</ele>
        <time>2014-03-14T11:54:19Z</time>
      </trkpt>
      <trkpt lat="42.79469" lon="-0.17364">
        <ele>2344.2019042969</ele>
        <time>2014-03-14T11:54:36Z</time>
      </trkpt>
      <trkpt lat="42.79463" lon="-0.17359">
        <ele>2347.1750488281</ele>
        <time>2014-03-14T11:54:59Z</time>
      </trkpt>
      <trkpt lat="42.79447" lon="-0.17367">
        <ele>2350.3010253906</ele>
        <time>2014-03-14T11:55:21Z</time>
      </trkpt>
      <trkpt lat="42.79428" lon="-0.17371">
        <ele>2353.3679199219</ele>
        <time>2014-03-14T11:55:44Z</time>
      </trkpt>
      <trkpt lat="42.79412" lon="-0.17367">
        <ele>2355.5610351562</ele>
        <time>2014-03-14T11:56:08Z</time>
      </trkpt>
      <trkpt lat="42.79404" lon="-0.17369">
        <ele>2357.2619628906</ele>
        <time>2014-03-14T11:56:23Z</time>
      </trkpt>
      <trkpt lat="42.79388" lon="-0.17369">
        <ele>2360.29296875</ele>
        <time>2014-03-14T11:56:49Z</time>
      </trkpt>
      <trkpt lat="42.79369" lon="-0.17369">
        <ele>2363.3120117188</ele>
        <time>2014-03-14T11:57:14Z</time>
      </trkpt>
      <trkpt lat="42.79367" lon="-0.17383">
        <ele>2366.7229003906</ele>
        <time>2014-03-14T11:57:33Z</time>
      </trkpt>
      <trkpt lat="42.79364" lon="-0.17399">
        <ele>2369.3969726562</ele>
        <time>2014-03-14T11:58:01Z</time>
      </trkpt>
      <trkpt lat="42.79352" lon="-0.17397">
        <ele>2372.4660644531</ele>
        <time>2014-03-14T11:58:19Z</time>
      </trkpt>
      <trkpt lat="42.79341" lon="-0.17388">
        <ele>2374.8059082031</ele>
        <time>2014-03-14T11:58:38Z</time>
      </trkpt>
      <trkpt lat="42.7934" lon="-0.17388">
        <ele>2376.833984375</ele>
        <time>2014-03-14T11:58:50Z</time>
      </trkpt>
      <trkpt lat="42.79338" lon="-0.17398">
        <ele>2379.2858886719</ele>
        <time>2014-03-14T11:59:06Z</time>
      </trkpt>
      <trkpt lat="42.79336" lon="-0.17413">
        <ele>2382.8410644531</ele>
        <time>2014-03-14T11:59:29Z</time>
      </trkpt>
      <trkpt lat="42.79323" lon="-0.17429">
        <ele>2385.9389648438</ele>
        <time>2014-03-14T11:59:54Z</time>
      </trkpt>
      <trkpt lat="42.7932" lon="-0.17431">
        <ele>2386.8879394531</ele>
        <time>2014-03-14T11:59:58Z</time>
      </trkpt>
      <trkpt lat="42.79312" lon="-0.17418">
        <ele>2390.0061035156</ele>
        <time>2014-03-14T12:00:19Z</time>
      </trkpt>
      <trkpt lat="42.79306" lon="-0.1742">
        <ele>2393.2648925781</ele>
        <time>2014-03-14T12:00:36Z</time>
      </trkpt>
      <trkpt lat="42.79292" lon="-0.1743">
        <ele>2396.2890625</ele>
        <time>2014-03-14T12:00:56Z</time>
      </trkpt>
      <trkpt lat="42.79289" lon="-0.17432">
        <ele>2397.3540039062</ele>
        <time>2014-03-14T12:01:03Z</time>
      </trkpt>
      <trkpt lat="42.79294" lon="-0.17422">
        <ele>2400.4169921875</ele>
        <time>2014-03-14T12:01:20Z</time>
      </trkpt>
      <trkpt lat="42.79294" lon="-0.17418">
        <ele>2399.8659667969</ele>
        <time>2014-03-14T12:01:23Z</time>
      </trkpt>
      <trkpt lat="42.79293" lon="-0.17398">
        <ele>2401.8920898438</ele>
        <time>2014-03-14T12:01:38Z</time>
      </trkpt>
      <trkpt lat="42.79303" lon="-0.17376">
        <ele>2405.3959960938</ele>
        <time>2014-03-14T12:02:01Z</time>
      </trkpt>
      <trkpt lat="42.7931" lon="-0.17358">
        <ele>2408.3510742188</ele>
        <time>2014-03-14T12:02:21Z</time>
      </trkpt>
      <trkpt lat="42.79315" lon="-0.17342">
        <ele>2410.8579101562</ele>
        <time>2014-03-14T12:02:40Z</time>
      </trkpt>
      <trkpt lat="42.7931" lon="-0.17337">
        <ele>2413.3500976562</ele>
        <time>2014-03-14T12:02:51Z</time>
      </trkpt>
      <trkpt lat="42.79294" lon="-0.17334">
        <ele>2414.9851074219</ele>
        <time>2014-03-14T12:03:09Z</time>
      </trkpt>
      <trkpt lat="42.79281" lon="-0.17342">
        <ele>2417.0930175781</ele>
        <time>2014-03-14T12:03:22Z</time>
      </trkpt>
      <trkpt lat="42.79268" lon="-0.17352">
        <ele>2420.2719726562</ele>
        <time>2014-03-14T12:03:39Z</time>
      </trkpt>
      <trkpt lat="42.79263" lon="-0.17355">
        <ele>2420.58203125</ele>
        <time>2014-03-14T12:03:45Z</time>
      </trkpt>
      <trkpt lat="42.79255" lon="-0.17343">
        <ele>2424.4089355469</ele>
        <time>2014-03-14T12:04:04Z</time>
      </trkpt>
      <trkpt lat="42.79274" lon="-0.17316">
        <ele>2427.1430664062</ele>
        <time>2014-03-14T12:04:24Z</time>
      </trkpt>
      <trkpt lat="42.79273" lon="-0.17299">
        <ele>2430.37890625</ele>
        <time>2014-03-14T12:04:43Z</time>
      </trkpt>
      <trkpt lat="42.79272" lon="-0.17287">
        <ele>2433.4741210938</ele>
        <time>2014-03-14T12:05:04Z</time>
      </trkpt>
      <trkpt lat="42.79256" lon="-0.17299">
        <ele>2436.6669921875</ele>
        <time>2014-03-14T12:05:21Z</time>
      </trkpt>
      <trkpt lat="42.7924" lon="-0.17306">
        <ele>2439.8269042969</ele>
        <time>2014-03-14T12:05:41Z</time>
      </trkpt>
      <trkpt lat="42.79235" lon="-0.17308">
        <ele>2442.3359375</ele>
        <time>2014-03-14T12:05:58Z</time>
      </trkpt>
      <trkpt lat="42.79242" lon="-0.17285">
        <ele>2445.4750976562</ele>
        <time>2014-03-14T12:06:19Z</time>
      </trkpt>
      <trkpt lat="42.79239" lon="-0.17282">
        <ele>2447.4790039062</ele>
        <time>2014-03-14T12:06:30Z</time>
      </trkpt>
      <trkpt lat="42.79221" lon="-0.17294">
        <ele>2450.7290039062</ele>
        <time>2014-03-14T12:06:51Z</time>
      </trkpt>
      <trkpt lat="42.79226" lon="-0.17284">
        <ele>2452.9470214844</ele>
        <time>2014-03-14T12:07:08Z</time>
      </trkpt>
      <trkpt lat="42.79223" lon="-0.17278">
        <ele>2455.4990234375</ele>
        <time>2014-03-14T12:07:26Z</time>
      </trkpt>
      <trkpt lat="42.79229" lon="-0.17255">
        <ele>2458.6149902344</ele>
        <time>2014-03-14T12:07:47Z</time>
      </trkpt>
      <trkpt lat="42.79224" lon="-0.17257">
        <ele>2460.4909667969</ele>
        <time>2014-03-14T12:08:01Z</time>
      </trkpt>
      <trkpt lat="42.79212" lon="-0.17265">
        <ele>2463.7600097656</ele>
        <time>2014-03-14T12:08:21Z</time>
      </trkpt>
      <trkpt lat="42.79203" lon="-0.17262">
        <ele>2466.7858886719</ele>
        <time>2014-03-14T12:08:44Z</time>
      </trkpt>
      <trkpt lat="42.79202" lon="-0.17249">
        <ele>2469.7099609375</ele>
        <time>2014-03-14T12:09:04Z</time>
      </trkpt>
      <trkpt lat="42.79191" lon="-0.1726">
        <ele>2472.958984375</ele>
        <time>2014-03-14T12:09:22Z</time>
      </trkpt>
      <trkpt lat="42.79182" lon="-0.17272">
        <ele>2476.1201171875</ele>
        <time>2014-03-14T12:09:42Z</time>
      </trkpt>
      <trkpt lat="42.79177" lon="-0.17269">
        <ele>2478.5739746094</ele>
        <time>2014-03-14T12:10:04Z</time>
      </trkpt>
      <trkpt lat="42.79172" lon="-0.1725">
        <ele>2481.9699707031</ele>
        <time>2014-03-14T12:10:24Z</time>
      </trkpt>
      <trkpt lat="42.79166" lon="-0.17241">
        <ele>2484.75390625</ele>
        <time>2014-03-14T12:10:43Z</time>
      </trkpt>
      <trkpt lat="42.79163" lon="-0.17227">
        <ele>2488.3940429688</ele>
        <time>2014-03-14T12:11:01Z</time>
      </trkpt>
      <trkpt lat="42.7916" lon="-0.17203">
        <ele>2491.7370605469</ele>
        <time>2014-03-14T12:11:24Z</time>
      </trkpt>
      <trkpt lat="42.7916" lon="-0.17185">
        <ele>2493.8869628906</ele>
        <time>2014-03-14T12:11:42Z</time>
      </trkpt>
      <trkpt lat="42.79157" lon="-0.17176">
        <ele>2495.2390136719</ele>
        <time>2014-03-14T12:12:01Z</time>
      </trkpt>
      <trkpt lat="42.79155" lon="-0.17174">
        <ele>2496.8588867188</ele>
        <time>2014-03-14T12:12:20Z</time>
      </trkpt>
      <trkpt lat="42.79145" lon="-0.17191">
        <ele>2499.9509277344</ele>
        <time>2014-03-14T12:12:41Z</time>
      </trkpt>
      <trkpt lat="42.79135" lon="-0.17206">
        <ele>2502.9990234375</ele>
        <time>2014-03-14T12:13:02Z</time>
      </trkpt>
      <trkpt lat="42.79127" lon="-0.17219">
        <ele>2506.0170898438</ele>
        <time>2014-03-14T12:13:25Z</time>
      </trkpt>
      <trkpt lat="42.79127" lon="-0.17205">
        <ele>2508.2189941406</ele>
        <time>2014-03-14T12:13:43Z</time>
      </trkpt>
      <trkpt lat="42.79122" lon="-0.17191">
        <ele>2510.7839355469</ele>
        <time>2014-03-14T12:14:01Z</time>
      </trkpt>
      <trkpt lat="42.7911" lon="-0.17199">
        <ele>2513.87890625</ele>
        <time>2014-03-14T12:14:20Z</time>
      </trkpt>
      <trkpt lat="42.79098" lon="-0.17212">
        <ele>2516.9870605469</ele>
        <time>2014-03-14T12:14:44Z</time>
      </trkpt>
      <trkpt lat="42.79084" lon="-0.17229">
        <ele>2520.3701171875</ele>
        <time>2014-03-14T12:15:11Z</time>
      </trkpt>
      <trkpt lat="42.79076" lon="-0.17245">
        <ele>2523.6689453125</ele>
        <time>2014-03-14T12:15:36Z</time>
      </trkpt>
      <trkpt lat="42.7907" lon="-0.17243">
        <ele>2525.6088867188</ele>
        <time>2014-03-14T12:15:57Z</time>
      </trkpt>
      <trkpt lat="42.7906" lon="-0.17236">
        <ele>2527.62890625</ele>
        <time>2014-03-14T12:16:21Z</time>
      </trkpt>
      <trkpt lat="42.79042" lon="-0.17239">
        <ele>2530.2990722656</ele>
        <time>2014-03-14T12:16:47Z</time>
      </trkpt>
      <trkpt lat="42.79018" lon="-0.17247">
        <ele>2531.9580078125</ele>
        <time>2014-03-14T12:17:10Z</time>
      </trkpt>
      <trkpt lat="42.78989" lon="-0.1726">
        <ele>2530.7080078125</ele>
        <time>2014-03-14T12:17:36Z</time>
      </trkpt>
      <trkpt lat="42.78975" lon="-0.17262">
        <ele>2531.0490722656</ele>
        <time>2014-03-14T12:17:56Z</time>
      </trkpt>
      <trkpt lat="42.78956" lon="-0.17268">
        <ele>2532.6750488281</ele>
        <time>2014-03-14T12:18:22Z</time>
      </trkpt>
      <trkpt lat="42.78941" lon="-0.17276">
        <ele>2533.0209960938</ele>
        <time>2014-03-14T12:18:45Z</time>
      </trkpt>
      <trkpt lat="42.78929" lon="-0.17279">
        <ele>2532.6669921875</ele>
        <time>2014-03-14T12:19:04Z</time>
      </trkpt>
      <trkpt lat="42.78913" lon="-0.17278">
        <ele>2532.7290039062</ele>
        <time>2014-03-14T12:19:29Z</time>
      </trkpt>
      <trkpt lat="42.78891" lon="-0.1729">
        <ele>2530.2971191406</ele>
        <time>2014-03-14T12:19:57Z</time>
      </trkpt>
      <trkpt lat="42.78889" lon="-0.17291">
        <ele>2530.5209960938</ele>
        <time>2014-03-14T12:20:12Z</time>
      </trkpt>
      <trkpt lat="42.7889" lon="-0.17299">
        <ele>2529.6708984375</ele>
        <time>2014-03-14T12:20:37Z</time>
      </trkpt>
      <trkpt lat="42.78881" lon="-0.17302">
        <ele>2531.4919433594</ele>
        <time>2014-03-14T12:21:05Z</time>
      </trkpt>
      <trkpt lat="42.78864" lon="-0.17294">
        <ele>2533.54296875</ele>
        <time>2014-03-14T12:21:25Z</time>
      </trkpt>
      <trkpt lat="42.78855" lon="-0.1729">
        <ele>2533.376953125</ele>
        <time>2014-03-14T12:21:39Z</time>
      </trkpt>
      <trkpt lat="42.78852" lon="-0.17291">
        <ele>2529.7810058594</ele>
        <time>2014-03-14T12:38:34Z</time>
      </trkpt>
      <trkpt lat="42.78852" lon="-0.17292">
        <ele>2529.3391113281</ele>
        <time>2014-03-14T12:38:35Z</time>
      </trkpt>
      <trkpt lat="42.78851" lon="-0.17291">
        <ele>2526.2709960938</ele>
        <time>2014-03-14T12:38:58Z</time>
      </trkpt>
      <trkpt lat="42.78851" lon="-0.17289">
        <ele>2524.2470703125</ele>
        <time>2014-03-14T12:39:07Z</time>
      </trkpt>
      <trkpt lat="42.7885" lon="-0.17267">
        <ele>2520.4870605469</ele>
        <time>2014-03-14T12:39:14Z</time>
      </trkpt>
      <trkpt lat="42.78851" lon="-0.17262">
        <ele>2520.3039550781</ele>
        <time>2014-03-14T12:39:15Z</time>
      </trkpt>
      <trkpt lat="42.78851" lon="-0.17247">
        <ele>2518.3540039062</ele>
        <time>2014-03-14T12:39:18Z</time>
      </trkpt>
      <trkpt lat="42.78848" lon="-0.17246">
        <ele>2516.7939453125</ele>
        <time>2014-03-14T12:39:20Z</time>
      </trkpt>
      <trkpt lat="42.78843" lon="-0.1725">
        <ele>2515.3059082031</ele>
        <time>2014-03-14T12:39:22Z</time>
      </trkpt>
      <trkpt lat="42.78836" lon="-0.17257">
        <ele>2513.0458984375</ele>
        <time>2014-03-14T12:39:25Z</time>
      </trkpt>
      <trkpt lat="42.78826" lon="-0.17249">
        <ele>2511.3349609375</ele>
        <time>2014-03-14T12:39:29Z</time>
      </trkpt>
      <trkpt lat="42.78821" lon="-0.17244">
        <ele>2507.04296875</ele>
        <time>2014-03-14T12:39:31Z</time>
      </trkpt>
      <trkpt lat="42.7882" lon="-0.17239">
        <ele>2507.04296875</ele>
        <time>2014-03-14T12:39:32Z</time>
      </trkpt>
      <trkpt lat="42.7882" lon="-0.17234">
        <ele>2503.6721191406</ele>
        <time>2014-03-14T12:39:33Z</time>
      </trkpt>
      <trkpt lat="42.78815" lon="-0.17234">
        <ele>2503.6708984375</ele>
        <time>2014-03-14T12:39:34Z</time>
      </trkpt>
      <trkpt lat="42.78806" lon="-0.17235">
        <ele>2501.5229492188</ele>
        <time>2014-03-14T12:39:36Z</time>
      </trkpt>
      <trkpt lat="42.78805" lon="-0.17225">
        <ele>2498.2160644531</ele>
        <time>2014-03-14T12:39:38Z</time>
      </trkpt>
      <trkpt lat="42.78798" lon="-0.17219">
        <ele>2495.9431152344</ele>
        <time>2014-03-14T12:39:41Z</time>
      </trkpt>
      <trkpt lat="42.78797" lon="-0.17221">
        <ele>2494.1979980469</ele>
        <time>2014-03-14T12:39:43Z</time>
      </trkpt>
      <trkpt lat="42.78795" lon="-0.17222">
        <ele>2494.2409667969</ele>
        <time>2014-03-14T12:39:54Z</time>
      </trkpt>
      <trkpt lat="42.78789" lon="-0.17214">
        <ele>2491.8220214844</ele>
        <time>2014-03-14T12:39:58Z</time>
      </trkpt>
      <trkpt lat="42.78779" lon="-0.17215">
        <ele>2487.419921875</ele>
        <time>2014-03-14T12:40:01Z</time>
      </trkpt>
      <trkpt lat="42.78777" lon="-0.17214">
        <ele>2487.4208984375</ele>
        <time>2014-03-14T12:40:02Z</time>
      </trkpt>
      <trkpt lat="42.78774" lon="-0.17206">
        <ele>2485.1860351562</ele>
        <time>2014-03-14T12:40:04Z</time>
      </trkpt>
      <trkpt lat="42.78767" lon="-0.17208">
        <ele>2481.9970703125</ele>
        <time>2014-03-14T12:40:06Z</time>
      </trkpt>
      <trkpt lat="42.78761" lon="-0.17202">
        <ele>2476.2438964844</ele>
        <time>2014-03-14T12:40:08Z</time>
      </trkpt>
      <trkpt lat="42.78759" lon="-0.17196">
        <ele>2476.24609375</ele>
        <time>2014-03-14T12:40:09Z</time>
      </trkpt>
      <trkpt lat="42.78747" lon="-0.17202">
        <ele>2471.7438964844</ele>
        <time>2014-03-14T12:40:11Z</time>
      </trkpt>
      <trkpt lat="42.78742" lon="-0.17206">
        <ele>2467.5668945312</ele>
        <time>2014-03-14T12:40:12Z</time>
      </trkpt>
      <trkpt lat="42.78727" lon="-0.1719">
        <ele>2460.2429199219</ele>
        <time>2014-03-14T12:40:15Z</time>
      </trkpt>
      <trkpt lat="42.78721" lon="-0.17187">
        <ele>2460.2451171875</ele>
        <time>2014-03-14T12:40:16Z</time>
      </trkpt>
      <trkpt lat="42.78713" lon="-0.17185">
        <ele>2455.5959472656</ele>
        <time>2014-03-14T12:40:17Z</time>
      </trkpt>
      <trkpt lat="42.78704" lon="-0.17184">
        <ele>2455.5991210938</ele>
        <time>2014-03-14T12:40:18Z</time>
      </trkpt>
      <trkpt lat="42.7869" lon="-0.17163">
        <ele>2451.3491210938</ele>
        <time>2014-03-14T12:40:21Z</time>
      </trkpt>
      <trkpt lat="42.78686" lon="-0.17156">
        <ele>2448.12890625</ele>
        <time>2014-03-14T12:40:22Z</time>
      </trkpt>
      <trkpt lat="42.78683" lon="-0.17149">
        <ele>2448.1330566406</ele>
        <time>2014-03-14T12:40:23Z</time>
      </trkpt>
      <trkpt lat="42.78671" lon="-0.17123">
        <ele>2438.2990722656</ele>
        <time>2014-03-14T12:40:26Z</time>
      </trkpt>
      <trkpt lat="42.78669" lon="-0.17112">
        <ele>2438.3020019531</ele>
        <time>2014-03-14T12:40:27Z</time>
      </trkpt>
      <trkpt lat="42.78666" lon="-0.17103">
        <ele>2433.3720703125</ele>
        <time>2014-03-14T12:40:28Z</time>
      </trkpt>
      <trkpt lat="42.78661" lon="-0.17097">
        <ele>2433.3740234375</ele>
        <time>2014-03-14T12:40:29Z</time>
      </trkpt>
      <trkpt lat="42.78658" lon="-0.17089">
        <ele>2430.2590332031</ele>
        <time>2014-03-14T12:40:30Z</time>
      </trkpt>
      <trkpt lat="42.78658" lon="-0.1708">
        <ele>2427.2319335938</ele>
        <time>2014-03-14T12:40:31Z</time>
      </trkpt>
      <trkpt lat="42.78659" lon="-0.17071">
        <ele>2427.2351074219</ele>
        <time>2014-03-14T12:40:32Z</time>
      </trkpt>
      <trkpt lat="42.78664" lon="-0.17052">
        <ele>2423.8090820312</ele>
        <time>2014-03-14T12:40:34Z</time>
      </trkpt>
      <trkpt lat="42.78666" lon="-0.17033">
        <ele>2420.7009277344</ele>
        <time>2014-03-14T12:40:36Z</time>
      </trkpt>
      <trkpt lat="42.78666" lon="-0.17031">
        <ele>2420.7680664062</ele>
        <time>2014-03-14T12:40:41Z</time>
      </trkpt>
      <trkpt lat="42.78666" lon="-0.17032">
        <ele>2420.6369628906</ele>
        <time>2014-03-14T12:41:45Z</time>
      </trkpt>
      <trkpt lat="42.78662" lon="-0.17031">
        <ele>2419.2270507812</ele>
        <time>2014-03-14T12:41:48Z</time>
      </trkpt>
      <trkpt lat="42.78653" lon="-0.17039">
        <ele>2414.6520996094</ele>
        <time>2014-03-14T12:41:50Z</time>
      </trkpt>
      <trkpt lat="42.7864" lon="-0.17049">
        <ele>2413.3291015625</ele>
        <time>2014-03-14T12:41:53Z</time>
      </trkpt>
      <trkpt lat="42.78633" lon="-0.17054">
        <ele>2412.8269042969</ele>
        <time>2014-03-14T12:41:55Z</time>
      </trkpt>
      <trkpt lat="42.78629" lon="-0.17041">
        <ele>2408.3911132812</ele>
        <time>2014-03-14T12:41:59Z</time>
      </trkpt>
      <trkpt lat="42.78632" lon="-0.17036">
        <ele>2408.3898925781</ele>
        <time>2014-03-14T12:42:00Z</time>
      </trkpt>
      <trkpt lat="42.78636" lon="-0.17023">
        <ele>2405.9299316406</ele>
        <time>2014-03-14T12:42:02Z</time>
      </trkpt>
      <trkpt lat="42.78638" lon="-0.17005">
        <ele>2404.6040039062</ele>
        <time>2014-03-14T12:42:04Z</time>
      </trkpt>
      <trkpt lat="42.78637" lon="-0.16995">
        <ele>2401.0900878906</ele>
        <time>2014-03-14T12:42:05Z</time>
      </trkpt>
      <trkpt lat="42.78637" lon="-0.16979">
        <ele>2398.2819824219</ele>
        <time>2014-03-14T12:42:07Z</time>
      </trkpt>
      <trkpt lat="42.78635" lon="-0.16958">
        <ele>2396.4528808594</ele>
        <time>2014-03-14T12:42:11Z</time>
      </trkpt>
      <trkpt lat="42.78634" lon="-0.16947">
        <ele>2394.1799316406</ele>
        <time>2014-03-14T12:42:14Z</time>
      </trkpt>
      <trkpt lat="42.78634" lon="-0.16943">
        <ele>2392.998046875</ele>
        <time>2014-03-14T12:42:15Z</time>
      </trkpt>
      <trkpt lat="42.78627" lon="-0.16948">
        <ele>2388.7709960938</ele>
        <time>2014-03-14T12:42:17Z</time>
      </trkpt>
      <trkpt lat="42.78621" lon="-0.16944">
        <ele>2384.7209472656</ele>
        <time>2014-03-14T12:42:19Z</time>
      </trkpt>
      <trkpt lat="42.7862" lon="-0.16936">
        <ele>2379.6088867188</ele>
        <time>2014-03-14T12:42:20Z</time>
      </trkpt>
      <trkpt lat="42.78618" lon="-0.16929">
        <ele>2379.6120605469</ele>
        <time>2014-03-14T12:42:21Z</time>
      </trkpt>
      <trkpt lat="42.78616" lon="-0.16923">
        <ele>2377.8830566406</ele>
        <time>2014-03-14T12:42:22Z</time>
      </trkpt>
      <trkpt lat="42.78614" lon="-0.16904">
        <ele>2375.9909667969</ele>
        <time>2014-03-14T12:42:25Z</time>
      </trkpt>
      <trkpt lat="42.78613" lon="-0.16899">
        <ele>2374.5791015625</ele>
        <time>2014-03-14T12:42:26Z</time>
      </trkpt>
      <trkpt lat="42.78601" lon="-0.16906">
        <ele>2370.4069824219</ele>
        <time>2014-03-14T12:42:28Z</time>
      </trkpt>
      <trkpt lat="42.78596" lon="-0.16912">
        <ele>2366.6259765625</ele>
        <time>2014-03-14T12:42:29Z</time>
      </trkpt>
      <trkpt lat="42.78592" lon="-0.16912">
        <ele>2366.6298828125</ele>
        <time>2014-03-14T12:42:30Z</time>
      </trkpt>
      <trkpt lat="42.78588" lon="-0.16908">
        <ele>2362.5510253906</ele>
        <time>2014-03-14T12:42:31Z</time>
      </trkpt>
      <trkpt lat="42.78584" lon="-0.16907">
        <ele>2362.5549316406</ele>
        <time>2014-03-14T12:42:32Z</time>
      </trkpt>
      <trkpt lat="42.78578" lon="-0.16909">
        <ele>2356.6540527344</ele>
        <time>2014-03-14T12:42:33Z</time>
      </trkpt>
      <trkpt lat="42.78574" lon="-0.16906">
        <ele>2351.8459472656</ele>
        <time>2014-03-14T12:42:34Z</time>
      </trkpt>
      <trkpt lat="42.7857" lon="-0.16898">
        <ele>2351.8510742188</ele>
        <time>2014-03-14T12:42:35Z</time>
      </trkpt>
      <trkpt lat="42.78557" lon="-0.16887">
        <ele>2343.0310058594</ele>
        <time>2014-03-14T12:42:38Z</time>
      </trkpt>
      <trkpt lat="42.78548" lon="-0.16885">
        <ele>2343.0319824219</ele>
        <time>2014-03-14T12:42:39Z</time>
      </trkpt>
      <trkpt lat="42.78542" lon="-0.16878">
        <ele>2337.6420898438</ele>
        <time>2014-03-14T12:42:40Z</time>
      </trkpt>
      <trkpt lat="42.78539" lon="-0.16869">
        <ele>2337.6440429688</ele>
        <time>2014-03-14T12:42:41Z</time>
      </trkpt>
      <trkpt lat="42.7854" lon="-0.16859">
        <ele>2333.2189941406</ele>
        <time>2014-03-14T12:42:42Z</time>
      </trkpt>
      <trkpt lat="42.78527" lon="-0.16833">
        <ele>2326.7080078125</ele>
        <time>2014-03-14T12:42:45Z</time>
      </trkpt>
      <trkpt lat="42.7852" lon="-0.16809">
        <ele>2321.0610351562</ele>
        <time>2014-03-14T12:42:47Z</time>
      </trkpt>
      <trkpt lat="42.78521" lon="-0.16795">
        <ele>2321.0620117188</ele>
        <time>2014-03-14T12:42:48Z</time>
      </trkpt>
      <trkpt lat="42.78523" lon="-0.16782">
        <ele>2317.8049316406</ele>
        <time>2014-03-14T12:42:49Z</time>
      </trkpt>
      <trkpt lat="42.78526" lon="-0.16772">
        <ele>2318.4619140625</ele>
        <time>2014-03-14T12:42:50Z</time>
      </trkpt>
      <trkpt lat="42.78528" lon="-0.16763">
        <ele>2318.4650878906</ele>
        <time>2014-03-14T12:42:51Z</time>
      </trkpt>
      <trkpt lat="42.78541" lon="-0.16739">
        <ele>2321.1000976562</ele>
        <time>2014-03-14T12:43:00Z</time>
      </trkpt>
      <trkpt lat="42.78569" lon="-0.16738">
        <ele>2321.1799316406</ele>
        <time>2014-03-14T12:54:16Z</time>
      </trkpt>
      <trkpt lat="42.78573" lon="-0.16735">
        <ele>2325.3579101562</ele>
        <time>2014-03-14T12:54:21Z</time>
      </trkpt>
      <trkpt lat="42.78574" lon="-0.16734">
        <ele>2319.6550292969</ele>
        <time>2014-03-14T12:54:22Z</time>
      </trkpt>
      <trkpt lat="42.78576" lon="-0.16734">
        <ele>2319.6340332031</ele>
        <time>2014-03-14T12:54:23Z</time>
      </trkpt>
      <trkpt lat="42.78585" lon="-0.16731">
        <ele>2320.8898925781</ele>
        <time>2014-03-14T12:54:36Z</time>
      </trkpt>
      <trkpt lat="42.78597" lon="-0.16719">
        <ele>2321.6450195312</ele>
        <time>2014-03-14T12:54:52Z</time>
      </trkpt>
      <trkpt lat="42.78604" lon="-0.16709">
        <ele>2323.330078125</ele>
        <time>2014-03-14T12:55:07Z</time>
      </trkpt>
      <trkpt lat="42.78608" lon="-0.16697">
        <ele>2323.9020996094</ele>
        <time>2014-03-14T12:55:19Z</time>
      </trkpt>
      <trkpt lat="42.78616" lon="-0.16683">
        <ele>2325.3830566406</ele>
        <time>2014-03-14T12:55:37Z</time>
      </trkpt>
      <trkpt lat="42.78624" lon="-0.16665">
        <ele>2326.2561035156</ele>
        <time>2014-03-14T12:55:56Z</time>
      </trkpt>
      <trkpt lat="42.78635" lon="-0.16654">
        <ele>2327.7370605469</ele>
        <time>2014-03-14T12:56:18Z</time>
      </trkpt>
      <trkpt lat="42.78645" lon="-0.16638">
        <ele>2330.0180664062</ele>
        <time>2014-03-14T12:56:38Z</time>
      </trkpt>
      <trkpt lat="42.78649" lon="-0.1662">
        <ele>2331.4909667969</ele>
        <time>2014-03-14T12:56:55Z</time>
      </trkpt>
      <trkpt lat="42.78656" lon="-0.16602">
        <ele>2333.5659179688</ele>
        <time>2014-03-14T12:57:17Z</time>
      </trkpt>
      <trkpt lat="42.78659" lon="-0.16577">
        <ele>2335.5109863281</ele>
        <time>2014-03-14T12:57:42Z</time>
      </trkpt>
      <trkpt lat="42.78664" lon="-0.16555">
        <ele>2337.8068847656</ele>
        <time>2014-03-14T12:58:06Z</time>
      </trkpt>
      <trkpt lat="42.7867" lon="-0.16542">
        <ele>2339.9619140625</ele>
        <time>2014-03-14T12:58:22Z</time>
      </trkpt>
      <trkpt lat="42.78685" lon="-0.16538">
        <ele>2341.7648925781</ele>
        <time>2014-03-14T12:58:40Z</time>
      </trkpt>
      <trkpt lat="42.78701" lon="-0.16516">
        <ele>2343</ele>
        <time>2014-03-14T12:59:05Z</time>
      </trkpt>
      <trkpt lat="42.78719" lon="-0.16494">
        <ele>2342.1188964844</ele>
        <time>2014-03-14T12:59:30Z</time>
      </trkpt>
      <trkpt lat="42.7874" lon="-0.16474">
        <ele>2341.5510253906</ele>
        <time>2014-03-14T12:59:56Z</time>
      </trkpt>
      <trkpt lat="42.78743" lon="-0.16473">
        <ele>2342.0759277344</ele>
        <time>2014-03-14T12:59:59Z</time>
      </trkpt>
      <trkpt lat="42.78757" lon="-0.16454">
        <ele>2343.5959472656</ele>
        <time>2014-03-14T13:00:19Z</time>
      </trkpt>
      <trkpt lat="42.78764" lon="-0.16436">
        <ele>2344.2351074219</ele>
        <time>2014-03-14T13:00:36Z</time>
      </trkpt>
      <trkpt lat="42.78781" lon="-0.16416">
        <ele>2344.4580078125</ele>
        <time>2014-03-14T13:00:57Z</time>
      </trkpt>
      <trkpt lat="42.78791" lon="-0.16406">
        <ele>2343.4079589844</ele>
        <time>2014-03-14T13:01:07Z</time>
      </trkpt>
      <trkpt lat="42.78799" lon="-0.16377">
        <ele>2340.1540527344</ele>
        <time>2014-03-14T13:01:22Z</time>
      </trkpt>
      <trkpt lat="42.78804" lon="-0.1635">
        <ele>2340.5959472656</ele>
        <time>2014-03-14T13:01:42Z</time>
      </trkpt>
      <trkpt lat="42.78806" lon="-0.16336">
        <ele>2342.0900878906</ele>
        <time>2014-03-14T13:01:56Z</time>
      </trkpt>
      <trkpt lat="42.78804" lon="-0.16315">
        <ele>2343.3349609375</ele>
        <time>2014-03-14T13:02:15Z</time>
      </trkpt>
      <trkpt lat="42.78804" lon="-0.16312">
        <ele>2343.5539550781</ele>
        <time>2014-03-14T13:02:17Z</time>
      </trkpt>
      <trkpt lat="42.78798" lon="-0.1628">
        <ele>2345.0830078125</ele>
        <time>2014-03-14T13:02:43Z</time>
      </trkpt>
      <trkpt lat="42.78798" lon="-0.1626">
        <ele>2346.8090820312</ele>
        <time>2014-03-14T13:03:08Z</time>
      </trkpt>
      <trkpt lat="42.78799" lon="-0.1626">
        <ele>2346.4689941406</ele>
        <time>2014-03-14T13:03:51Z</time>
      </trkpt>
      <trkpt lat="42.78802" lon="-0.16252">
        <ele>2347.7380371094</ele>
        <time>2014-03-14T13:05:53Z</time>
      </trkpt>
      <trkpt lat="42.78819" lon="-0.16221">
        <ele>2345.3840332031</ele>
        <time>2014-03-14T13:06:14Z</time>
      </trkpt>
      <trkpt lat="42.78827" lon="-0.16208">
        <ele>2346.337890625</ele>
        <time>2014-03-14T13:06:29Z</time>
      </trkpt>
      <trkpt lat="42.78831" lon="-0.16194">
        <ele>2347.412109375</ele>
        <time>2014-03-14T13:06:43Z</time>
      </trkpt>
      <trkpt lat="42.78838" lon="-0.16172">
        <ele>2349.6340332031</ele>
        <time>2014-03-14T13:07:06Z</time>
      </trkpt>
      <trkpt lat="42.78841" lon="-0.16156">
        <ele>2351.4609375</ele>
        <time>2014-03-14T13:07:25Z</time>
      </trkpt>
      <trkpt lat="42.78842" lon="-0.16145">
        <ele>2352.6899414062</ele>
        <time>2014-03-14T13:07:37Z</time>
      </trkpt>
      <trkpt lat="42.78848" lon="-0.16131">
        <ele>2355.1999511719</ele>
        <time>2014-03-14T13:07:56Z</time>
      </trkpt>
      <trkpt lat="42.78856" lon="-0.16122">
        <ele>2356.95703125</ele>
        <time>2014-03-14T13:08:11Z</time>
      </trkpt>
      <trkpt lat="42.78864" lon="-0.16107">
        <ele>2359.2709960938</ele>
        <time>2014-03-14T13:08:27Z</time>
      </trkpt>
      <trkpt lat="42.7887" lon="-0.16095">
        <ele>2360.4899902344</ele>
        <time>2014-03-14T13:08:40Z</time>
      </trkpt>
      <trkpt lat="42.7888" lon="-0.16089">
        <ele>2362.0559082031</ele>
        <time>2014-03-14T13:08:57Z</time>
      </trkpt>
      <trkpt lat="42.78894" lon="-0.16091">
        <ele>2363.7561035156</ele>
        <time>2014-03-14T13:09:14Z</time>
      </trkpt>
      <trkpt lat="42.78908" lon="-0.16096">
        <ele>2366.6120605469</ele>
        <time>2014-03-14T13:09:34Z</time>
      </trkpt>
      <trkpt lat="42.7892" lon="-0.16093">
        <ele>2369.9309082031</ele>
        <time>2014-03-14T13:09:52Z</time>
      </trkpt>
      <trkpt lat="42.78929" lon="-0.16096">
        <ele>2372.29296875</ele>
        <time>2014-03-14T13:10:09Z</time>
      </trkpt>
      <trkpt lat="42.78928" lon="-0.16084">
        <ele>2374.6340332031</ele>
        <time>2014-03-14T13:10:26Z</time>
      </trkpt>
      <trkpt lat="42.78927" lon="-0.1606">
        <ele>2377.3129882812</ele>
        <time>2014-03-14T13:10:52Z</time>
      </trkpt>
      <trkpt lat="42.78938" lon="-0.16066">
        <ele>2379.8129882812</ele>
        <time>2014-03-14T13:11:09Z</time>
      </trkpt>
      <trkpt lat="42.78948" lon="-0.16068">
        <ele>2382.7219238281</ele>
        <time>2014-03-14T13:11:26Z</time>
      </trkpt>
      <trkpt lat="42.78948" lon="-0.16053">
        <ele>2385.3410644531</ele>
        <time>2014-03-14T13:11:44Z</time>
      </trkpt>
      <trkpt lat="42.78949" lon="-0.16038">
        <ele>2388.5109863281</ele>
        <time>2014-03-14T13:12:04Z</time>
      </trkpt>
      <trkpt lat="42.78959" lon="-0.16045">
        <ele>2390.7700195312</ele>
        <time>2014-03-14T13:12:21Z</time>
      </trkpt>
      <trkpt lat="42.78962" lon="-0.16033">
        <ele>2393.1840820312</ele>
        <time>2014-03-14T13:12:36Z</time>
      </trkpt>
      <trkpt lat="42.78968" lon="-0.16022">
        <ele>2396.1450195312</ele>
        <time>2014-03-14T13:12:57Z</time>
      </trkpt>
      <trkpt lat="42.78981" lon="-0.16033">
        <ele>2398.5200195312</ele>
        <time>2014-03-14T13:13:14Z</time>
      </trkpt>
      <trkpt lat="42.78984" lon="-0.16031">
        <ele>2400.8759765625</ele>
        <time>2014-03-14T13:13:29Z</time>
      </trkpt>
      <trkpt lat="42.78987" lon="-0.16019">
        <ele>2402.5759277344</ele>
        <time>2014-03-14T13:13:42Z</time>
      </trkpt>
      <trkpt lat="42.78988" lon="-0.16005">
        <ele>2404.0700683594</ele>
        <time>2014-03-14T13:13:56Z</time>
      </trkpt>
      <trkpt lat="42.78988" lon="-0.15996">
        <ele>2406.08203125</ele>
        <time>2014-03-14T13:14:07Z</time>
      </trkpt>
      <trkpt lat="42.78992" lon="-0.15997">
        <ele>2407.3239746094</ele>
        <time>2014-03-14T13:14:15Z</time>
      </trkpt>
      <trkpt lat="42.78999" lon="-0.16003">
        <ele>2408.5229492188</ele>
        <time>2014-03-14T13:14:27Z</time>
      </trkpt>
      <trkpt lat="42.79005" lon="-0.15999">
        <ele>2411.0969238281</ele>
        <time>2014-03-14T13:14:39Z</time>
      </trkpt>
      <trkpt lat="42.79008" lon="-0.15982">
        <ele>2412.5690917969</ele>
        <time>2014-03-14T13:14:56Z</time>
      </trkpt>
      <trkpt lat="42.79007" lon="-0.1597">
        <ele>2415.5969238281</ele>
        <time>2014-03-14T13:15:11Z</time>
      </trkpt>
      <trkpt lat="42.79008" lon="-0.15964">
        <ele>2416.8430175781</ele>
        <time>2014-03-14T13:15:23Z</time>
      </trkpt>
      <trkpt lat="42.79021" lon="-0.15962">
        <ele>2419.3540039062</ele>
        <time>2014-03-14T13:15:40Z</time>
      </trkpt>
      <trkpt lat="42.79029" lon="-0.15958">
        <ele>2421.501953125</ele>
        <time>2014-03-14T13:15:56Z</time>
      </trkpt>
      <trkpt lat="42.79026" lon="-0.15943">
        <ele>2424.2971191406</ele>
        <time>2014-03-14T13:16:14Z</time>
      </trkpt>
      <trkpt lat="42.79024" lon="-0.15936">
        <ele>2425.1850585938</ele>
        <time>2014-03-14T13:16:21Z</time>
      </trkpt>
      <trkpt lat="42.79017" lon="-0.15925">
        <ele>2427.7309570312</ele>
        <time>2014-03-14T13:16:38Z</time>
      </trkpt>
      <trkpt lat="42.79025" lon="-0.15922">
        <ele>2429.37109375</ele>
        <time>2014-03-14T13:16:50Z</time>
      </trkpt>
      <trkpt lat="42.79041" lon="-0.15919">
        <ele>2432.6520996094</ele>
        <time>2014-03-14T13:17:12Z</time>
      </trkpt>
      <trkpt lat="42.79053" lon="-0.15912">
        <ele>2435.169921875</ele>
        <time>2014-03-14T13:17:30Z</time>
      </trkpt>
      <trkpt lat="42.79053" lon="-0.15904">
        <ele>2436.8669433594</ele>
        <time>2014-03-14T13:17:43Z</time>
      </trkpt>
      <trkpt lat="42.79045" lon="-0.15893">
        <ele>2439.5991210938</ele>
        <time>2014-03-14T13:18:02Z</time>
      </trkpt>
      <trkpt lat="42.79032" lon="-0.15882">
        <ele>2442.8369140625</ele>
        <time>2014-03-14T13:18:21Z</time>
      </trkpt>
      <trkpt lat="42.79034" lon="-0.15875">
        <ele>2444.9099121094</ele>
        <time>2014-03-14T13:18:40Z</time>
      </trkpt>
      <trkpt lat="42.79048" lon="-0.15871">
        <ele>2447.7180175781</ele>
        <time>2014-03-14T13:19:00Z</time>
      </trkpt>
      <trkpt lat="42.79052" lon="-0.1587">
        <ele>2449.1110839844</ele>
        <time>2014-03-14T13:19:08Z</time>
      </trkpt>
      <trkpt lat="42.79054" lon="-0.15866">
        <ele>2451.0380859375</ele>
        <time>2014-03-14T13:19:22Z</time>
      </trkpt>
      <trkpt lat="42.79044" lon="-0.15857">
        <ele>2454.5239257812</ele>
        <time>2014-03-14T13:19:40Z</time>
      </trkpt>
      <trkpt lat="42.79033" lon="-0.15845">
        <ele>2457.1459960938</ele>
        <time>2014-03-14T13:20:02Z</time>
      </trkpt>
      <trkpt lat="42.79032" lon="-0.1584">
        <ele>2459.6530761719</ele>
        <time>2014-03-14T13:20:16Z</time>
      </trkpt>
      <trkpt lat="42.79044" lon="-0.15835">
        <ele>2462.8969726562</ele>
        <time>2014-03-14T13:20:35Z</time>
      </trkpt>
      <trkpt lat="42.79054" lon="-0.1583">
        <ele>2466.1311035156</ele>
        <time>2014-03-14T13:20:52Z</time>
      </trkpt>
      <trkpt lat="42.79049" lon="-0.15824">
        <ele>2467.8439941406</ele>
        <time>2014-03-14T13:21:08Z</time>
      </trkpt>
      <trkpt lat="42.79042" lon="-0.15814">
        <ele>2470.3820800781</ele>
        <time>2014-03-14T13:21:26Z</time>
      </trkpt>
      <trkpt lat="42.79028" lon="-0.15805">
        <ele>2473.5810546875</ele>
        <time>2014-03-14T13:21:49Z</time>
      </trkpt>
      <trkpt lat="42.79018" lon="-0.15801">
        <ele>2476.6550292969</ele>
        <time>2014-03-14T13:22:12Z</time>
      </trkpt>
      <trkpt lat="42.79007" lon="-0.15805">
        <ele>2479.9689941406</ele>
        <time>2014-03-14T13:22:38Z</time>
      </trkpt>
      <trkpt lat="42.79" lon="-0.15802">
        <ele>2483.2639160156</ele>
        <time>2014-03-14T13:23:10Z</time>
      </trkpt>
      <trkpt lat="42.79004" lon="-0.15789">
        <ele>2486.2250976562</ele>
        <time>2014-03-14T13:23:37Z</time>
      </trkpt>
      <trkpt lat="42.78993" lon="-0.15788">
        <ele>2488.9609375</ele>
        <time>2014-03-14T13:23:55Z</time>
      </trkpt>
      <trkpt lat="42.78989" lon="-0.15784">
        <ele>2492.1350097656</ele>
        <time>2014-03-14T13:24:20Z</time>
      </trkpt>
      <trkpt lat="42.78994" lon="-0.15768">
        <ele>2495.458984375</ele>
        <time>2014-03-14T13:24:41Z</time>
      </trkpt>
      <trkpt lat="42.78992" lon="-0.15767">
        <ele>2497.2080078125</ele>
        <time>2014-03-14T13:25:02Z</time>
      </trkpt>
      <trkpt lat="42.7898" lon="-0.15766">
        <ele>2500.2390136719</ele>
        <time>2014-03-14T13:25:23Z</time>
      </trkpt>
      <trkpt lat="42.7897" lon="-0.15766">
        <ele>2502.2189941406</ele>
        <time>2014-03-14T13:25:47Z</time>
      </trkpt>
      <trkpt lat="42.78971" lon="-0.15759">
        <ele>2505.4379882812</ele>
        <time>2014-03-14T13:26:07Z</time>
      </trkpt>
      <trkpt lat="42.7897" lon="-0.15757">
        <ele>2507.0529785156</ele>
        <time>2014-03-14T13:26:28Z</time>
      </trkpt>
      <trkpt lat="42.78962" lon="-0.15758">
        <ele>2509.9389648438</ele>
        <time>2014-03-14T13:26:53Z</time>
      </trkpt>
      <trkpt lat="42.78956" lon="-0.15761">
        <ele>2511.6440429688</ele>
        <time>2014-03-14T13:27:11Z</time>
      </trkpt>
      <trkpt lat="42.78957" lon="-0.15751">
        <ele>2513.666015625</ele>
        <time>2014-03-14T13:27:29Z</time>
      </trkpt>
      <trkpt lat="42.78963" lon="-0.1574">
        <ele>2516.7229003906</ele>
        <time>2014-03-14T13:27:57Z</time>
      </trkpt>
      <trkpt lat="42.78957" lon="-0.15742">
        <ele>2518.62890625</ele>
        <time>2014-03-14T13:28:09Z</time>
      </trkpt>
      <trkpt lat="42.78952" lon="-0.15751">
        <ele>2519.3811035156</ele>
        <time>2014-03-14T13:28:23Z</time>
      </trkpt>
      <trkpt lat="42.78951" lon="-0.15748">
        <ele>2521.4780273438</ele>
        <time>2014-03-14T13:28:42Z</time>
      </trkpt>
      <trkpt lat="42.78956" lon="-0.15733">
        <ele>2524.1179199219</ele>
        <time>2014-03-14T13:29:01Z</time>
      </trkpt>
      <trkpt lat="42.78957" lon="-0.15732">
        <ele>2523.62109375</ele>
        <time>2014-03-14T13:29:02Z</time>
      </trkpt>
      <trkpt lat="42.7896" lon="-0.15725">
        <ele>2526.0048828125</ele>
        <time>2014-03-14T13:29:20Z</time>
      </trkpt>
      <trkpt lat="42.78952" lon="-0.15726">
        <ele>2529.0319824219</ele>
        <time>2014-03-14T13:29:37Z</time>
      </trkpt>
      <trkpt lat="42.78942" lon="-0.15718">
        <ele>2532.12890625</ele>
        <time>2014-03-14T13:30:02Z</time>
      </trkpt>
      <trkpt lat="42.78947" lon="-0.15713">
        <ele>2534.3200683594</ele>
        <time>2014-03-14T13:30:24Z</time>
      </trkpt>
      <trkpt lat="42.78945" lon="-0.15714">
        <ele>2534.5830078125</ele>
        <time>2014-03-14T13:30:26Z</time>
      </trkpt>
      <trkpt lat="42.78936" lon="-0.15714">
        <ele>2537.0529785156</ele>
        <time>2014-03-14T13:30:46Z</time>
      </trkpt>
      <trkpt lat="42.7894" lon="-0.15698">
        <ele>2539.4780273438</ele>
        <time>2014-03-14T13:31:09Z</time>
      </trkpt>
      <trkpt lat="42.78946" lon="-0.15695">
        <ele>2542.0700683594</ele>
        <time>2014-03-14T13:31:28Z</time>
      </trkpt>
      <trkpt lat="42.78937" lon="-0.15692">
        <ele>2543.9799804688</ele>
        <time>2014-03-14T13:31:47Z</time>
      </trkpt>
      <trkpt lat="42.78923" lon="-0.15698">
        <ele>2546.2299804688</ele>
        <time>2014-03-14T13:32:12Z</time>
      </trkpt>
      <trkpt lat="42.78917" lon="-0.15689">
        <ele>2547.8110351562</ele>
        <time>2014-03-14T13:32:27Z</time>
      </trkpt>
      <trkpt lat="42.78923" lon="-0.15678">
        <ele>2550.1179199219</ele>
        <time>2014-03-14T13:32:47Z</time>
      </trkpt>
      <trkpt lat="42.78922" lon="-0.15664">
        <ele>2552.3100585938</ele>
        <time>2014-03-14T13:33:03Z</time>
      </trkpt>
      <trkpt lat="42.78912" lon="-0.15662">
        <ele>2553.7229003906</ele>
        <time>2014-03-14T13:33:16Z</time>
      </trkpt>
      <trkpt lat="42.78904" lon="-0.15655">
        <ele>2555.4450683594</ele>
        <time>2014-03-14T13:33:34Z</time>
      </trkpt>
      <trkpt lat="42.78918" lon="-0.15651">
        <ele>2558.0390625</ele>
        <time>2014-03-14T13:33:51Z</time>
      </trkpt>
      <trkpt lat="42.78928" lon="-0.15646">
        <ele>2559.4169921875</ele>
        <time>2014-03-14T13:34:09Z</time>
      </trkpt>
      <trkpt lat="42.78929" lon="-0.15645">
        <ele>2559.6440429688</ele>
        <time>2014-03-14T13:34:11Z</time>
      </trkpt>
      <trkpt lat="42.78923" lon="-0.15635">
        <ele>2561.2060546875</ele>
        <time>2014-03-14T13:34:25Z</time>
      </trkpt>
      <trkpt lat="42.78909" lon="-0.15631">
        <ele>2564.74609375</ele>
        <time>2014-03-14T13:34:45Z</time>
      </trkpt>
      <trkpt lat="42.78913" lon="-0.15622">
        <ele>2566.4350585938</ele>
        <time>2014-03-14T13:35:03Z</time>
      </trkpt>
      <trkpt lat="42.78928" lon="-0.15613">
        <ele>2569.9870605469</ele>
        <time>2014-03-14T13:35:24Z</time>
      </trkpt>
      <trkpt lat="42.78929" lon="-0.15607">
        <ele>2572.2180175781</ele>
        <time>2014-03-14T13:35:43Z</time>
      </trkpt>
      <trkpt lat="42.78927" lon="-0.15604">
        <ele>2572.0070800781</ele>
        <time>2014-03-14T13:35:45Z</time>
      </trkpt>
      <trkpt lat="42.78915" lon="-0.15594">
        <ele>2574.3601074219</ele>
        <time>2014-03-14T13:36:02Z</time>
      </trkpt>
      <trkpt lat="42.78925" lon="-0.15579">
        <ele>2577.4699707031</ele>
        <time>2014-03-14T13:36:25Z</time>
      </trkpt>
      <trkpt lat="42.78928" lon="-0.15579">
        <ele>2578.6840820312</ele>
        <time>2014-03-14T13:36:43Z</time>
      </trkpt>
      <trkpt lat="42.7892" lon="-0.15573">
        <ele>2580.3420410156</ele>
        <time>2014-03-14T13:36:59Z</time>
      </trkpt>
      <trkpt lat="42.78922" lon="-0.15561">
        <ele>2582.7260742188</ele>
        <time>2014-03-14T13:37:20Z</time>
      </trkpt>
      <trkpt lat="42.78924" lon="-0.15563">
        <ele>2582.6389160156</ele>
        <time>2014-03-14T13:37:51Z</time>
      </trkpt>
      <trkpt lat="42.78921" lon="-0.1557">
        <ele>2581.2399902344</ele>
        <time>2014-03-14T14:40:24Z</time>
      </trkpt>
      <trkpt lat="42.78915" lon="-0.15561">
        <ele>2581.2199707031</ele>
        <time>2014-03-14T14:40:28Z</time>
      </trkpt>
      <trkpt lat="42.78916" lon="-0.15545">
        <ele>2579.4150390625</ele>
        <time>2014-03-14T14:40:31Z</time>
      </trkpt>
      <trkpt lat="42.7892" lon="-0.15538">
        <ele>2578.0559082031</ele>
        <time>2014-03-14T14:40:33Z</time>
      </trkpt>
      <trkpt lat="42.78912" lon="-0.15517">
        <ele>2575.287109375</ele>
        <time>2014-03-14T14:40:37Z</time>
      </trkpt>
      <trkpt lat="42.7891" lon="-0.15511">
        <ele>2575.5581054688</ele>
        <time>2014-03-14T14:40:38Z</time>
      </trkpt>
      <trkpt lat="42.78901" lon="-0.1549">
        <ele>2575.7709960938</ele>
        <time>2014-03-14T14:40:46Z</time>
      </trkpt>
      <trkpt lat="42.78901" lon="-0.15488">
        <ele>2576.1149902344</ele>
        <time>2014-03-14T14:40:48Z</time>
      </trkpt>
      <trkpt lat="42.78919" lon="-0.15486">
        <ele>2574.5659179688</ele>
        <time>2014-03-14T14:40:52Z</time>
      </trkpt>
      <trkpt lat="42.78927" lon="-0.15488">
        <ele>2570.7709960938</ele>
        <time>2014-03-14T14:40:53Z</time>
      </trkpt>
      <trkpt lat="42.78946" lon="-0.15497">
        <ele>2569.1340332031</ele>
        <time>2014-03-14T14:40:57Z</time>
      </trkpt>
      <trkpt lat="42.78954" lon="-0.15494">
        <ele>2568.9699707031</ele>
        <time>2014-03-14T14:41:02Z</time>
      </trkpt>
      <trkpt lat="42.78952" lon="-0.15481">
        <ele>2567.5959472656</ele>
        <time>2014-03-14T14:41:04Z</time>
      </trkpt>
      <trkpt lat="42.78947" lon="-0.15474">
        <ele>2563.7170410156</ele>
        <time>2014-03-14T14:41:05Z</time>
      </trkpt>
      <trkpt lat="42.78942" lon="-0.15468">
        <ele>2563.8020019531</ele>
        <time>2014-03-14T14:41:06Z</time>
      </trkpt>
      <trkpt lat="42.78934" lon="-0.15461">
        <ele>2561.1789550781</ele>
        <time>2014-03-14T14:41:08Z</time>
      </trkpt>
      <trkpt lat="42.78931" lon="-0.15453">
        <ele>2561.916015625</ele>
        <time>2014-03-14T14:41:11Z</time>
      </trkpt>
      <trkpt lat="42.78929" lon="-0.15446">
        <ele>2560.9729003906</ele>
        <time>2014-03-14T14:41:13Z</time>
      </trkpt>
      <trkpt lat="42.78926" lon="-0.15436">
        <ele>2560.0949707031</ele>
        <time>2014-03-14T14:41:15Z</time>
      </trkpt>
      <trkpt lat="42.78936" lon="-0.15433">
        <ele>2558.4699707031</ele>
        <time>2014-03-14T14:41:18Z</time>
      </trkpt>
      <trkpt lat="42.78942" lon="-0.15436">
        <ele>2554.5959472656</ele>
        <time>2014-03-14T14:41:19Z</time>
      </trkpt>
      <trkpt lat="42.78948" lon="-0.1544">
        <ele>2554.5969238281</ele>
        <time>2014-03-14T14:41:20Z</time>
      </trkpt>
      <trkpt lat="42.78973" lon="-0.15443">
        <ele>2549.8930664062</ele>
        <time>2014-03-14T14:41:25Z</time>
      </trkpt>
      <trkpt lat="42.78986" lon="-0.1543">
        <ele>2548.1220703125</ele>
        <time>2014-03-14T14:41:29Z</time>
      </trkpt>
      <trkpt lat="42.78994" lon="-0.15417">
        <ele>2546.2189941406</ele>
        <time>2014-03-14T14:41:32Z</time>
      </trkpt>
      <trkpt lat="42.78999" lon="-0.15408">
        <ele>2544.9499511719</ele>
        <time>2014-03-14T14:41:34Z</time>
      </trkpt>
      <trkpt lat="42.79004" lon="-0.15399">
        <ele>2543.6479492188</ele>
        <time>2014-03-14T14:41:36Z</time>
      </trkpt>
      <trkpt lat="42.79006" lon="-0.15394">
        <ele>2542.3349609375</ele>
        <time>2014-03-14T14:41:37Z</time>
      </trkpt>
      <trkpt lat="42.79013" lon="-0.15382">
        <ele>2540.6589355469</ele>
        <time>2014-03-14T14:41:46Z</time>
      </trkpt>
      <trkpt lat="42.79005" lon="-0.15381">
        <ele>2535.7170410156</ele>
        <time>2014-03-14T14:41:49Z</time>
      </trkpt>
      <trkpt lat="42.79002" lon="-0.15383">
        <ele>2535.7199707031</ele>
        <time>2014-03-14T14:41:50Z</time>
      </trkpt>
      <trkpt lat="42.78997" lon="-0.15379">
        <ele>2534.458984375</ele>
        <time>2014-03-14T14:41:52Z</time>
      </trkpt>
      <trkpt lat="42.78999" lon="-0.15364">
        <ele>2527.7670898438</ele>
        <time>2014-03-14T14:41:54Z</time>
      </trkpt>
      <trkpt lat="42.79001" lon="-0.15357">
        <ele>2527.7739257812</ele>
        <time>2014-03-14T14:41:55Z</time>
      </trkpt>
      <trkpt lat="42.79003" lon="-0.15352">
        <ele>2526.7548828125</ele>
        <time>2014-03-14T14:41:56Z</time>
      </trkpt>
      <trkpt lat="42.78992" lon="-0.15336">
        <ele>2521.25390625</ele>
        <time>2014-03-14T14:42:00Z</time>
      </trkpt>
      <trkpt lat="42.78985" lon="-0.15335">
        <ele>2518.2739257812</ele>
        <time>2014-03-14T14:42:01Z</time>
      </trkpt>
      <trkpt lat="42.78976" lon="-0.15335">
        <ele>2519.4929199219</ele>
        <time>2014-03-14T14:42:03Z</time>
      </trkpt>
      <trkpt lat="42.78971" lon="-0.15319">
        <ele>2518.2529296875</ele>
        <time>2014-03-14T14:42:07Z</time>
      </trkpt>
      <trkpt lat="42.78978" lon="-0.15294">
        <ele>2511.5170898438</ele>
        <time>2014-03-14T14:42:12Z</time>
      </trkpt>
      <trkpt lat="42.78978" lon="-0.15288">
        <ele>2511.5239257812</ele>
        <time>2014-03-14T14:42:13Z</time>
      </trkpt>
      <trkpt lat="42.78984" lon="-0.15277">
        <ele>2505.9580078125</ele>
        <time>2014-03-14T14:42:15Z</time>
      </trkpt>
      <trkpt lat="42.78986" lon="-0.1527">
        <ele>2505.9660644531</ele>
        <time>2014-03-14T14:42:16Z</time>
      </trkpt>
      <trkpt lat="42.78983" lon="-0.1524">
        <ele>2500.4641113281</ele>
        <time>2014-03-14T14:42:22Z</time>
      </trkpt>
      <trkpt lat="42.78984" lon="-0.15244">
        <ele>2500.2990722656</ele>
        <time>2014-03-14T14:42:42Z</time>
      </trkpt>
      <trkpt lat="42.78985" lon="-0.15244">
        <ele>2500.1540527344</ele>
        <time>2014-03-14T14:43:08Z</time>
      </trkpt>
      <trkpt lat="42.78985" lon="-0.15232">
        <ele>2497.4479980469</ele>
        <time>2014-03-14T14:43:12Z</time>
      </trkpt>
      <trkpt lat="42.78997" lon="-0.15233">
        <ele>2494.7819824219</ele>
        <time>2014-03-14T14:43:16Z</time>
      </trkpt>
      <trkpt lat="42.79001" lon="-0.15236">
        <ele>2493.3679199219</ele>
        <time>2014-03-14T14:43:17Z</time>
      </trkpt>
      <trkpt lat="42.79007" lon="-0.15228">
        <ele>2490.7858886719</ele>
        <time>2014-03-14T14:43:20Z</time>
      </trkpt>
      <trkpt lat="42.79006" lon="-0.15217">
        <ele>2485.9809570312</ele>
        <time>2014-03-14T14:43:22Z</time>
      </trkpt>
      <trkpt lat="42.7901" lon="-0.15215">
        <ele>2485.9890136719</ele>
        <time>2014-03-14T14:43:23Z</time>
      </trkpt>
      <trkpt lat="42.79015" lon="-0.15214">
        <ele>2483.4489746094</ele>
        <time>2014-03-14T14:43:24Z</time>
      </trkpt>
      <trkpt lat="42.7902" lon="-0.15207">
        <ele>2480.7109375</ele>
        <time>2014-03-14T14:43:27Z</time>
      </trkpt>
      <trkpt lat="42.7902" lon="-0.15203">
        <ele>2477.6411132812</ele>
        <time>2014-03-14T14:43:28Z</time>
      </trkpt>
      <trkpt lat="42.79018" lon="-0.15199">
        <ele>2476.7229003906</ele>
        <time>2014-03-14T14:43:30Z</time>
      </trkpt>
      <trkpt lat="42.79019" lon="-0.15201">
        <ele>2477.2351074219</ele>
        <time>2014-03-14T14:43:37Z</time>
      </trkpt>
      <trkpt lat="42.79023" lon="-0.15194">
        <ele>2475.0400390625</ele>
        <time>2014-03-14T14:43:40Z</time>
      </trkpt>
      <trkpt lat="42.79023" lon="-0.15184">
        <ele>2472.0258789062</ele>
        <time>2014-03-14T14:43:42Z</time>
      </trkpt>
      <trkpt lat="42.79022" lon="-0.15179">
        <ele>2472.0300292969</ele>
        <time>2014-03-14T14:43:43Z</time>
      </trkpt>
      <trkpt lat="42.79024" lon="-0.15171">
        <ele>2468.8610839844</ele>
        <time>2014-03-14T14:43:45Z</time>
      </trkpt>
      <trkpt lat="42.79027" lon="-0.15168">
        <ele>2468.8649902344</ele>
        <time>2014-03-14T14:43:46Z</time>
      </trkpt>
      <trkpt lat="42.79034" lon="-0.15165">
        <ele>2466.4509277344</ele>
        <time>2014-03-14T14:43:48Z</time>
      </trkpt>
      <trkpt lat="42.79041" lon="-0.15165">
        <ele>2464.9489746094</ele>
        <time>2014-03-14T14:43:50Z</time>
      </trkpt>
      <trkpt lat="42.79051" lon="-0.1516">
        <ele>2461.5778808594</ele>
        <time>2014-03-14T14:43:52Z</time>
      </trkpt>
      <trkpt lat="42.79065" lon="-0.15151">
        <ele>2459.9418945312</ele>
        <time>2014-03-14T14:43:55Z</time>
      </trkpt>
      <trkpt lat="42.79068" lon="-0.15146">
        <ele>2460.8549804688</ele>
        <time>2014-03-14T14:44:03Z</time>
      </trkpt>
      <trkpt lat="42.79079" lon="-0.15129">
        <ele>2457.3090820312</ele>
        <time>2014-03-14T14:44:19Z</time>
      </trkpt>
      <trkpt lat="42.79082" lon="-0.15123">
        <ele>2456.0239257812</ele>
        <time>2014-03-14T14:44:21Z</time>
      </trkpt>
      <trkpt lat="42.79083" lon="-0.15123">
        <ele>2456.3229980469</ele>
        <time>2014-03-14T14:44:42Z</time>
      </trkpt>
      <trkpt lat="42.79083" lon="-0.15123">
        <ele>2455.9020996094</ele>
        <time>2014-03-14T14:44:45Z</time>
      </trkpt>
      <trkpt lat="42.79072" lon="-0.15119">
        <ele>2453.4528808594</ele>
        <time>2014-03-14T14:44:48Z</time>
      </trkpt>
      <trkpt lat="42.79064" lon="-0.1512">
        <ele>2450.875</ele>
        <time>2014-03-14T14:44:50Z</time>
      </trkpt>
      <trkpt lat="42.79058" lon="-0.15115">
        <ele>2450.0419921875</ele>
        <time>2014-03-14T14:44:54Z</time>
      </trkpt>
      <trkpt lat="42.79066" lon="-0.15109">
        <ele>2446.9719238281</ele>
        <time>2014-03-14T14:44:56Z</time>
      </trkpt>
      <trkpt lat="42.79074" lon="-0.15097">
        <ele>2444.12109375</ele>
        <time>2014-03-14T14:44:58Z</time>
      </trkpt>
      <trkpt lat="42.79083" lon="-0.15083">
        <ele>2442.5830078125</ele>
        <time>2014-03-14T14:45:00Z</time>
      </trkpt>
      <trkpt lat="42.79087" lon="-0.15072">
        <ele>2440.3449707031</ele>
        <time>2014-03-14T14:45:02Z</time>
      </trkpt>
      <trkpt lat="42.79088" lon="-0.15069">
        <ele>2440.3249511719</ele>
        <time>2014-03-14T14:45:11Z</time>
      </trkpt>
      <trkpt lat="42.79087" lon="-0.15067">
        <ele>2440.2409667969</ele>
        <time>2014-03-14T14:45:20Z</time>
      </trkpt>
      <trkpt lat="42.79082" lon="-0.1507">
        <ele>2437.8439941406</ele>
        <time>2014-03-14T14:45:23Z</time>
      </trkpt>
      <trkpt lat="42.79078" lon="-0.15071">
        <ele>2436.126953125</ele>
        <time>2014-03-14T14:45:25Z</time>
      </trkpt>
      <trkpt lat="42.79076" lon="-0.15066">
        <ele>2432.5729980469</ele>
        <time>2014-03-14T14:45:27Z</time>
      </trkpt>
      <trkpt lat="42.79078" lon="-0.1506">
        <ele>2432.5769042969</ele>
        <time>2014-03-14T14:45:28Z</time>
      </trkpt>
      <trkpt lat="42.79081" lon="-0.15049">
        <ele>2429.6809082031</ele>
        <time>2014-03-14T14:45:30Z</time>
      </trkpt>
      <trkpt lat="42.79081" lon="-0.15037">
        <ele>2428.3869628906</ele>
        <time>2014-03-14T14:45:32Z</time>
      </trkpt>
      <trkpt lat="42.79082" lon="-0.15029">
        <ele>2424.1459960938</ele>
        <time>2014-03-14T14:45:34Z</time>
      </trkpt>
      <trkpt lat="42.79082" lon="-0.15024">
        <ele>2424.1508789062</ele>
        <time>2014-03-14T14:45:35Z</time>
      </trkpt>
      <trkpt lat="42.79084" lon="-0.15012">
        <ele>2421.7890625</ele>
        <time>2014-03-14T14:45:37Z</time>
      </trkpt>
      <trkpt lat="42.79083" lon="-0.15001">
        <ele>2419.0849609375</ele>
        <time>2014-03-14T14:45:39Z</time>
      </trkpt>
      <trkpt lat="42.79083" lon="-0.14995">
        <ele>2414.291015625</ele>
        <time>2014-03-14T14:45:41Z</time>
      </trkpt>
      <trkpt lat="42.79081" lon="-0.14995">
        <ele>2414.2958984375</ele>
        <time>2014-03-14T14:45:42Z</time>
      </trkpt>
      <trkpt lat="42.79075" lon="-0.14994">
        <ele>2410.5849609375</ele>
        <time>2014-03-14T14:45:44Z</time>
      </trkpt>
      <trkpt lat="42.79075" lon="-0.14989">
        <ele>2406.1450195312</ele>
        <time>2014-03-14T14:45:45Z</time>
      </trkpt>
      <trkpt lat="42.79075" lon="-0.14983">
        <ele>2406.1508789062</ele>
        <time>2014-03-14T14:45:46Z</time>
      </trkpt>
      <trkpt lat="42.79069" lon="-0.14979">
        <ele>2398.6770019531</ele>
        <time>2014-03-14T14:45:48Z</time>
      </trkpt>
      <trkpt lat="42.79067" lon="-0.14979">
        <ele>2398.6850585938</ele>
        <time>2014-03-14T14:45:49Z</time>
      </trkpt>
      <trkpt lat="42.79067" lon="-0.14973">
        <ele>2394.7060546875</ele>
        <time>2014-03-14T14:45:50Z</time>
      </trkpt>
      <trkpt lat="42.79068" lon="-0.14957">
        <ele>2390.5180664062</ele>
        <time>2014-03-14T14:45:52Z</time>
      </trkpt>
      <trkpt lat="42.79068" lon="-0.14949">
        <ele>2390.5280761719</ele>
        <time>2014-03-14T14:45:53Z</time>
      </trkpt>
      <trkpt lat="42.79071" lon="-0.14934">
        <ele>2387.7619628906</ele>
        <time>2014-03-14T14:45:55Z</time>
      </trkpt>
      <trkpt lat="42.79072" lon="-0.14927">
        <ele>2384.8850097656</ele>
        <time>2014-03-14T14:45:56Z</time>
      </trkpt>
      <trkpt lat="42.79075" lon="-0.14913">
        <ele>2382.5339355469</ele>
        <time>2014-03-14T14:45:58Z</time>
      </trkpt>
      <trkpt lat="42.79077" lon="-0.14908">
        <ele>2381.1640625</ele>
        <time>2014-03-14T14:46:00Z</time>
      </trkpt>
      <trkpt lat="42.79078" lon="-0.14908">
        <ele>2381.5859375</ele>
        <time>2014-03-14T14:46:21Z</time>
      </trkpt>
      <trkpt lat="42.7907" lon="-0.14909">
        <ele>2375.458984375</ele>
        <time>2014-03-14T14:46:25Z</time>
      </trkpt>
      <trkpt lat="42.79065" lon="-0.149">
        <ele>2372.7529296875</ele>
        <time>2014-03-14T14:46:28Z</time>
      </trkpt>
      <trkpt lat="42.7906" lon="-0.14897">
        <ele>2370.1960449219</ele>
        <time>2014-03-14T14:46:30Z</time>
      </trkpt>
      <trkpt lat="42.79057" lon="-0.14898">
        <ele>2366.0380859375</ele>
        <time>2014-03-14T14:46:31Z</time>
      </trkpt>
      <trkpt lat="42.79053" lon="-0.14891">
        <ele>2363.5239257812</ele>
        <time>2014-03-14T14:46:33Z</time>
      </trkpt>
      <trkpt lat="42.79051" lon="-0.14878">
        <ele>2360.0900878906</ele>
        <time>2014-03-14T14:46:35Z</time>
      </trkpt>
      <trkpt lat="42.79044" lon="-0.14879">
        <ele>2356.1201171875</ele>
        <time>2014-03-14T14:46:37Z</time>
      </trkpt>
      <trkpt lat="42.7904" lon="-0.14881">
        <ele>2351.7600097656</ele>
        <time>2014-03-14T14:46:38Z</time>
      </trkpt>
      <trkpt lat="42.79037" lon="-0.14883">
        <ele>2351.7709960938</ele>
        <time>2014-03-14T14:46:39Z</time>
      </trkpt>
      <trkpt lat="42.79034" lon="-0.14867">
        <ele>2346.4919433594</ele>
        <time>2014-03-14T14:46:41Z</time>
      </trkpt>
      <trkpt lat="42.79036" lon="-0.14862">
        <ele>2346.501953125</ele>
        <time>2014-03-14T14:46:42Z</time>
      </trkpt>
      <trkpt lat="42.79039" lon="-0.14851">
        <ele>2344.623046875</ele>
        <time>2014-03-14T14:46:44Z</time>
      </trkpt>
      <trkpt lat="42.79038" lon="-0.14844">
        <ele>2343.3229980469</ele>
        <time>2014-03-14T14:46:45Z</time>
      </trkpt>
      <trkpt lat="42.79028" lon="-0.14839">
        <ele>2338.6540527344</ele>
        <time>2014-03-14T14:46:47Z</time>
      </trkpt>
      <trkpt lat="42.79014" lon="-0.14848">
        <ele>2333.8540039062</ele>
        <time>2014-03-14T14:46:52Z</time>
      </trkpt>
      <trkpt lat="42.79013" lon="-0.14847">
        <ele>2334.9008789062</ele>
        <time>2014-03-14T14:46:53Z</time>
      </trkpt>
      <trkpt lat="42.79013" lon="-0.14851">
        <ele>2335.2360839844</ele>
        <time>2014-03-14T14:47:19Z</time>
      </trkpt>
      <trkpt lat="42.79012" lon="-0.14857">
        <ele>2335.376953125</ele>
        <time>2014-03-14T14:49:43Z</time>
      </trkpt>
      <trkpt lat="42.79012" lon="-0.14858">
        <ele>2336.3291015625</ele>
        <time>2014-03-14T14:52:20Z</time>
      </trkpt>
      <trkpt lat="42.79003" lon="-0.14856">
        <ele>2334.7749023438</ele>
        <time>2014-03-14T14:52:23Z</time>
      </trkpt>
      <trkpt lat="42.78995" lon="-0.14856">
        <ele>2332.9060058594</ele>
        <time>2014-03-14T14:52:25Z</time>
      </trkpt>
      <trkpt lat="42.78999" lon="-0.14833">
        <ele>2326.8420410156</ele>
        <time>2014-03-14T14:52:29Z</time>
      </trkpt>
      <trkpt lat="42.79013" lon="-0.14815">
        <ele>2324.412109375</ele>
        <time>2014-03-14T14:52:32Z</time>
      </trkpt>
      <trkpt lat="42.79023" lon="-0.14801">
        <ele>2323.6279296875</ele>
        <time>2014-03-14T14:52:39Z</time>
      </trkpt>
      <trkpt lat="42.79027" lon="-0.14792">
        <ele>2321.751953125</ele>
        <time>2014-03-14T14:52:42Z</time>
      </trkpt>
      <trkpt lat="42.79031" lon="-0.14782">
        <ele>2320.0959472656</ele>
        <time>2014-03-14T14:52:44Z</time>
      </trkpt>
      <trkpt lat="42.79036" lon="-0.14773">
        <ele>2318.6069335938</ele>
        <time>2014-03-14T14:52:46Z</time>
      </trkpt>
      <trkpt lat="42.79042" lon="-0.14764">
        <ele>2316.3869628906</ele>
        <time>2014-03-14T14:52:48Z</time>
      </trkpt>
      <trkpt lat="42.79049" lon="-0.14752">
        <ele>2313.6889648438</ele>
        <time>2014-03-14T14:52:51Z</time>
      </trkpt>
      <trkpt lat="42.79051" lon="-0.14745">
        <ele>2312.2351074219</ele>
        <time>2014-03-14T14:52:53Z</time>
      </trkpt>
      <trkpt lat="42.79044" lon="-0.14739">
        <ele>2310.0048828125</ele>
        <time>2014-03-14T14:52:55Z</time>
      </trkpt>
      <trkpt lat="42.79041" lon="-0.14741">
        <ele>2304.7570800781</ele>
        <time>2014-03-14T14:52:56Z</time>
      </trkpt>
      <trkpt lat="42.79038" lon="-0.14743">
        <ele>2303.3869628906</ele>
        <time>2014-03-14T14:52:57Z</time>
      </trkpt>
      <trkpt lat="42.79039" lon="-0.14732">
        <ele>2299.626953125</ele>
        <time>2014-03-14T14:53:01Z</time>
      </trkpt>
      <trkpt lat="42.79039" lon="-0.14726">
        <ele>2297.2180175781</ele>
        <time>2014-03-14T14:53:03Z</time>
      </trkpt>
      <trkpt lat="42.79033" lon="-0.14727">
        <ele>2293.0400390625</ele>
        <time>2014-03-14T14:53:05Z</time>
      </trkpt>
      <trkpt lat="42.79031" lon="-0.14726">
        <ele>2292.6040039062</ele>
        <time>2014-03-14T14:53:11Z</time>
      </trkpt>
      <trkpt lat="42.79026" lon="-0.14726">
        <ele>2290.6279296875</ele>
        <time>2014-03-14T14:53:14Z</time>
      </trkpt>
      <trkpt lat="42.79024" lon="-0.14718">
        <ele>2289.0520019531</ele>
        <time>2014-03-14T14:53:16Z</time>
      </trkpt>
      <trkpt lat="42.79025" lon="-0.14714">
        <ele>2285.5139160156</ele>
        <time>2014-03-14T14:53:17Z</time>
      </trkpt>
      <trkpt lat="42.79021" lon="-0.14704">
        <ele>2278.9089355469</ele>
        <time>2014-03-14T14:53:20Z</time>
      </trkpt>
      <trkpt lat="42.79018" lon="-0.14705">
        <ele>2278.91796875</ele>
        <time>2014-03-14T14:53:21Z</time>
      </trkpt>
      <trkpt lat="42.79014" lon="-0.14705">
        <ele>2276.5930175781</ele>
        <time>2014-03-14T14:53:22Z</time>
      </trkpt>
      <trkpt lat="42.79016" lon="-0.14693">
        <ele>2271.7529296875</ele>
        <time>2014-03-14T14:53:26Z</time>
      </trkpt>
      <trkpt lat="42.7902" lon="-0.14687">
        <ele>2270.3090820312</ele>
        <time>2014-03-14T14:53:28Z</time>
      </trkpt>
      <trkpt lat="42.79013" lon="-0.14674">
        <ele>2265.1799316406</ele>
        <time>2014-03-14T14:53:31Z</time>
      </trkpt>
      <trkpt lat="42.79007" lon="-0.14673">
        <ele>2265.1889648438</ele>
        <time>2014-03-14T14:53:32Z</time>
      </trkpt>
      <trkpt lat="42.78996" lon="-0.14674">
        <ele>2258.8159179688</ele>
        <time>2014-03-14T14:53:34Z</time>
      </trkpt>
      <trkpt lat="42.78985" lon="-0.14682">
        <ele>2259.6508789062</ele>
        <time>2014-03-14T14:53:42Z</time>
      </trkpt>
      <trkpt lat="42.78984" lon="-0.14682">
        <ele>2259.5539550781</ele>
        <time>2014-03-14T14:53:52Z</time>
      </trkpt>
      <trkpt lat="42.78979" lon="-0.1468">
        <ele>2259.3630371094</ele>
        <time>2014-03-14T14:53:55Z</time>
      </trkpt>
      <trkpt lat="42.78979" lon="-0.14669">
        <ele>2257.8869628906</ele>
        <time>2014-03-14T14:53:58Z</time>
      </trkpt>
      <trkpt lat="42.78979" lon="-0.14667">
        <ele>2255.7919921875</ele>
        <time>2014-03-14T14:54:00Z</time>
      </trkpt>
      <trkpt lat="42.78981" lon="-0.14666">
        <ele>2255.4951171875</ele>
        <time>2014-03-14T14:54:06Z</time>
      </trkpt>
      <trkpt lat="42.78971" lon="-0.14656">
        <ele>2253.0910644531</ele>
        <time>2014-03-14T14:54:09Z</time>
      </trkpt>
      <trkpt lat="42.78968" lon="-0.14653">
        <ele>2250.6831054688</ele>
        <time>2014-03-14T14:54:10Z</time>
      </trkpt>
      <trkpt lat="42.78964" lon="-0.1465">
        <ele>2249.837890625</ele>
        <time>2014-03-14T14:54:12Z</time>
      </trkpt>
      <trkpt lat="42.7897" lon="-0.14638">
        <ele>2246.7319335938</ele>
        <time>2014-03-14T14:54:16Z</time>
      </trkpt>
      <trkpt lat="42.78971" lon="-0.14625">
        <ele>2241.6640625</ele>
        <time>2014-03-14T14:54:19Z</time>
      </trkpt>
      <trkpt lat="42.78972" lon="-0.14621">
        <ele>2238.12890625</ele>
        <time>2014-03-14T14:54:20Z</time>
      </trkpt>
      <trkpt lat="42.78972" lon="-0.14615">
        <ele>2238.1411132812</ele>
        <time>2014-03-14T14:54:21Z</time>
      </trkpt>
      <trkpt lat="42.7897" lon="-0.14611">
        <ele>2234.6850585938</ele>
        <time>2014-03-14T14:54:22Z</time>
      </trkpt>
      <trkpt lat="42.78968" lon="-0.14608">
        <ele>2234.6979980469</ele>
        <time>2014-03-14T14:54:23Z</time>
      </trkpt>
      <trkpt lat="42.78961" lon="-0.146">
        <ele>2230.6630859375</ele>
        <time>2014-03-14T14:54:26Z</time>
      </trkpt>
      <trkpt lat="42.78964" lon="-0.1459">
        <ele>2229.1760253906</ele>
        <time>2014-03-14T14:54:28Z</time>
      </trkpt>
      <trkpt lat="42.78968" lon="-0.14586">
        <ele>2225.0610351562</ele>
        <time>2014-03-14T14:54:29Z</time>
      </trkpt>
      <trkpt lat="42.78973" lon="-0.14583">
        <ele>2225.0729980469</ele>
        <time>2014-03-14T14:54:30Z</time>
      </trkpt>
      <trkpt lat="42.78971" lon="-0.14565">
        <ele>2220.6789550781</ele>
        <time>2014-03-14T14:54:33Z</time>
      </trkpt>
      <trkpt lat="42.78966" lon="-0.14559">
        <ele>2216.6770019531</ele>
        <time>2014-03-14T14:54:34Z</time>
      </trkpt>
      <trkpt lat="42.78968" lon="-0.14529">
        <ele>2213.8898925781</ele>
        <time>2014-03-14T14:54:37Z</time>
      </trkpt>
      <trkpt lat="42.78974" lon="-0.14526">
        <ele>2210.6499023438</ele>
        <time>2014-03-14T14:54:38Z</time>
      </trkpt>
      <trkpt lat="42.78979" lon="-0.14527">
        <ele>2210.6589355469</ele>
        <time>2014-03-14T14:54:39Z</time>
      </trkpt>
      <trkpt lat="42.78986" lon="-0.14532">
        <ele>2210.0590820312</ele>
        <time>2014-03-14T14:54:40Z</time>
      </trkpt>
      <trkpt lat="42.78997" lon="-0.14541">
        <ele>2209.9899902344</ele>
        <time>2014-03-14T14:54:50Z</time>
      </trkpt>
      <trkpt lat="42.78998" lon="-0.14541">
        <ele>2210.3859863281</ele>
        <time>2014-03-14T14:54:53Z</time>
      </trkpt>
      <trkpt lat="42.79015" lon="-0.1453">
        <ele>2207.458984375</ele>
        <time>2014-03-14T14:54:58Z</time>
      </trkpt>
      <trkpt lat="42.79021" lon="-0.14526">
        <ele>2204.1730957031</ele>
        <time>2014-03-14T14:54:59Z</time>
      </trkpt>
      <trkpt lat="42.79029" lon="-0.14522">
        <ele>2204.1770019531</ele>
        <time>2014-03-14T14:55:00Z</time>
      </trkpt>
      <trkpt lat="42.79037" lon="-0.14517">
        <ele>2200.1499023438</ele>
        <time>2014-03-14T14:55:01Z</time>
      </trkpt>
      <trkpt lat="42.79052" lon="-0.14511">
        <ele>2198.5610351562</ele>
        <time>2014-03-14T14:55:03Z</time>
      </trkpt>
      <trkpt lat="42.79065" lon="-0.14503">
        <ele>2197.1469726562</ele>
        <time>2014-03-14T14:55:05Z</time>
      </trkpt>
      <trkpt lat="42.79089" lon="-0.14486">
        <ele>2193.7099609375</ele>
        <time>2014-03-14T14:55:11Z</time>
      </trkpt>
      <trkpt lat="42.7909" lon="-0.14485">
        <ele>2193.712890625</ele>
        <time>2014-03-14T14:55:12Z</time>
      </trkpt>
      <trkpt lat="42.79092" lon="-0.14484">
        <ele>2193.6630859375</ele>
        <time>2014-03-14T14:55:13Z</time>
      </trkpt>
      <trkpt lat="42.79085" lon="-0.14478">
        <ele>2188.2419433594</ele>
        <time>2014-03-14T14:55:16Z</time>
      </trkpt>
      <trkpt lat="42.79083" lon="-0.14479">
        <ele>2188.2451171875</ele>
        <time>2014-03-14T14:55:17Z</time>
      </trkpt>
      <trkpt lat="42.79081" lon="-0.1448">
        <ele>2188.29296875</ele>
        <time>2014-03-14T14:55:19Z</time>
      </trkpt>
      <trkpt lat="42.79085" lon="-0.14466">
        <ele>2184.0471191406</ele>
        <time>2014-03-14T14:55:22Z</time>
      </trkpt>
      <trkpt lat="42.79089" lon="-0.14462">
        <ele>2184.0490722656</ele>
        <time>2014-03-14T14:55:23Z</time>
      </trkpt>
      <trkpt lat="42.79095" lon="-0.14458">
        <ele>2181.1020507812</ele>
        <time>2014-03-14T14:55:25Z</time>
      </trkpt>
      <trkpt lat="42.79108" lon="-0.14441">
        <ele>2179.1550292969</ele>
        <time>2014-03-14T14:55:28Z</time>
      </trkpt>
      <trkpt lat="42.79115" lon="-0.14433">
        <ele>2173.3159179688</ele>
        <time>2014-03-14T14:55:29Z</time>
      </trkpt>
      <trkpt lat="42.79132" lon="-0.14412">
        <ele>2165.662109375</ele>
        <time>2014-03-14T14:55:31Z</time>
      </trkpt>
      <trkpt lat="42.79146" lon="-0.14391">
        <ele>2161.291015625</ele>
        <time>2014-03-14T14:55:33Z</time>
      </trkpt>
      <trkpt lat="42.79152" lon="-0.14379">
        <ele>2156.5639648438</ele>
        <time>2014-03-14T14:55:34Z</time>
      </trkpt>
      <trkpt lat="42.79162" lon="-0.14349">
        <ele>2149.3081054688</ele>
        <time>2014-03-14T14:55:36Z</time>
      </trkpt>
      <trkpt lat="42.79168" lon="-0.14335">
        <ele>2149.3149414062</ele>
        <time>2014-03-14T14:55:37Z</time>
      </trkpt>
      <trkpt lat="42.7921" lon="-0.14261">
        <ele>2150.9150390625</ele>
        <time>2014-03-14T14:55:47Z</time>
      </trkpt>
      <trkpt lat="42.7924" lon="-0.14221">
        <ele>2150.1979980469</ele>
        <time>2014-03-14T14:55:59Z</time>
      </trkpt>
      <trkpt lat="42.79262" lon="-0.14195">
        <ele>2149.9919433594</ele>
        <time>2014-03-14T14:56:11Z</time>
      </trkpt>
      <trkpt lat="42.79265" lon="-0.14185">
        <ele>2149.5749511719</ele>
        <time>2014-03-14T14:56:23Z</time>
      </trkpt>
      <trkpt lat="42.7927" lon="-0.14168">
        <ele>2150.1799316406</ele>
        <time>2014-03-14T14:56:39Z</time>
      </trkpt>
      <trkpt lat="42.79273" lon="-0.14155">
        <ele>2149.2770996094</ele>
        <time>2014-03-14T14:56:50Z</time>
      </trkpt>
      <trkpt lat="42.79271" lon="-0.14149">
        <ele>2150.2729492188</ele>
        <time>2014-03-14T14:57:08Z</time>
      </trkpt>
      <trkpt lat="42.7927" lon="-0.14142">
        <ele>2153.5390625</ele>
        <time>2014-03-14T14:57:39Z</time>
      </trkpt>
      <trkpt lat="42.79271" lon="-0.14133">
        <ele>2154.7980957031</ele>
        <time>2014-03-14T14:58:01Z</time>
      </trkpt>
      <trkpt lat="42.79274" lon="-0.1413">
        <ele>2155.87890625</ele>
        <time>2014-03-14T14:58:16Z</time>
      </trkpt>
      <trkpt lat="42.79279" lon="-0.14128">
        <ele>2156.5910644531</ele>
        <time>2014-03-14T14:58:32Z</time>
      </trkpt>
    </trkseg>
  </trk>
</gpx>